PWSweather.com
Personal Weather Stations
Station Observations
KPAWHITE2
Hokendauqua, Whitehall, PA 18052

HokendauquaWhitehall, PA 18052

Lat: 40.656, Lon: -75.493

Elevation: 310

Station Type: Davis Vantage Pro 2

http://wx.eichman.net

High Low Average
Temperature 41.4°F5.2°C 21.5°F-5.8°C 31.4°F-0.3°C
Dew Point 22.5°F-5.3°C 13.8°F-10.1°C 18.6°F-7.4°C
Winds 5.0 mph 8.0 kmh Calm Calm 2.0 mph SE3.2 kmh SE
Wind Gusts 11.0 mph17.7 kmh -- 6.0 mph9.7 kmh
Humidity 77% 43% 59%
Pressure 30.83 in1044.0 mb 30.63 in1037.3 mb -
Precipitation 0.00 in0.0 mm - -
Hour Temp Dew Point Humidity Winds Wind Gusts Pressure Precip Precip Rate Daily Precip Total
12:00 AM 31.4°F-0.3°C 19.5°F-6.9°C 61% Calm Calm 3.0 mph4.8 kmh 30.67 in1038.6 mb 0.00 in0.0 mm 0.00 in0.0 mm 0.00 in0.0 mm
12:01 AM 31.4°F-0.3°C 19.5°F-6.9°C 61% Calm Calm 3.0 mph4.8 kmh 30.67 in1038.6 mb 0.00 in0.0 mm 0.00 in0.0 mm 0.00 in0.0 mm
12:02 AM 31.3°F-0.4°C 19.4°F-7.0°C 61% Calm Calm 5.0 mph8.0 kmh 30.67 in1038.6 mb 0.00 in0.0 mm 0.00 in0.0 mm 0.00 in0.0 mm
12:03 AM 31.3°F-0.4°C 19.4°F-7.0°C 61% Calm Calm 6.0 mph9.7 kmh 30.68 in1038.9 mb 0.00 in0.0 mm 0.00 in0.0 mm 0.00 in0.0 mm
12:04 AM 31.3°F-0.4°C 19.4°F-7.0°C 61% 1.0 mph NNW1.6 kmh NNW 6.0 mph9.7 kmh 30.68 in1038.9 mb 0.00 in0.0 mm 0.00 in0.0 mm 0.00 in0.0 mm
12:05 AM 31.2°F-0.4°C 19.3°F-7.1°C 61% 1.0 mph NNW1.6 kmh NNW 6.0 mph9.7 kmh 30.68 in1038.9 mb 0.00 in0.0 mm 0.00 in0.0 mm 0.00 in0.0 mm
12:06 AM 31.2°F-0.4°C 19.7°F-6.8°C 62% 1.0 mph NNW1.6 kmh NNW 6.0 mph9.7 kmh 30.68 in1038.9 mb 0.00 in0.0 mm 0.00 in0.0 mm 0.00 in0.0 mm
12:07 AM 31.2°F-0.4°C 19.7°F-6.8°C 62% 1.0 mph NNW1.6 kmh NNW 6.0 mph9.7 kmh 30.68 in1038.9 mb 0.00 in0.0 mm 0.00 in0.0 mm 0.00 in0.0 mm
12:08 AM 31.2°F-0.4°C 19.7°F-6.8°C 62% 1.0 mph NNW1.6 kmh NNW 6.0 mph9.7 kmh 30.68 in1038.9 mb 0.00 in0.0 mm 0.00 in0.0 mm 0.00 in0.0 mm
12:09 AM 31.1°F-0.5°C 19.6°F-6.9°C 62% 1.0 mph NNW1.6 kmh NNW 6.0 mph9.7 kmh 30.68 in1038.9 mb 0.00 in0.0 mm 0.00 in0.0 mm 0.00 in0.0 mm
12:10 AM 31.1°F-0.5°C 19.6°F-6.9°C 62% 1.0 mph NNW1.6 kmh NNW 6.0 mph9.7 kmh 30.68 in1038.9 mb 0.00 in0.0 mm 0.00 in0.0 mm 0.00 in0.0 mm
12:11 AM 31.0°F-0.6°C 19.5°F-6.9°C 62% 2.0 mph NNW3.2 kmh NNW 6.0 mph9.7 kmh 30.68 in1038.9 mb 0.00 in0.0 mm 0.00 in0.0 mm 0.00 in0.0 mm
12:12 AM 31.0°F-0.6°C 19.5°F-6.9°C 62% 2.0 mph NNW3.2 kmh NNW 6.0 mph9.7 kmh 30.68 in1038.9 mb 0.00 in0.0 mm 0.00 in0.0 mm 0.00 in0.0 mm
12:13 AM 31.0°F-0.6°C 19.5°F-6.9°C 62% 2.0 mph N3.2 kmh N 6.0 mph9.7 kmh 30.68 in1038.9 mb 0.00 in0.0 mm 0.00 in0.0 mm 0.00 in0.0 mm
12:14 AM 31.0°F-0.6°C 19.5°F-6.9°C 62% 1.0 mph NNW1.6 kmh NNW 7.0 mph11.3 kmh 30.68 in1038.9 mb 0.00 in0.0 mm 0.00 in0.0 mm 0.00 in0.0 mm
12:15 AM 31.0°F-0.6°C 19.5°F-6.9°C 62% 2.0 mph N3.2 kmh N 8.0 mph12.9 kmh 30.68 in1038.9 mb 0.00 in0.0 mm 0.00 in0.0 mm 0.00 in0.0 mm
12:16 AM 31.0°F-0.6°C 19.5°F-6.9°C 62% 2.0 mph N3.2 kmh N 8.0 mph12.9 kmh 30.68 in1038.9 mb 0.00 in0.0 mm 0.00 in0.0 mm 0.00 in0.0 mm
12:17 AM 31.0°F-0.6°C 19.5°F-6.9°C 62% 2.0 mph N3.2 kmh N 8.0 mph12.9 kmh 30.68 in1038.9 mb 0.00 in0.0 mm 0.00 in0.0 mm 0.00 in0.0 mm
12:18 AM 31.0°F-0.6°C 19.5°F-6.9°C 62% 2.0 mph N3.2 kmh N 8.0 mph12.9 kmh 30.68 in1038.9 mb 0.00 in0.0 mm 0.00 in0.0 mm 0.00 in0.0 mm
12:19 AM 31.0°F-0.6°C 19.5°F-6.9°C 62% 2.0 mph NNW3.2 kmh NNW 8.0 mph12.9 kmh 30.68 in1038.9 mb 0.00 in0.0 mm 0.00 in0.0 mm 0.00 in0.0 mm
12:20 AM 31.0°F-0.6°C 19.5°F-6.9°C 62% 2.0 mph N3.2 kmh N 8.0 mph12.9 kmh 30.68 in1038.9 mb 0.00 in0.0 mm 0.00 in0.0 mm 0.00 in0.0 mm
12:21 AM 31.0°F-0.6°C 19.5°F-6.9°C 62% 2.0 mph NNW3.2 kmh NNW 8.0 mph12.9 kmh 30.68 in1038.9 mb 0.00 in0.0 mm 0.00 in0.0 mm 0.00 in0.0 mm
12:22 AM 31.0°F-0.6°C 19.5°F-6.9°C 62% 2.0 mph N3.2 kmh N 8.0 mph12.9 kmh 30.68 in1038.9 mb 0.00 in0.0 mm 0.00 in0.0 mm 0.00 in0.0 mm
12:23 AM 31.0°F-0.6°C 19.5°F-6.9°C 62% 2.0 mph NNW3.2 kmh NNW 8.0 mph12.9 kmh 30.69 in1039.3 mb 0.00 in0.0 mm 0.00 in0.0 mm 0.00 in0.0 mm
12:24 AM 31.0°F-0.6°C 19.5°F-6.9°C 62% 2.0 mph N3.2 kmh N 8.0 mph12.9 kmh 30.69 in1039.3 mb 0.00 in0.0 mm 0.00 in0.0 mm 0.00 in0.0 mm
12:25 AM 31.0°F-0.6°C 19.5°F-6.9°C 62% 2.0 mph NNW3.2 kmh NNW 7.0 mph11.3 kmh 30.69 in1039.3 mb 0.00 in0.0 mm 0.00 in0.0 mm 0.00 in0.0 mm
12:26 AM 31.0°F-0.6°C 19.5°F-6.9°C 62% 2.0 mph NNW3.2 kmh NNW 7.0 mph11.3 kmh 30.69 in1039.3 mb 0.00 in0.0 mm 0.00 in0.0 mm 0.00 in0.0 mm
12:27 AM 31.0°F-0.6°C 19.5°F-6.9°C 62% 1.0 mph N1.6 kmh N 7.0 mph11.3 kmh 30.69 in1039.3 mb 0.00 in0.0 mm 0.00 in0.0 mm 0.00 in0.0 mm
12:28 AM 30.9°F-0.6°C 19.4°F-7.0°C 62% 1.0 mph N1.6 kmh N 7.0 mph11.3 kmh 30.69 in1039.3 mb 0.00 in0.0 mm 0.00 in0.0 mm 0.00 in0.0 mm
12:29 AM 30.9°F-0.6°C 19.4°F-7.0°C 62% 1.0 mph N1.6 kmh N 5.0 mph8.0 kmh 30.69 in1039.3 mb 0.00 in0.0 mm 0.00 in0.0 mm 0.00 in0.0 mm
12:30 AM 30.8°F-0.7°C 19.3°F-7.1°C 62% 1.0 mph N1.6 kmh N 5.0 mph8.0 kmh 30.69 in1039.3 mb 0.00 in0.0 mm 0.00 in0.0 mm 0.00 in0.0 mm
12:31 AM 30.8°F-0.7°C 19.3°F-7.1°C 62% 1.0 mph NNW1.6 kmh NNW 5.0 mph8.0 kmh 30.69 in1039.3 mb 0.00 in0.0 mm 0.00 in0.0 mm 0.00 in0.0 mm
12:32 AM 30.8°F-0.7°C 19.3°F-7.1°C 62% 1.0 mph NNW1.6 kmh NNW 4.0 mph6.4 kmh 30.69 in1039.3 mb 0.00 in0.0 mm 0.00 in0.0 mm 0.00 in0.0 mm
12:33 AM 30.7°F-0.7°C 19.2°F-7.1°C 62% 1.0 mph NNW1.6 kmh NNW 4.0 mph6.4 kmh 30.69 in1039.3 mb 0.00 in0.0 mm 0.00 in0.0 mm 0.00 in0.0 mm
12:34 AM 30.7°F-0.7°C 19.6°F-6.9°C 63% 1.0 mph NNW1.6 kmh NNW 4.0 mph6.4 kmh 30.69 in1039.3 mb 0.00 in0.0 mm 0.00 in0.0 mm 0.00 in0.0 mm
12:35 AM 30.7°F-0.7°C 19.6°F-6.9°C 63% 1.0 mph NNW1.6 kmh NNW 9.0 mph14.5 kmh 30.69 in1039.3 mb 0.00 in0.0 mm 0.00 in0.0 mm 0.00 in0.0 mm
12:36 AM 30.6°F-0.8°C 19.5°F-6.9°C 63% 1.0 mph NW1.6 kmh NW 9.0 mph14.5 kmh 30.69 in1039.3 mb 0.00 in0.0 mm 0.00 in0.0 mm 0.00 in0.0 mm
12:37 AM 30.6°F-0.8°C 19.5°F-6.9°C 63% 1.0 mph NW1.6 kmh NW 9.0 mph14.5 kmh 30.69 in1039.3 mb 0.00 in0.0 mm 0.00 in0.0 mm 0.00 in0.0 mm
12:38 AM 30.6°F-0.8°C 19.5°F-6.9°C 63% 1.0 mph NNW1.6 kmh NNW 9.0 mph14.5 kmh 30.69 in1039.3 mb 0.00 in0.0 mm 0.00 in0.0 mm 0.00 in0.0 mm
12:39 AM 30.6°F-0.8°C 19.5°F-6.9°C 63% 2.0 mph NNW3.2 kmh NNW 9.0 mph14.5 kmh 30.69 in1039.3 mb 0.00 in0.0 mm 0.00 in0.0 mm 0.00 in0.0 mm
12:40 AM 30.6°F-0.8°C 19.5°F-6.9°C 63% 2.0 mph NNW3.2 kmh NNW 9.0 mph14.5 kmh 30.69 in1039.3 mb 0.00 in0.0 mm 0.00 in0.0 mm 0.00 in0.0 mm
12:41 AM 30.5°F-0.8°C 19.4°F-7.0°C 63% 2.0 mph NNW3.2 kmh NNW 9.0 mph14.5 kmh 30.69 in1039.3 mb 0.00 in0.0 mm 0.00 in0.0 mm 0.00 in0.0 mm
12:42 AM 30.5°F-0.8°C 19.4°F-7.0°C 63% 2.0 mph NNW3.2 kmh NNW 9.0 mph14.5 kmh 30.69 in1039.3 mb 0.00 in0.0 mm 0.00 in0.0 mm 0.00 in0.0 mm
12:43 AM 30.5°F-0.8°C 19.4°F-7.0°C 63% 2.0 mph NNW3.2 kmh NNW 9.0 mph14.5 kmh 30.69 in1039.3 mb 0.00 in0.0 mm 0.00 in0.0 mm 0.00 in0.0 mm
12:44 AM 30.5°F-0.8°C 19.4°F-7.0°C 63% 2.0 mph NNW3.2 kmh NNW 9.0 mph14.5 kmh 30.69 in1039.3 mb 0.00 in0.0 mm 0.00 in0.0 mm 0.00 in0.0 mm
12:45 AM 30.5°F-0.8°C 19.4°F-7.0°C 63% 2.0 mph NNW3.2 kmh NNW 5.0 mph8.0 kmh 30.69 in1039.3 mb 0.00 in0.0 mm 0.00 in0.0 mm 0.00 in0.0 mm
12:46 AM 30.5°F-0.8°C 19.4°F-7.0°C 63% 2.0 mph N3.2 kmh N 5.0 mph8.0 kmh 30.69 in1039.3 mb 0.00 in0.0 mm 0.00 in0.0 mm 0.00 in0.0 mm
12:47 AM 30.5°F-0.8°C 19.4°F-7.0°C 63% 2.0 mph N3.2 kmh N 5.0 mph8.0 kmh 30.69 in1039.3 mb 0.00 in0.0 mm 0.00 in0.0 mm 0.00 in0.0 mm
12:48 AM 30.5°F-0.8°C 19.4°F-7.0°C 63% 2.0 mph N3.2 kmh N 5.0 mph8.0 kmh 30.69 in1039.3 mb 0.00 in0.0 mm 0.00 in0.0 mm 0.00 in0.0 mm
12:49 AM 30.5°F-0.8°C 19.4°F-7.0°C 63% 2.0 mph N3.2 kmh N 5.0 mph8.0 kmh 30.69 in1039.3 mb 0.00 in0.0 mm 0.00 in0.0 mm 0.00 in0.0 mm
12:50 AM 30.4°F-0.9°C 19.3°F-7.1°C 63% 2.0 mph N3.2 kmh N 5.0 mph8.0 kmh 30.69 in1039.3 mb 0.00 in0.0 mm 0.00 in0.0 mm 0.00 in0.0 mm
12:51 AM 30.4°F-0.9°C 19.3°F-7.1°C 63% 2.0 mph N3.2 kmh N 5.0 mph8.0 kmh 30.69 in1039.3 mb 0.00 in0.0 mm 0.00 in0.0 mm 0.00 in0.0 mm
12:52 AM 30.4°F-0.9°C 19.3°F-7.1°C 63% 2.0 mph NNE3.2 kmh NNE 5.0 mph8.0 kmh 30.69 in1039.3 mb 0.00 in0.0 mm 0.00 in0.0 mm 0.00 in0.0 mm
12:53 AM 30.4°F-0.9°C 19.3°F-7.1°C 63% 2.0 mph NNE3.2 kmh NNE 5.0 mph8.0 kmh 30.69 in1039.3 mb 0.00 in0.0 mm 0.00 in0.0 mm 0.00 in0.0 mm
12:54 AM 30.4°F-0.9°C 19.3°F-7.1°C 63% 2.0 mph NNE3.2 kmh NNE 5.0 mph8.0 kmh 30.69 in1039.3 mb 0.00 in0.0 mm 0.00 in0.0 mm 0.00 in0.0 mm
12:55 AM 30.4°F-0.9°C 19.3°F-7.1°C 63% 2.0 mph NE3.2 kmh NE 5.0 mph8.0 kmh 30.69 in1039.3 mb 0.00 in0.0 mm 0.00 in0.0 mm 0.00 in0.0 mm
12:56 AM 30.4°F-0.9°C 19.3°F-7.1°C 63% 1.0 mph NE1.6 kmh NE 5.0 mph8.0 kmh 30.69 in1039.3 mb 0.00 in0.0 mm 0.00 in0.0 mm 0.00 in0.0 mm
12:57 AM 30.3°F-0.9°C 19.2°F-7.1°C 63% 1.0 mph NE1.6 kmh NE 5.0 mph8.0 kmh 30.69 in1039.3 mb 0.00 in0.0 mm 0.00 in0.0 mm 0.00 in0.0 mm
12:58 AM 30.3°F-0.9°C 19.2°F-7.1°C 63% 1.0 mph NE1.6 kmh NE 5.0 mph8.0 kmh 30.69 in1039.3 mb 0.00 in0.0 mm 0.00 in0.0 mm 0.00 in0.0 mm
12:59 AM 30.2°F-1.0°C 19.1°F-7.2°C 63% 1.0 mph NE1.6 kmh NE 9.0 mph14.5 kmh 30.69 in1039.3 mb 0.00 in0.0 mm 0.00 in0.0 mm 0.00 in0.0 mm
01:00 AM 30.2°F-1.0°C 19.1°F-7.2°C 63% 1.0 mph ENE1.6 kmh ENE 9.0 mph14.5 kmh 30.70 in1039.6 mb 0.00 in0.0 mm 0.00 in0.0 mm 0.00 in0.0 mm
01:01 AM 30.2°F-1.0°C 19.1°F-7.2°C 63% 2.0 mph ENE3.2 kmh ENE 9.0 mph14.5 kmh 30.69 in1039.3 mb 0.00 in0.0 mm 0.00 in0.0 mm 0.00 in0.0 mm
01:02 AM 30.2°F-1.0°C 19.1°F-7.2°C 63% 1.0 mph ENE1.6 kmh ENE 9.0 mph14.5 kmh 30.69 in1039.3 mb 0.00 in0.0 mm 0.00 in0.0 mm 0.00 in0.0 mm
01:03 AM 30.1°F-1.1°C 19.0°F-7.2°C 63% 1.0 mph ENE1.6 kmh ENE 9.0 mph14.5 kmh 30.70 in1039.6 mb 0.00 in0.0 mm 0.00 in0.0 mm 0.00 in0.0 mm
01:04 AM 30.1°F-1.1°C 19.0°F-7.2°C 63% 1.0 mph ENE1.6 kmh ENE 9.0 mph14.5 kmh 30.70 in1039.6 mb 0.00 in0.0 mm 0.00 in0.0 mm 0.00 in0.0 mm
01:05 AM 30.1°F-1.1°C 19.0°F-7.2°C 63% 1.0 mph ENE1.6 kmh ENE 9.0 mph14.5 kmh 30.70 in1039.6 mb 0.00 in0.0 mm 0.00 in0.0 mm 0.00 in0.0 mm
01:06 AM 30.1°F-1.1°C 19.0°F-7.2°C 63% 1.0 mph ENE1.6 kmh ENE 9.0 mph14.5 kmh 30.70 in1039.6 mb 0.00 in0.0 mm 0.00 in0.0 mm 0.00 in0.0 mm
01:07 AM 30.1°F-1.1°C 19.0°F-7.2°C 63% 1.0 mph ENE1.6 kmh ENE 9.0 mph14.5 kmh 30.70 in1039.6 mb 0.00 in0.0 mm 0.00 in0.0 mm 0.00 in0.0 mm
01:08 AM 30.1°F-1.1°C 19.0°F-7.2°C 63% 1.0 mph ENE1.6 kmh ENE 9.0 mph14.5 kmh 30.70 in1039.6 mb 0.00 in0.0 mm 0.00 in0.0 mm 0.00 in0.0 mm
01:09 AM 30.0°F-1.1°C 18.9°F-7.3°C 63% 1.0 mph ENE1.6 kmh ENE 6.0 mph9.7 kmh 30.70 in1039.6 mb 0.00 in0.0 mm 0.00 in0.0 mm 0.00 in0.0 mm
01:10 AM 30.0°F-1.1°C 18.9°F-7.3°C 63% 1.0 mph NE1.6 kmh NE 6.0 mph9.7 kmh 30.70 in1039.6 mb 0.00 in0.0 mm 0.00 in0.0 mm 0.00 in0.0 mm
01:11 AM 29.9°F-1.2°C 18.8°F-7.3°C 63% 1.0 mph NNE1.6 kmh NNE 7.0 mph11.3 kmh 30.70 in1039.6 mb 0.00 in0.0 mm 0.00 in0.0 mm 0.00 in0.0 mm
01:12 AM 29.9°F-1.2°C 18.8°F-7.3°C 63% 1.0 mph N1.6 kmh N 7.0 mph11.3 kmh 30.70 in1039.6 mb 0.00 in0.0 mm 0.00 in0.0 mm 0.00 in0.0 mm
01:13 AM 29.9°F-1.2°C 18.8°F-7.3°C 63% 1.0 mph N1.6 kmh N 7.0 mph11.3 kmh 30.70 in1039.6 mb 0.00 in0.0 mm 0.00 in0.0 mm 0.00 in0.0 mm
01:14 AM 29.9°F-1.2°C 18.8°F-7.3°C 63% 1.0 mph N1.6 kmh N 7.0 mph11.3 kmh 30.70 in1039.6 mb 0.00 in0.0 mm 0.00 in0.0 mm 0.00 in0.0 mm
01:15 AM 29.8°F-1.2°C 18.7°F-7.4°C 63% 2.0 mph N3.2 kmh N 10.0 mph16.1 kmh 30.70 in1039.6 mb 0.00 in0.0 mm 0.00 in0.0 mm 0.00 in0.0 mm
01:16 AM 29.8°F-1.2°C 18.7°F-7.4°C 63% 2.0 mph N3.2 kmh N 10.0 mph16.1 kmh 30.70 in1039.6 mb 0.00 in0.0 mm 0.00 in0.0 mm 0.00 in0.0 mm
01:17 AM 29.8°F-1.2°C 18.7°F-7.4°C 63% 3.0 mph N4.8 kmh N 10.0 mph16.1 kmh 30.70 in1039.6 mb 0.00 in0.0 mm 0.00 in0.0 mm 0.00 in0.0 mm
01:18 AM 29.8°F-1.2°C 18.7°F-7.4°C 63% 3.0 mph N4.8 kmh N 10.0 mph16.1 kmh 30.70 in1039.6 mb 0.00 in0.0 mm 0.00 in0.0 mm 0.00 in0.0 mm
01:19 AM 29.8°F-1.2°C 18.7°F-7.4°C 63% 3.0 mph N4.8 kmh N 10.0 mph16.1 kmh 30.70 in1039.6 mb 0.00 in0.0 mm 0.00 in0.0 mm 0.00 in0.0 mm
01:20 AM 29.8°F-1.2°C 18.4°F-7.6°C 62% 3.0 mph N4.8 kmh N 10.0 mph16.1 kmh 30.70 in1039.6 mb 0.00 in0.0 mm 0.00 in0.0 mm 0.00 in0.0 mm
01:21 AM 29.7°F-1.3°C 18.3°F-7.6°C 62% 3.0 mph N4.8 kmh N 10.0 mph16.1 kmh 30.70 in1039.6 mb 0.00 in0.0 mm 0.00 in0.0 mm 0.00 in0.0 mm
01:22 AM 29.7°F-1.3°C 18.3°F-7.6°C 62% 3.0 mph N4.8 kmh N 10.0 mph16.1 kmh 30.70 in1039.6 mb 0.00 in0.0 mm 0.00 in0.0 mm 0.00 in0.0 mm
01:23 AM 29.7°F-1.3°C 18.3°F-7.6°C 62% 3.0 mph N4.8 kmh N 10.0 mph16.1 kmh 30.70 in1039.6 mb 0.00 in0.0 mm 0.00 in0.0 mm 0.00 in0.0 mm
01:24 AM 29.7°F-1.3°C 18.3°F-7.6°C 62% 3.0 mph N4.8 kmh N 10.0 mph16.1 kmh 30.70 in1039.6 mb 0.00 in0.0 mm 0.00 in0.0 mm 0.00 in0.0 mm
01:25 AM 29.6°F-1.3°C 18.2°F-7.7°C 62% 3.0 mph N4.8 kmh N 8.0 mph12.9 kmh 30.70 in1039.6 mb 0.00 in0.0 mm 0.00 in0.0 mm 0.00 in0.0 mm
01:26 AM 29.6°F-1.3°C 18.2°F-7.7°C 62% 3.0 mph N4.8 kmh N 10.0 mph16.1 kmh 30.70 in1039.6 mb 0.00 in0.0 mm 0.00 in0.0 mm 0.00 in0.0 mm
01:27 AM 29.6°F-1.3°C 18.2°F-7.7°C 62% 3.0 mph N4.8 kmh N 10.0 mph16.1 kmh 30.70 in1039.6 mb 0.00 in0.0 mm 0.00 in0.0 mm 0.00 in0.0 mm
01:28 AM 29.6°F-1.3°C 18.2°F-7.7°C 62% 3.0 mph N4.8 kmh N 10.0 mph16.1 kmh 30.70 in1039.6 mb 0.00 in0.0 mm 0.00 in0.0 mm 0.00 in0.0 mm
01:29 AM 29.6°F-1.3°C 18.2°F-7.7°C 62% 3.0 mph N4.8 kmh N 10.0 mph16.1 kmh 30.71 in1040.0 mb 0.00 in0.0 mm 0.00 in0.0 mm 0.00 in0.0 mm
01:30 AM 29.6°F-1.3°C 18.2°F-7.7°C 62% 4.0 mph N6.4 kmh N 10.0 mph16.1 kmh 30.71 in1040.0 mb 0.00 in0.0 mm 0.00 in0.0 mm 0.00 in0.0 mm
01:31 AM 29.5°F-1.4°C 18.1°F-7.7°C 62% 4.0 mph NNW6.4 kmh NNW 10.0 mph16.1 kmh 30.70 in1039.6 mb 0.00 in0.0 mm 0.00 in0.0 mm 0.00 in0.0 mm
01:32 AM 29.5°F-1.4°C 18.1°F-7.7°C 62% 3.0 mph NNW4.8 kmh NNW 10.0 mph16.1 kmh 30.70 in1039.6 mb 0.00 in0.0 mm 0.00 in0.0 mm 0.00 in0.0 mm
01:33 AM 29.5°F-1.4°C 18.1°F-7.7°C 62% 3.0 mph NNW4.8 kmh NNW 10.0 mph16.1 kmh 30.70 in1039.6 mb 0.00 in0.0 mm 0.00 in0.0 mm 0.00 in0.0 mm
01:34 AM 29.4°F-1.4°C 18.0°F-7.8°C 62% 3.0 mph NNW4.8 kmh NNW 10.0 mph16.1 kmh 30.70 in1039.6 mb 0.00 in0.0 mm 0.00 in0.0 mm 0.00 in0.0 mm
01:35 AM 29.4°F-1.4°C 18.0°F-7.8°C 62% 3.0 mph NNW4.8 kmh NNW 10.0 mph16.1 kmh 30.70 in1039.6 mb 0.00 in0.0 mm 0.00 in0.0 mm 0.00 in0.0 mm
01:36 AM 29.4°F-1.4°C 18.0°F-7.8°C 62% 3.0 mph NNW4.8 kmh NNW 7.0 mph11.3 kmh 30.70 in1039.6 mb 0.00 in0.0 mm 0.00 in0.0 mm 0.00 in0.0 mm
01:37 AM 29.4°F-1.4°C 18.0°F-7.8°C 62% 3.0 mph NNW4.8 kmh NNW 7.0 mph11.3 kmh 30.71 in1040.0 mb 0.00 in0.0 mm 0.00 in0.0 mm 0.00 in0.0 mm
01:38 AM 29.4°F-1.4°C 18.3°F-7.6°C 63% 3.0 mph NNW4.8 kmh NNW 7.0 mph11.3 kmh 30.71 in1040.0 mb 0.00 in0.0 mm 0.00 in0.0 mm 0.00 in0.0 mm
01:39 AM 29.3°F-1.5°C 18.3°F-7.6°C 63% 2.0 mph N3.2 kmh N 7.0 mph11.3 kmh 30.71 in1040.0 mb 0.00 in0.0 mm 0.00 in0.0 mm 0.00 in0.0 mm
01:40 AM 29.3°F-1.5°C 18.3°F-7.6°C 63% 2.0 mph NNW3.2 kmh NNW 7.0 mph11.3 kmh 30.71 in1040.0 mb 0.00 in0.0 mm 0.00 in0.0 mm 0.00 in0.0 mm
01:41 AM 29.2°F-1.6°C 18.2°F-7.7°C 63% 3.0 mph NNW4.8 kmh NNW 9.0 mph14.5 kmh 30.71 in1040.0 mb 0.00 in0.0 mm 0.00 in0.0 mm 0.00 in0.0 mm
01:42 AM 29.2°F-1.6°C 18.2°F-7.7°C 63% 3.0 mph NNW4.8 kmh NNW 9.0 mph14.5 kmh 30.71 in1040.0 mb 0.00 in0.0 mm 0.00 in0.0 mm 0.00 in0.0 mm
01:43 AM 29.2°F-1.6°C 18.2°F-7.7°C 63% 4.0 mph N6.4 kmh N 9.0 mph14.5 kmh 30.71 in1040.0 mb 0.00 in0.0 mm 0.00 in0.0 mm 0.00 in0.0 mm
01:44 AM 29.2°F-1.6°C 18.2°F-7.7°C 63% 4.0 mph N6.4 kmh N 9.0 mph14.5 kmh 30.70 in1039.6 mb 0.00 in0.0 mm 0.00 in0.0 mm 0.00 in0.0 mm
01:45 AM 29.2°F-1.6°C 18.2°F-7.7°C 63% 4.0 mph N6.4 kmh N 9.0 mph14.5 kmh 30.70 in1039.6 mb 0.00 in0.0 mm 0.00 in0.0 mm 0.00 in0.0 mm
01:46 AM 29.2°F-1.6°C 18.2°F-7.7°C 63% 4.0 mph N6.4 kmh N 9.0 mph14.5 kmh 30.70 in1039.6 mb 0.00 in0.0 mm 0.00 in0.0 mm 0.00 in0.0 mm
01:47 AM 29.2°F-1.6°C 18.2°F-7.7°C 63% 4.0 mph NNW6.4 kmh NNW 9.0 mph14.5 kmh 30.70 in1039.6 mb 0.00 in0.0 mm 0.00 in0.0 mm 0.00 in0.0 mm
01:48 AM 29.1°F-1.6°C 18.1°F-7.7°C 63% 4.0 mph NNW6.4 kmh NNW 9.0 mph14.5 kmh 30.71 in1040.0 mb 0.00 in0.0 mm 0.00 in0.0 mm 0.00 in0.0 mm
01:49 AM 29.1°F-1.6°C 18.1°F-7.7°C 63% 4.0 mph NNW6.4 kmh NNW 9.0 mph14.5 kmh 30.71 in1040.0 mb 0.00 in0.0 mm 0.00 in0.0 mm 0.00 in0.0 mm
01:50 AM 29.1°F-1.6°C 18.1°F-7.7°C 63% 3.0 mph N4.8 kmh N 9.0 mph14.5 kmh 30.71 in1040.0 mb 0.00 in0.0 mm 0.00 in0.0 mm 0.00 in0.0 mm
01:51 AM 29.1°F-1.6°C 18.1°F-7.7°C 63% 3.0 mph N4.8 kmh N 8.0 mph12.9 kmh 30.71 in1040.0 mb 0.00 in0.0 mm 0.00 in0.0 mm 0.00 in0.0 mm
01:52 AM 29.1°F-1.6°C 18.1°F-7.7°C 63% 3.0 mph N4.8 kmh N 8.0 mph12.9 kmh 30.71 in1040.0 mb 0.00 in0.0 mm 0.00 in0.0 mm 0.00 in0.0 mm
01:53 AM 29.0°F-1.7°C 18.0°F-7.8°C 63% 2.0 mph N3.2 kmh N 8.0 mph12.9 kmh 30.71 in1040.0 mb 0.00 in0.0 mm 0.00 in0.0 mm 0.00 in0.0 mm
01:54 AM 29.0°F-1.7°C 18.0°F-7.8°C 63% 2.0 mph N3.2 kmh N 8.0 mph12.9 kmh 30.71 in1040.0 mb 0.00 in0.0 mm 0.00 in0.0 mm 0.00 in0.0 mm
01:55 AM 29.0°F-1.7°C 18.0°F-7.8°C 63% 1.0 mph N1.6 kmh N 5.0 mph8.0 kmh 30.71 in1040.0 mb 0.00 in0.0 mm 0.00 in0.0 mm 0.00 in0.0 mm
01:56 AM 28.9°F-1.7°C 17.9°F-7.8°C 63% 1.0 mph N1.6 kmh N 5.0 mph8.0 kmh 30.71 in1040.0 mb 0.00 in0.0 mm 0.00 in0.0 mm 0.00 in0.0 mm
01:57 AM 28.9°F-1.7°C 17.9°F-7.8°C 63% 1.0 mph N1.6 kmh N 4.0 mph6.4 kmh 30.71 in1040.0 mb 0.00 in0.0 mm 0.00 in0.0 mm 0.00 in0.0 mm
01:58 AM 28.9°F-1.7°C 17.9°F-7.8°C 63% 1.0 mph N1.6 kmh N 4.0 mph6.4 kmh 30.71 in1040.0 mb 0.00 in0.0 mm 0.00 in0.0 mm 0.00 in0.0 mm
01:59 AM 28.8°F-1.8°C 17.8°F-7.9°C 63% Calm Calm 4.0 mph6.4 kmh 30.71 in1040.0 mb 0.00 in0.0 mm 0.00 in0.0 mm 0.00 in0.0 mm
02:00 AM 28.8°F-1.8°C 17.8°F-7.9°C 63% Calm Calm 4.0 mph6.4 kmh 30.71 in1040.0 mb 0.00 in0.0 mm 0.00 in0.0 mm 0.00 in0.0 mm
02:01 AM 28.8°F-1.8°C 17.8°F-7.9°C 63% Calm Calm 4.0 mph6.4 kmh 30.72 in1040.3 mb 0.00 in0.0 mm 0.00 in0.0 mm 0.00 in0.0 mm
02:02 AM 28.8°F-1.8°C 18.1°F-7.7°C 64% Calm Calm 4.0 mph6.4 kmh 30.72 in1040.3 mb 0.00 in0.0 mm 0.00 in0.0 mm 0.00 in0.0 mm
02:03 AM 28.7°F-1.8°C 18.1°F-7.7°C 64% Calm Calm 4.0 mph6.4 kmh 30.72 in1040.3 mb 0.00 in0.0 mm 0.00 in0.0 mm 0.00 in0.0 mm
02:04 AM 28.7°F-1.8°C 18.1°F-7.7°C 64% Calm Calm 4.0 mph6.4 kmh 30.72 in1040.3 mb 0.00 in0.0 mm 0.00 in0.0 mm 0.00 in0.0 mm
02:05 AM 28.7°F-1.8°C 18.1°F-7.7°C 64% Calm Calm 4.0 mph6.4 kmh 30.72 in1040.3 mb 0.00 in0.0 mm 0.00 in0.0 mm 0.00 in0.0 mm
02:06 AM 28.6°F-1.9°C 18.0°F-7.8°C 64% Calm Calm 4.0 mph6.4 kmh 30.72 in1040.3 mb 0.00 in0.0 mm 0.00 in0.0 mm 0.00 in0.0 mm
02:07 AM 28.6°F-1.9°C 18.0°F-7.8°C 64% Calm Calm 3.0 mph4.8 kmh 30.72 in1040.3 mb 0.00 in0.0 mm 0.00 in0.0 mm 0.00 in0.0 mm
02:08 AM 28.6°F-1.9°C 18.0°F-7.8°C 64% Calm Calm 3.0 mph4.8 kmh 30.72 in1040.3 mb 0.00 in0.0 mm 0.00 in0.0 mm 0.00 in0.0 mm
02:09 AM 28.5°F-1.9°C 17.9°F-7.8°C 64% Calm Calm 3.0 mph4.8 kmh 30.72 in1040.3 mb 0.00 in0.0 mm 0.00 in0.0 mm 0.00 in0.0 mm
02:10 AM 28.5°F-1.9°C 17.9°F-7.8°C 64% Calm Calm 3.0 mph4.8 kmh 30.72 in1040.3 mb 0.00 in0.0 mm 0.00 in0.0 mm 0.00 in0.0 mm
02:11 AM 28.5°F-1.9°C 17.9°F-7.8°C 64% Calm Calm 3.0 mph4.8 kmh 30.72 in1040.3 mb 0.00 in0.0 mm 0.00 in0.0 mm 0.00 in0.0 mm
02:12 AM 28.4°F-2.0°C 17.8°F-7.9°C 64% Calm Calm 3.0 mph4.8 kmh 30.72 in1040.3 mb 0.00 in0.0 mm 0.00 in0.0 mm 0.00 in0.0 mm
02:13 AM 28.4°F-2.0°C 17.8°F-7.9°C 64% Calm Calm 3.0 mph4.8 kmh 30.72 in1040.3 mb 0.00 in0.0 mm 0.00 in0.0 mm 0.00 in0.0 mm
02:14 AM 28.4°F-2.0°C 17.8°F-7.9°C 64% Calm Calm 3.0 mph4.8 kmh 30.72 in1040.3 mb 0.00 in0.0 mm 0.00 in0.0 mm 0.00 in0.0 mm
02:15 AM 28.4°F-2.0°C 17.8°F-7.9°C 64% Calm Calm 5.0 mph8.0 kmh 30.72 in1040.3 mb 0.00 in0.0 mm 0.00 in0.0 mm 0.00 in0.0 mm
02:16 AM 28.3°F-2.1°C 17.7°F-7.9°C 64% 1.0 mph N1.6 kmh N 5.0 mph8.0 kmh 30.72 in1040.3 mb 0.00 in0.0 mm 0.00 in0.0 mm 0.00 in0.0 mm
02:17 AM 28.3°F-2.1°C 17.7°F-7.9°C 64% 1.0 mph N1.6 kmh N 5.0 mph8.0 kmh 30.72 in1040.3 mb 0.00 in0.0 mm 0.00 in0.0 mm 0.00 in0.0 mm
02:18 AM 28.3°F-2.1°C 17.7°F-7.9°C 64% Calm Calm 5.0 mph8.0 kmh 30.72 in1040.3 mb 0.00 in0.0 mm 0.00 in0.0 mm 0.00 in0.0 mm
02:19 AM 28.3°F-2.1°C 18.0°F-7.8°C 65% Calm Calm 5.0 mph8.0 kmh 30.73 in1040.6 mb 0.00 in0.0 mm 0.00 in0.0 mm 0.00 in0.0 mm
02:20 AM 28.3°F-2.1°C 18.0°F-7.8°C 65% 1.0 mph NNW1.6 kmh NNW 5.0 mph8.0 kmh 30.72 in1040.3 mb 0.00 in0.0 mm 0.00 in0.0 mm 0.00 in0.0 mm
02:21 AM 28.3°F-2.1°C 18.0°F-7.8°C 65% 1.0 mph NNW1.6 kmh NNW 5.0 mph8.0 kmh 30.72 in1040.3 mb 0.00 in0.0 mm 0.00 in0.0 mm 0.00 in0.0 mm
02:22 AM 28.2°F-2.1°C 17.9°F-7.8°C 65% 1.0 mph NNW1.6 kmh NNW 5.0 mph8.0 kmh 30.72 in1040.3 mb 0.00 in0.0 mm 0.00 in0.0 mm 0.00 in0.0 mm
02:23 AM 28.2°F-2.1°C 17.9°F-7.8°C 65% 1.0 mph NNW1.6 kmh NNW 5.0 mph8.0 kmh 30.73 in1040.6 mb 0.00 in0.0 mm 0.00 in0.0 mm 0.00 in0.0 mm
02:24 AM 28.2°F-2.1°C 17.9°F-7.8°C 65% 1.0 mph NNW1.6 kmh NNW 5.0 mph8.0 kmh 30.73 in1040.6 mb 0.00 in0.0 mm 0.00 in0.0 mm 0.00 in0.0 mm
02:25 AM 28.2°F-2.1°C 17.9°F-7.8°C 65% 1.0 mph NNW1.6 kmh NNW 5.0 mph8.0 kmh 30.73 in1040.6 mb 0.00 in0.0 mm 0.00 in0.0 mm 0.00 in0.0 mm
02:26 AM 28.1°F-2.2°C 17.8°F-7.9°C 65% 1.0 mph NNW1.6 kmh NNW 5.0 mph8.0 kmh 30.73 in1040.6 mb 0.00 in0.0 mm 0.00 in0.0 mm 0.00 in0.0 mm
02:27 AM 28.1°F-2.2°C 17.8°F-7.9°C 65% 1.0 mph NNW1.6 kmh NNW 5.0 mph8.0 kmh 30.73 in1040.6 mb 0.00 in0.0 mm 0.00 in0.0 mm 0.00 in0.0 mm
02:28 AM 28.1°F-2.2°C 17.8°F-7.9°C 65% 1.0 mph NNW1.6 kmh NNW 5.0 mph8.0 kmh 30.73 in1040.6 mb 0.00 in0.0 mm 0.00 in0.0 mm 0.00 in0.0 mm
02:29 AM 28.0°F-2.2°C 17.7°F-7.9°C 65% 1.0 mph NNW1.6 kmh NNW 5.0 mph8.0 kmh 30.73 in1040.6 mb 0.00 in0.0 mm 0.00 in0.0 mm 0.00 in0.0 mm
02:30 AM 28.0°F-2.2°C 17.7°F-7.9°C 65% 1.0 mph NNW1.6 kmh NNW 5.0 mph8.0 kmh 30.73 in1040.6 mb 0.00 in0.0 mm 0.00 in0.0 mm 0.00 in0.0 mm
02:31 AM 28.0°F-2.2°C 17.7°F-7.9°C 65% 1.0 mph NNW1.6 kmh NNW 5.0 mph8.0 kmh 30.73 in1040.6 mb 0.00 in0.0 mm 0.00 in0.0 mm 0.00 in0.0 mm
02:32 AM 28.0°F-2.2°C 17.7°F-7.9°C 65% 1.0 mph NNW1.6 kmh NNW 5.0 mph8.0 kmh 30.73 in1040.6 mb 0.00 in0.0 mm 0.00 in0.0 mm 0.00 in0.0 mm
02:33 AM 28.0°F-2.2°C 17.7°F-7.9°C 65% 1.0 mph N1.6 kmh N 5.0 mph8.0 kmh 30.73 in1040.6 mb 0.00 in0.0 mm 0.00 in0.0 mm 0.00 in0.0 mm
02:34 AM 27.9°F-2.3°C 17.6°F-8.0°C 65% 1.0 mph N1.6 kmh N 5.0 mph8.0 kmh 30.73 in1040.6 mb 0.00 in0.0 mm 0.00 in0.0 mm 0.00 in0.0 mm
02:35 AM 27.9°F-2.3°C 17.6°F-8.0°C 65% 1.0 mph NNW1.6 kmh NNW 5.0 mph8.0 kmh 30.73 in1040.6 mb 0.00 in0.0 mm 0.00 in0.0 mm 0.00 in0.0 mm
02:36 AM 27.9°F-2.3°C 17.6°F-8.0°C 65% 1.0 mph N1.6 kmh N 5.0 mph8.0 kmh 30.73 in1040.6 mb 0.00 in0.0 mm 0.00 in0.0 mm 0.00 in0.0 mm
02:37 AM 27.9°F-2.3°C 18.0°F-7.8°C 66% 2.0 mph N3.2 kmh N 5.0 mph8.0 kmh 30.73 in1040.6 mb 0.00 in0.0 mm 0.00 in0.0 mm 0.00 in0.0 mm
02:38 AM 27.8°F-2.3°C 17.9°F-7.8°C 66% 1.0 mph N1.6 kmh N 5.0 mph8.0 kmh 30.73 in1040.6 mb 0.00 in0.0 mm 0.00 in0.0 mm 0.00 in0.0 mm
02:39 AM 27.8°F-2.3°C 17.9°F-7.8°C 66% 1.0 mph N1.6 kmh N 5.0 mph8.0 kmh 30.73 in1040.6 mb 0.00 in0.0 mm 0.00 in0.0 mm 0.00 in0.0 mm
02:40 AM 27.8°F-2.3°C 17.9°F-7.8°C 66% 1.0 mph N1.6 kmh N 5.0 mph8.0 kmh 30.74 in1041.0 mb 0.00 in0.0 mm 0.00 in0.0 mm 0.00 in0.0 mm
02:41 AM 27.8°F-2.3°C 17.9°F-7.8°C 66% 1.0 mph N1.6 kmh N 7.0 mph11.3 kmh 30.74 in1041.0 mb 0.00 in0.0 mm 0.00 in0.0 mm 0.00 in0.0 mm
02:42 AM 27.8°F-2.3°C 17.9°F-7.8°C 66% 1.0 mph N1.6 kmh N 7.0 mph11.3 kmh 30.74 in1041.0 mb 0.00 in0.0 mm 0.00 in0.0 mm 0.00 in0.0 mm
02:43 AM 27.7°F-2.4°C 17.8°F-7.9°C 66% 1.0 mph N1.6 kmh N 7.0 mph11.3 kmh 30.74 in1041.0 mb 0.00 in0.0 mm 0.00 in0.0 mm 0.00 in0.0 mm
02:44 AM 27.7°F-2.4°C 17.8°F-7.9°C 66% 1.0 mph N1.6 kmh N 7.0 mph11.3 kmh 30.74 in1041.0 mb 0.00 in0.0 mm 0.00 in0.0 mm 0.00 in0.0 mm
02:45 AM 27.7°F-2.4°C 17.8°F-7.9°C 66% 1.0 mph N1.6 kmh N 7.0 mph11.3 kmh 30.74 in1041.0 mb 0.00 in0.0 mm 0.00 in0.0 mm 0.00 in0.0 mm
02:46 AM 27.7°F-2.4°C 17.8°F-7.9°C 66% 1.0 mph N1.6 kmh N 7.0 mph11.3 kmh 30.74 in1041.0 mb 0.00 in0.0 mm 0.00 in0.0 mm 0.00 in0.0 mm
02:47 AM 27.7°F-2.4°C 17.8°F-7.9°C 66% 1.0 mph NNW1.6 kmh NNW 7.0 mph11.3 kmh 30.74 in1041.0 mb 0.00 in0.0 mm 0.00 in0.0 mm 0.00 in0.0 mm
02:48 AM 27.7°F-2.4°C 17.8°F-7.9°C 66% 1.0 mph NNW1.6 kmh NNW 7.0 mph11.3 kmh 30.74 in1041.0 mb 0.00 in0.0 mm 0.00 in0.0 mm 0.00 in0.0 mm
02:49 AM 27.7°F-2.4°C 17.8°F-7.9°C 66% 1.0 mph NNW1.6 kmh NNW 7.0 mph11.3 kmh 30.74 in1041.0 mb 0.00 in0.0 mm 0.00 in0.0 mm 0.00 in0.0 mm
02:50 AM 27.6°F-2.4°C 17.7°F-7.9°C 66% 1.0 mph N1.6 kmh N 7.0 mph11.3 kmh 30.74 in1041.0 mb 0.00 in0.0 mm 0.00 in0.0 mm 0.00 in0.0 mm
02:51 AM 27.6°F-2.4°C 17.7°F-7.9°C 66% 1.0 mph N1.6 kmh N 5.0 mph8.0 kmh 30.74 in1041.0 mb 0.00 in0.0 mm 0.00 in0.0 mm 0.00 in0.0 mm
02:52 AM 27.6°F-2.4°C 17.7°F-7.9°C 66% 1.0 mph N1.6 kmh N 6.0 mph9.7 kmh 30.74 in1041.0 mb 0.00 in0.0 mm 0.00 in0.0 mm 0.00 in0.0 mm
02:53 AM 27.6°F-2.4°C 17.7°F-7.9°C 66% 1.0 mph N1.6 kmh N 6.0 mph9.7 kmh 30.74 in1041.0 mb 0.00 in0.0 mm 0.00 in0.0 mm 0.00 in0.0 mm
02:54 AM 27.6°F-2.4°C 17.7°F-7.9°C 66% 1.0 mph N1.6 kmh N 7.0 mph11.3 kmh 30.74 in1041.0 mb 0.00 in0.0 mm 0.00 in0.0 mm 0.00 in0.0 mm
02:55 AM 27.6°F-2.4°C 17.7°F-7.9°C 66% 2.0 mph N3.2 kmh N 7.0 mph11.3 kmh 30.74 in1041.0 mb 0.00 in0.0 mm 0.00 in0.0 mm 0.00 in0.0 mm
02:56 AM 27.6°F-2.4°C 17.7°F-7.9°C 66% 2.0 mph N3.2 kmh N 7.0 mph11.3 kmh 30.74 in1041.0 mb 0.00 in0.0 mm 0.00 in0.0 mm 0.00 in0.0 mm
02:57 AM 27.5°F-2.5°C 18.0°F-7.8°C 67% 2.0 mph N3.2 kmh N 7.0 mph11.3 kmh 30.74 in1041.0 mb 0.00 in0.0 mm 0.00 in0.0 mm 0.00 in0.0 mm
02:58 AM 27.5°F-2.5°C 18.0°F-7.8°C 67% 2.0 mph N3.2 kmh N 7.0 mph11.3 kmh 30.74 in1041.0 mb 0.00 in0.0 mm 0.00 in0.0 mm 0.00 in0.0 mm
02:59 AM 27.5°F-2.5°C 18.0°F-7.8°C 67% 2.0 mph N3.2 kmh N 7.0 mph11.3 kmh 30.74 in1041.0 mb 0.00 in0.0 mm 0.00 in0.0 mm 0.00 in0.0 mm
03:00 AM 27.5°F-2.5°C 19.7°F-6.8°C 72% 2.0 mph N3.2 kmh N 7.0 mph11.3 kmh 30.74 in1041.0 mb 0.00 in0.0 mm 0.00 in0.0 mm 0.00 in0.0 mm
03:01 AM 27.4°F-2.6°C 17.9°F-7.8°C 67% 3.0 mph NNW4.8 kmh NNW 7.0 mph11.3 kmh 30.74 in1041.0 mb 0.00 in0.0 mm 0.00 in0.0 mm 0.00 in0.0 mm
03:02 AM 27.4°F-2.6°C 17.9°F-7.8°C 67% 3.0 mph NNW4.8 kmh NNW 7.0 mph11.3 kmh 30.74 in1041.0 mb 0.00 in0.0 mm 0.00 in0.0 mm 0.00 in0.0 mm
03:03 AM 27.4°F-2.6°C 17.9°F-7.8°C 67% 3.0 mph NNW4.8 kmh NNW 7.0 mph11.3 kmh 30.74 in1041.0 mb 0.00 in0.0 mm 0.00 in0.0 mm 0.00 in0.0 mm
03:04 AM 27.4°F-2.6°C 17.9°F-7.8°C 67% 3.0 mph NNW4.8 kmh NNW 7.0 mph11.3 kmh 30.75 in1041.3 mb 0.00 in0.0 mm 0.00 in0.0 mm 0.00 in0.0 mm
03:05 AM 27.3°F-2.6°C 17.8°F-7.9°C 67% 3.0 mph NNW4.8 kmh NNW 7.0 mph11.3 kmh 30.75 in1041.3 mb 0.00 in0.0 mm 0.00 in0.0 mm 0.00 in0.0 mm
03:06 AM 27.3°F-2.6°C 17.8°F-7.9°C 67% 2.0 mph NNW3.2 kmh NNW 7.0 mph11.3 kmh 30.75 in1041.3 mb 0.00 in0.0 mm 0.00 in0.0 mm 0.00 in0.0 mm
03:07 AM 27.3°F-2.6°C 17.8°F-7.9°C 67% 2.0 mph NW3.2 kmh NW 7.0 mph11.3 kmh 30.75 in1041.3 mb 0.00 in0.0 mm 0.00 in0.0 mm 0.00 in0.0 mm
03:08 AM 27.3°F-2.6°C 17.8°F-7.9°C 67% 2.0 mph NW3.2 kmh NW 7.0 mph11.3 kmh 30.75 in1041.3 mb 0.00 in0.0 mm 0.00 in0.0 mm 0.00 in0.0 mm
03:09 AM 27.3°F-2.6°C 17.8°F-7.9°C 67% 2.0 mph NW3.2 kmh NW 7.0 mph11.3 kmh 30.75 in1041.3 mb 0.00 in0.0 mm 0.00 in0.0 mm 0.00 in0.0 mm
03:10 AM 27.2°F-2.7°C 17.7°F-7.9°C 67% 2.0 mph NW3.2 kmh NW 7.0 mph11.3 kmh 30.75 in1041.3 mb 0.00 in0.0 mm 0.00 in0.0 mm 0.00 in0.0 mm
03:11 AM 27.2°F-2.7°C 17.7°F-7.9°C 67% 1.0 mph NW1.6 kmh NW 7.0 mph11.3 kmh 30.75 in1041.3 mb 0.00 in0.0 mm 0.00 in0.0 mm 0.00 in0.0 mm
03:12 AM 27.2°F-2.7°C 17.7°F-7.9°C 67% 1.0 mph NW1.6 kmh NW 6.0 mph9.7 kmh 30.75 in1041.3 mb 0.00 in0.0 mm 0.00 in0.0 mm 0.00 in0.0 mm
03:13 AM 27.1°F-2.7°C 17.6°F-8.0°C 67% 1.0 mph NW1.6 kmh NW 5.0 mph8.0 kmh 30.75 in1041.3 mb 0.00 in0.0 mm 0.00 in0.0 mm 0.00 in0.0 mm
03:14 AM 27.1°F-2.7°C 17.6°F-8.0°C 67% Calm Calm 2.0 mph3.2 kmh 30.75 in1041.3 mb 0.00 in0.0 mm 0.00 in0.0 mm 0.00 in0.0 mm
03:15 AM 27.1°F-2.7°C 17.6°F-8.0°C 67% Calm Calm 4.0 mph6.4 kmh 30.75 in1041.3 mb 0.00 in0.0 mm 0.00 in0.0 mm 0.00 in0.0 mm
03:16 AM 27.0°F-2.8°C 17.5°F-8.1°C 67% Calm Calm 4.0 mph6.4 kmh 30.75 in1041.3 mb 0.00 in0.0 mm 0.00 in0.0 mm 0.00 in0.0 mm
03:17 AM 27.0°F-2.8°C 17.5°F-8.1°C 67% 1.0 mph NW1.6 kmh NW 4.0 mph6.4 kmh 30.75 in1041.3 mb 0.00 in0.0 mm 0.00 in0.0 mm 0.00 in0.0 mm
03:18 AM 27.0°F-2.8°C 17.5°F-8.1°C 67% 1.0 mph NW1.6 kmh NW 4.0 mph6.4 kmh 30.75 in1041.3 mb 0.00 in0.0 mm 0.00 in0.0 mm 0.00 in0.0 mm
03:19 AM 27.0°F-2.8°C 17.5°F-8.1°C 67% 1.0 mph NW1.6 kmh NW 5.0 mph8.0 kmh 30.75 in1041.3 mb 0.00 in0.0 mm 0.00 in0.0 mm 0.00 in0.0 mm
03:20 AM 27.0°F-2.8°C 17.5°F-8.1°C 67% 1.0 mph NW1.6 kmh NW 6.0 mph9.7 kmh 30.75 in1041.3 mb 0.00 in0.0 mm 0.00 in0.0 mm 0.00 in0.0 mm
03:21 AM 27.0°F-2.8°C 17.8°F-7.9°C 68% 2.0 mph NW3.2 kmh NW 6.0 mph9.7 kmh 30.75 in1041.3 mb 0.00 in0.0 mm 0.00 in0.0 mm 0.00 in0.0 mm
03:22 AM 27.0°F-2.8°C 17.8°F-7.9°C 68% 2.0 mph NW3.2 kmh NW 6.0 mph9.7 kmh 30.75 in1041.3 mb 0.00 in0.0 mm 0.00 in0.0 mm 0.00 in0.0 mm
03:23 AM 27.0°F-2.8°C 17.8°F-7.9°C 68% 2.0 mph NW3.2 kmh NW 6.0 mph9.7 kmh 30.75 in1041.3 mb 0.00 in0.0 mm 0.00 in0.0 mm 0.00 in0.0 mm
03:24 AM 27.0°F-2.8°C 17.8°F-7.9°C 68% 2.0 mph NNW3.2 kmh NNW 6.0 mph9.7 kmh 30.75 in1041.3 mb 0.00 in0.0 mm 0.00 in0.0 mm 0.00 in0.0 mm
03:25 AM 26.9°F-2.8°C 17.7°F-7.9°C 68% 3.0 mph NNW4.8 kmh NNW 6.0 mph9.7 kmh 30.75 in1041.3 mb 0.00 in0.0 mm 0.00 in0.0 mm 0.00 in0.0 mm
03:26 AM 26.9°F-2.8°C 17.7°F-7.9°C 68% 3.0 mph NNW4.8 kmh NNW 7.0 mph11.3 kmh 30.75 in1041.3 mb 0.00 in0.0 mm 0.00 in0.0 mm 0.00 in0.0 mm
03:27 AM 27.0°F-2.8°C 17.8°F-7.9°C 68% 3.0 mph NNW4.8 kmh NNW 7.0 mph11.3 kmh 30.75 in1041.3 mb 0.00 in0.0 mm 0.00 in0.0 mm 0.00 in0.0 mm
03:28 AM 26.9°F-2.8°C 17.7°F-7.9°C 68% 3.0 mph NNW4.8 kmh NNW 7.0 mph11.3 kmh 30.75 in1041.3 mb 0.00 in0.0 mm 0.00 in0.0 mm 0.00 in0.0 mm
03:29 AM 26.9°F-2.8°C 17.7°F-7.9°C 68% 3.0 mph NNW4.8 kmh NNW 7.0 mph11.3 kmh 30.75 in1041.3 mb 0.00 in0.0 mm 0.00 in0.0 mm 0.00 in0.0 mm
03:30 AM 26.9°F-2.8°C 17.7°F-7.9°C 68% 3.0 mph NNW4.8 kmh NNW 7.0 mph11.3 kmh 30.75 in1041.3 mb 0.00 in0.0 mm 0.00 in0.0 mm 0.00 in0.0 mm
03:31 AM 26.9°F-2.8°C 17.7°F-7.9°C 68% 2.0 mph NNW3.2 kmh NNW 7.0 mph11.3 kmh 30.75 in1041.3 mb 0.00 in0.0 mm 0.00 in0.0 mm 0.00 in0.0 mm
03:32 AM 26.9°F-2.8°C 17.7°F-7.9°C 68% 2.0 mph NNW3.2 kmh NNW 7.0 mph11.3 kmh 30.75 in1041.3 mb 0.00 in0.0 mm 0.00 in0.0 mm 0.00 in0.0 mm
03:33 AM 26.9°F-2.8°C 17.7°F-7.9°C 68% 2.0 mph NNW3.2 kmh NNW 7.0 mph11.3 kmh 30.75 in1041.3 mb 0.00 in0.0 mm 0.00 in0.0 mm 0.00 in0.0 mm
03:34 AM 26.9°F-2.8°C 17.7°F-7.9°C 68% 2.0 mph NNW3.2 kmh NNW 7.0 mph11.3 kmh 30.75 in1041.3 mb 0.00 in0.0 mm 0.00 in0.0 mm 0.00 in0.0 mm
03:35 AM 26.8°F-2.9°C 17.6°F-8.0°C 68% 1.0 mph NNW1.6 kmh NNW 7.0 mph11.3 kmh 30.75 in1041.3 mb 0.00 in0.0 mm 0.00 in0.0 mm 0.00 in0.0 mm
03:36 AM 26.8°F-2.9°C 17.6°F-8.0°C 68% 1.0 mph NW1.6 kmh NW 5.0 mph8.0 kmh 30.75 in1041.3 mb 0.00 in0.0 mm 0.00 in0.0 mm 0.00 in0.0 mm
03:37 AM 26.7°F-2.9°C 17.6°F-8.0°C 68% Calm Calm 5.0 mph8.0 kmh 30.75 in1041.3 mb 0.00 in0.0 mm 0.00 in0.0 mm 0.00 in0.0 mm
03:38 AM 26.7°F-2.9°C 17.6°F-8.0°C 68% Calm Calm 1.0 mph1.6 kmh 30.75 in1041.3 mb 0.00 in0.0 mm 0.00 in0.0 mm 0.00 in0.0 mm
03:39 AM 26.6°F-3.0°C 17.5°F-8.1°C 68% Calm Calm 1.0 mph1.6 kmh 30.75 in1041.3 mb 0.00 in0.0 mm 0.00 in0.0 mm 0.00 in0.0 mm
03:40 AM 26.6°F-3.0°C 17.8°F-7.9°C 69% Calm Calm 1.0 mph1.6 kmh 30.75 in1041.3 mb 0.00 in0.0 mm 0.00 in0.0 mm 0.00 in0.0 mm
03:41 AM 26.5°F-3.1°C 17.7°F-7.9°C 69% Calm Calm 1.0 mph1.6 kmh 30.75 in1041.3 mb 0.00 in0.0 mm 0.00 in0.0 mm 0.00 in0.0 mm
03:42 AM 26.5°F-3.1°C 17.7°F-7.9°C 69% Calm Calm 1.0 mph1.6 kmh 30.75 in1041.3 mb 0.00 in0.0 mm 0.00 in0.0 mm 0.00 in0.0 mm
03:43 AM 26.4°F-3.1°C 17.6°F-8.0°C 69% Calm Calm -- 30.75 in1041.3 mb 0.00 in0.0 mm 0.00 in0.0 mm 0.00 in0.0 mm
03:44 AM 26.3°F-3.2°C 17.5°F-8.1°C 69% Calm Calm 1.0 mph1.6 kmh 30.75 in1041.3 mb 0.00 in0.0 mm 0.00 in0.0 mm 0.00 in0.0 mm
03:45 AM 26.3°F-3.2°C 17.5°F-8.1°C 69% Calm Calm 2.0 mph3.2 kmh 30.75 in1041.3 mb 0.00 in0.0 mm 0.00 in0.0 mm 0.00 in0.0 mm
03:46 AM 26.2°F-3.2°C 17.4°F-8.1°C 69% Calm Calm 2.0 mph3.2 kmh 30.75 in1041.3 mb 0.00 in0.0 mm 0.00 in0.0 mm 0.00 in0.0 mm
03:47 AM 26.2°F-3.2°C 17.4°F-8.1°C 69% Calm Calm 2.0 mph3.2 kmh 30.75 in1041.3 mb 0.00 in0.0 mm 0.00 in0.0 mm 0.00 in0.0 mm
03:48 AM 26.2°F-3.2°C 17.4°F-8.1°C 69% Calm Calm 2.0 mph3.2 kmh 30.75 in1041.3 mb 0.00 in0.0 mm 0.00 in0.0 mm 0.00 in0.0 mm
03:49 AM 26.1°F-3.3°C 17.3°F-8.2°C 69% Calm Calm 2.0 mph3.2 kmh 30.75 in1041.3 mb 0.00 in0.0 mm 0.00 in0.0 mm 0.00 in0.0 mm
03:50 AM 26.1°F-3.3°C 17.3°F-8.2°C 69% Calm Calm 2.0 mph3.2 kmh 30.75 in1041.3 mb 0.00 in0.0 mm 0.00 in0.0 mm 0.00 in0.0 mm
03:51 AM 26.0°F-3.3°C 17.2°F-8.2°C 69% Calm Calm 6.0 mph9.7 kmh 30.75 in1041.3 mb 0.00 in0.0 mm 0.00 in0.0 mm 0.00 in0.0 mm
03:52 AM 26.0°F-3.3°C 17.6°F-8.0°C 70% 1.0 mph NNW1.6 kmh NNW 6.0 mph9.7 kmh 30.75 in1041.3 mb 0.00 in0.0 mm 0.00 in0.0 mm 0.00 in0.0 mm
03:53 AM 26.0°F-3.3°C 17.6°F-8.0°C 70% 1.0 mph NNW1.6 kmh NNW 10.0 mph16.1 kmh 30.75 in1041.3 mb 0.00 in0.0 mm 0.00 in0.0 mm 0.00 in0.0 mm
03:54 AM 26.0°F-3.3°C 17.6°F-8.0°C 70% 2.0 mph NNW3.2 kmh NNW 10.0 mph16.1 kmh 30.75 in1041.3 mb 0.00 in0.0 mm 0.00 in0.0 mm 0.00 in0.0 mm
03:55 AM 26.0°F-3.3°C 17.6°F-8.0°C 70% 2.0 mph N3.2 kmh N 10.0 mph16.1 kmh 30.75 in1041.3 mb 0.00 in0.0 mm 0.00 in0.0 mm 0.00 in0.0 mm
03:56 AM 26.0°F-3.3°C 17.6°F-8.0°C 70% 2.0 mph N3.2 kmh N 10.0 mph16.1 kmh 30.75 in1041.3 mb 0.00 in0.0 mm 0.00 in0.0 mm 0.00 in0.0 mm
03:57 AM 26.0°F-3.3°C 17.6°F-8.0°C 70% 2.0 mph N3.2 kmh N 10.0 mph16.1 kmh 30.75 in1041.3 mb 0.00 in0.0 mm 0.00 in0.0 mm 0.00 in0.0 mm
03:58 AM 26.1°F-3.3°C 17.6°F-8.0°C 70% 2.0 mph N3.2 kmh N 10.0 mph16.1 kmh 30.75 in1041.3 mb 0.00 in0.0 mm 0.00 in0.0 mm 0.00 in0.0 mm
03:59 AM 26.1°F-3.3°C 17.3°F-8.2°C 69% 3.0 mph N4.8 kmh N 10.0 mph16.1 kmh 30.75 in1041.3 mb 0.00 in0.0 mm 0.00 in0.0 mm 0.00 in0.0 mm
04:00 AM 26.1°F-3.3°C 17.3°F-8.2°C 69% 3.0 mph N4.8 kmh N 10.0 mph16.1 kmh 30.75 in1041.3 mb 0.00 in0.0 mm 0.00 in0.0 mm 0.00 in0.0 mm
04:01 AM 26.1°F-3.3°C 17.3°F-8.2°C 69% 3.0 mph N4.8 kmh N 10.0 mph16.1 kmh 30.75 in1041.3 mb 0.00 in0.0 mm 0.00 in0.0 mm 0.00 in0.0 mm
04:02 AM 26.2°F-3.2°C 17.4°F-8.1°C 69% 3.0 mph N4.8 kmh N 10.0 mph16.1 kmh 30.75 in1041.3 mb 0.00 in0.0 mm 0.00 in0.0 mm 0.00 in0.0 mm
04:03 AM 26.2°F-3.2°C 17.4°F-8.1°C 69% 3.0 mph NNW4.8 kmh NNW 9.0 mph14.5 kmh 30.75 in1041.3 mb 0.00 in0.0 mm 0.00 in0.0 mm 0.00 in0.0 mm
04:04 AM 26.2°F-3.2°C 17.4°F-8.1°C 69% 2.0 mph NNW3.2 kmh NNW 6.0 mph9.7 kmh 30.75 in1041.3 mb 0.00 in0.0 mm 0.00 in0.0 mm 0.00 in0.0 mm
04:05 AM 26.3°F-3.2°C 17.5°F-8.1°C 69% 2.0 mph NNW3.2 kmh NNW 6.0 mph9.7 kmh 30.75 in1041.3 mb 0.00 in0.0 mm 0.00 in0.0 mm 0.00 in0.0 mm
04:06 AM 26.2°F-3.2°C 17.4°F-8.1°C 69% 3.0 mph NNW4.8 kmh NNW 6.0 mph9.7 kmh 30.75 in1041.3 mb 0.00 in0.0 mm 0.00 in0.0 mm 0.00 in0.0 mm
04:07 AM 26.2°F-3.2°C 17.4°F-8.1°C 69% 3.0 mph NNW4.8 kmh NNW 6.0 mph9.7 kmh 30.75 in1041.3 mb 0.00 in0.0 mm 0.00 in0.0 mm 0.00 in0.0 mm
04:08 AM 26.3°F-3.2°C 17.5°F-8.1°C 69% 3.0 mph NNW4.8 kmh NNW 6.0 mph9.7 kmh 30.75 in1041.3 mb 0.00 in0.0 mm 0.00 in0.0 mm 0.00 in0.0 mm
04:09 AM 26.2°F-3.2°C 17.4°F-8.1°C 69% 3.0 mph NNW4.8 kmh NNW 6.0 mph9.7 kmh 30.75 in1041.3 mb 0.00 in0.0 mm 0.00 in0.0 mm 0.00 in0.0 mm
04:10 AM 26.2°F-3.2°C 17.4°F-8.1°C 69% 3.0 mph NNW4.8 kmh NNW 6.0 mph9.7 kmh 30.75 in1041.3 mb 0.00 in0.0 mm 0.00 in0.0 mm 0.00 in0.0 mm
04:11 AM 26.2°F-3.2°C 17.4°F-8.1°C 69% 2.0 mph NNW3.2 kmh NNW 6.0 mph9.7 kmh 30.75 in1041.3 mb 0.00 in0.0 mm 0.00 in0.0 mm 0.00 in0.0 mm
04:12 AM 26.2°F-3.2°C 17.4°F-8.1°C 69% 2.0 mph NNW3.2 kmh NNW 6.0 mph9.7 kmh 30.75 in1041.3 mb 0.00 in0.0 mm 0.00 in0.0 mm 0.00 in0.0 mm
04:13 AM 26.2°F-3.2°C 17.4°F-8.1°C 69% 2.0 mph NNW3.2 kmh NNW 6.0 mph9.7 kmh 30.75 in1041.3 mb 0.00 in0.0 mm 0.00 in0.0 mm 0.00 in0.0 mm
04:14 AM 26.2°F-3.2°C 17.4°F-8.1°C 69% 2.0 mph NNW3.2 kmh NNW 6.0 mph9.7 kmh 30.75 in1041.3 mb 0.00 in0.0 mm 0.00 in0.0 mm 0.00 in0.0 mm
04:15 AM 26.2°F-3.2°C 17.4°F-8.1°C 69% 2.0 mph NNW3.2 kmh NNW 6.0 mph9.7 kmh 30.75 in1041.3 mb 0.00 in0.0 mm 0.00 in0.0 mm 0.00 in0.0 mm
04:16 AM 26.2°F-3.2°C 17.4°F-8.1°C 69% 2.0 mph NNW3.2 kmh NNW 6.0 mph9.7 kmh 30.75 in1041.3 mb 0.00 in0.0 mm 0.00 in0.0 mm 0.00 in0.0 mm
04:17 AM 26.2°F-3.2°C 17.4°F-8.1°C 69% 2.0 mph N3.2 kmh N 6.0 mph9.7 kmh 30.75 in1041.3 mb 0.00 in0.0 mm 0.00 in0.0 mm 0.00 in0.0 mm
04:18 AM 26.1°F-3.3°C 17.3°F-8.2°C 69% 2.0 mph N3.2 kmh N 6.0 mph9.7 kmh 30.75 in1041.3 mb 0.00 in0.0 mm 0.00 in0.0 mm 0.00 in0.0 mm
04:19 AM 26.1°F-3.3°C 17.3°F-8.2°C 69% 2.0 mph N3.2 kmh N 5.0 mph8.0 kmh 30.75 in1041.3 mb 0.00 in0.0 mm 0.00 in0.0 mm 0.00 in0.0 mm
04:20 AM 26.1°F-3.3°C 17.3°F-8.2°C 69% 2.0 mph N3.2 kmh N 5.0 mph8.0 kmh 30.75 in1041.3 mb 0.00 in0.0 mm 0.00 in0.0 mm 0.00 in0.0 mm
04:21 AM 26.1°F-3.3°C 17.3°F-8.2°C 69% 2.0 mph N3.2 kmh N 7.0 mph11.3 kmh 30.75 in1041.3 mb 0.00 in0.0 mm 0.00 in0.0 mm 0.00 in0.0 mm
04:22 AM 26.1°F-3.3°C 17.3°F-8.2°C 69% 3.0 mph N4.8 kmh N 7.0 mph11.3 kmh 30.75 in1041.3 mb 0.00 in0.0 mm 0.00 in0.0 mm 0.00 in0.0 mm
04:23 AM 26.0°F-3.3°C 17.2°F-8.2°C 69% 3.0 mph N4.8 kmh N 7.0 mph11.3 kmh 30.75 in1041.3 mb 0.00 in0.0 mm 0.00 in0.0 mm 0.00 in0.0 mm
04:24 AM 26.0°F-3.3°C 17.2°F-8.2°C 69% 3.0 mph N4.8 kmh N 7.0 mph11.3 kmh 30.75 in1041.3 mb 0.00 in0.0 mm 0.00 in0.0 mm 0.00 in0.0 mm
04:25 AM 26.0°F-3.3°C 17.2°F-8.2°C 69% 3.0 mph N4.8 kmh N 7.0 mph11.3 kmh 30.75 in1041.3 mb 0.00 in0.0 mm 0.00 in0.0 mm 0.00 in0.0 mm
04:26 AM 26.0°F-3.3°C 17.2°F-8.2°C 69% 3.0 mph N4.8 kmh N 7.0 mph11.3 kmh 30.75 in1041.3 mb 0.00 in0.0 mm 0.00 in0.0 mm 0.00 in0.0 mm
04:27 AM 26.0°F-3.3°C 17.2°F-8.2°C 69% 3.0 mph N4.8 kmh N 7.0 mph11.3 kmh 30.75 in1041.3 mb 0.00 in0.0 mm 0.00 in0.0 mm 0.00 in0.0 mm
04:28 AM 26.0°F-3.3°C 17.6°F-8.0°C 70% 3.0 mph N4.8 kmh N 7.0 mph11.3 kmh 30.75 in1041.3 mb 0.00 in0.0 mm 0.00 in0.0 mm 0.00 in0.0 mm
04:29 AM 26.0°F-3.3°C 17.6°F-8.0°C 70% 4.0 mph N6.4 kmh N 7.0 mph11.3 kmh 30.75 in1041.3 mb 0.00 in0.0 mm 0.00 in0.0 mm 0.00 in0.0 mm
04:30 AM 26.0°F-3.3°C 17.2°F-8.2°C 69% 3.0 mph N4.8 kmh N 7.0 mph11.3 kmh 30.75 in1041.3 mb 0.00 in0.0 mm 0.00 in0.0 mm 0.00 in0.0 mm
04:31 AM 26.0°F-3.3°C 17.2°F-8.2°C 69% 4.0 mph N6.4 kmh N 7.0 mph11.3 kmh 30.75 in1041.3 mb 0.00 in0.0 mm 0.00 in0.0 mm 0.00 in0.0 mm
04:32 AM 26.0°F-3.3°C 17.2°F-8.2°C 69% 4.0 mph N6.4 kmh N 7.0 mph11.3 kmh 30.75 in1041.3 mb 0.00 in0.0 mm 0.00 in0.0 mm 0.00 in0.0 mm
04:33 AM 26.0°F-3.3°C 17.2°F-8.2°C 69% 3.0 mph N4.8 kmh N 7.0 mph11.3 kmh 30.75 in1041.3 mb 0.00 in0.0 mm 0.00 in0.0 mm 0.00 in0.0 mm
04:34 AM 26.0°F-3.3°C 17.2°F-8.2°C 69% 3.0 mph N4.8 kmh N 7.0 mph11.3 kmh 30.75 in1041.3 mb 0.00 in0.0 mm 0.00 in0.0 mm 0.00 in0.0 mm
04:35 AM 26.0°F-3.3°C 17.2°F-8.2°C 69% 3.0 mph N4.8 kmh N 7.0 mph11.3 kmh 30.75 in1041.3 mb 0.00 in0.0 mm 0.00 in0.0 mm 0.00 in0.0 mm
04:36 AM 26.0°F-3.3°C 17.2°F-8.2°C 69% 3.0 mph N4.8 kmh N 7.0 mph11.3 kmh 30.75 in1041.3 mb 0.00 in0.0 mm 0.00 in0.0 mm 0.00 in0.0 mm
04:37 AM 26.0°F-3.3°C 17.2°F-8.2°C 69% 3.0 mph NNE4.8 kmh NNE 7.0 mph11.3 kmh 30.75 in1041.3 mb 0.00 in0.0 mm 0.00 in0.0 mm 0.00 in0.0 mm
04:38 AM 26.0°F-3.3°C 17.2°F-8.2°C 69% 3.0 mph NNE4.8 kmh NNE 7.0 mph11.3 kmh 30.75 in1041.3 mb 0.00 in0.0 mm 0.00 in0.0 mm 0.00 in0.0 mm
04:39 AM 26.0°F-3.3°C 17.2°F-8.2°C 69% 3.0 mph NNE4.8 kmh NNE 7.0 mph11.3 kmh 30.75 in1041.3 mb 0.00 in0.0 mm 0.00 in0.0 mm 0.00 in0.0 mm
04:40 AM 26.0°F-3.3°C 17.2°F-8.2°C 69% 3.0 mph NNE4.8 kmh NNE 7.0 mph11.3 kmh 30.75 in1041.3 mb 0.00 in0.0 mm 0.00 in0.0 mm 0.00 in0.0 mm
04:41 AM 26.0°F-3.3°C 17.2°F-8.2°C 69% 2.0 mph NNE3.2 kmh NNE 7.0 mph11.3 kmh 30.75 in1041.3 mb 0.00 in0.0 mm 0.00 in0.0 mm 0.00 in0.0 mm
04:42 AM 26.0°F-3.3°C 17.2°F-8.2°C 69% 2.0 mph NE3.2 kmh NE 6.0 mph9.7 kmh 30.75 in1041.3 mb 0.00 in0.0 mm 0.00 in0.0 mm 0.00 in0.0 mm
04:43 AM 26.1°F-3.3°C 17.3°F-8.2°C 69% 2.0 mph NE3.2 kmh NE 6.0 mph9.7 kmh 30.75 in1041.3 mb 0.00 in0.0 mm 0.00 in0.0 mm 0.00 in0.0 mm
04:44 AM 26.1°F-3.3°C 17.3°F-8.2°C 69% 2.0 mph NE3.2 kmh NE 6.0 mph9.7 kmh 30.75 in1041.3 mb 0.00 in0.0 mm 0.00 in0.0 mm 0.00 in0.0 mm
04:45 AM 26.1°F-3.3°C 17.3°F-8.2°C 69% 2.0 mph NE3.2 kmh NE 6.0 mph9.7 kmh 30.75 in1041.3 mb 0.00 in0.0 mm 0.00 in0.0 mm 0.00 in0.0 mm
04:46 AM 26.1°F-3.3°C 17.0°F-8.3°C 68% 2.0 mph NNE3.2 kmh NNE 6.0 mph9.7 kmh 30.75 in1041.3 mb 0.00 in0.0 mm 0.00 in0.0 mm 0.00 in0.0 mm
04:47 AM 26.1°F-3.3°C 17.0°F-8.3°C 68% 2.0 mph NNE3.2 kmh NNE 6.0 mph9.7 kmh 30.75 in1041.3 mb 0.00 in0.0 mm 0.00 in0.0 mm 0.00 in0.0 mm
04:48 AM 26.1°F-3.3°C 17.0°F-8.3°C 68% 2.0 mph NNE3.2 kmh NNE 6.0 mph9.7 kmh 30.75 in1041.3 mb 0.00 in0.0 mm 0.00 in0.0 mm 0.00 in0.0 mm
04:49 AM 26.1°F-3.3°C 17.0°F-8.3°C 68% 2.0 mph NNE3.2 kmh NNE 6.0 mph9.7 kmh 30.75 in1041.3 mb 0.00 in0.0 mm 0.00 in0.0 mm 0.00 in0.0 mm
04:50 AM 26.0°F-3.3°C 16.9°F-8.4°C 68% 1.0 mph NNE1.6 kmh NNE 6.0 mph9.7 kmh 30.76 in1041.7 mb 0.00 in0.0 mm 0.00 in0.0 mm 0.00 in0.0 mm
04:51 AM 26.0°F-3.3°C 16.9°F-8.4°C 68% 1.0 mph NE1.6 kmh NE 6.0 mph9.7 kmh 30.76 in1041.7 mb 0.00 in0.0 mm 0.00 in0.0 mm 0.00 in0.0 mm
04:52 AM 26.0°F-3.3°C 16.9°F-8.4°C 68% 1.0 mph NE1.6 kmh NE 6.0 mph9.7 kmh 30.76 in1041.7 mb 0.00 in0.0 mm 0.00 in0.0 mm 0.00 in0.0 mm
04:53 AM 26.0°F-3.3°C 16.9°F-8.4°C 68% 1.0 mph NNE1.6 kmh NNE 5.0 mph8.0 kmh 30.76 in1041.7 mb 0.00 in0.0 mm 0.00 in0.0 mm 0.00 in0.0 mm
04:54 AM 25.9°F-3.4°C 16.8°F-8.4°C 68% 1.0 mph NNE1.6 kmh NNE 5.0 mph8.0 kmh 30.76 in1041.7 mb 0.00 in0.0 mm 0.00 in0.0 mm 0.00 in0.0 mm
04:55 AM 25.9°F-3.4°C 16.8°F-8.4°C 68% 1.0 mph NNE1.6 kmh NNE 5.0 mph8.0 kmh 30.76 in1041.7 mb 0.00 in0.0 mm 0.00 in0.0 mm 0.00 in0.0 mm
04:56 AM 25.8°F-3.4°C 16.7°F-8.5°C 68% 1.0 mph NNE1.6 kmh NNE 5.0 mph8.0 kmh 30.75 in1041.3 mb 0.00 in0.0 mm 0.00 in0.0 mm 0.00 in0.0 mm
04:57 AM 25.8°F-3.4°C 16.7°F-8.5°C 68% Calm Calm 5.0 mph8.0 kmh 30.75 in1041.3 mb 0.00 in0.0 mm 0.00 in0.0 mm 0.00 in0.0 mm
04:58 AM 25.8°F-3.4°C 16.7°F-8.5°C 68% Calm Calm 5.0 mph8.0 kmh 30.75 in1041.3 mb 0.00 in0.0 mm 0.00 in0.0 mm 0.00 in0.0 mm
04:59 AM 25.8°F-3.4°C 16.7°F-8.5°C 68% Calm Calm 5.0 mph8.0 kmh 30.75 in1041.3 mb 0.00 in0.0 mm 0.00 in0.0 mm 0.00 in0.0 mm
05:00 AM 25.8°F-3.4°C 16.7°F-8.5°C 68% Calm Calm 5.0 mph8.0 kmh 30.75 in1041.3 mb 0.00 in0.0 mm 0.00 in0.0 mm 0.00 in0.0 mm
05:01 AM 25.7°F-3.5°C 16.6°F-8.6°C 68% 1.0 mph NNE1.6 kmh NNE 8.0 mph12.9 kmh 30.75 in1041.3 mb 0.00 in0.0 mm 0.00 in0.0 mm 0.00 in0.0 mm
05:02 AM 25.8°F-3.4°C 16.7°F-8.5°C 68% 1.0 mph NE1.6 kmh NE 8.0 mph12.9 kmh 30.75 in1041.3 mb 0.00 in0.0 mm 0.00 in0.0 mm 0.00 in0.0 mm
05:03 AM 25.7°F-3.5°C 16.6°F-8.6°C 68% 1.0 mph NE1.6 kmh NE 8.0 mph12.9 kmh 30.75 in1041.3 mb 0.00 in0.0 mm 0.00 in0.0 mm 0.00 in0.0 mm
05:04 AM 25.7°F-3.5°C 16.6°F-8.6°C 68% 1.0 mph NE1.6 kmh NE 8.0 mph12.9 kmh 30.75 in1041.3 mb 0.00 in0.0 mm 0.00 in0.0 mm 0.00 in0.0 mm
05:05 AM 25.7°F-3.5°C 16.6°F-8.6°C 68% 1.0 mph NE1.6 kmh NE 8.0 mph12.9 kmh 30.75 in1041.3 mb 0.00 in0.0 mm 0.00 in0.0 mm 0.00 in0.0 mm
05:06 AM 25.7°F-3.5°C 16.6°F-8.6°C 68% 1.0 mph NE1.6 kmh NE 8.0 mph12.9 kmh 30.75 in1041.3 mb 0.00 in0.0 mm 0.00 in0.0 mm 0.00 in0.0 mm
05:07 AM 25.6°F-3.6°C 16.5°F-8.6°C 68% 1.0 mph NE1.6 kmh NE 8.0 mph12.9 kmh 30.75 in1041.3 mb 0.00 in0.0 mm 0.00 in0.0 mm 0.00 in0.0 mm
05:08 AM 25.6°F-3.6°C 16.5°F-8.6°C 68% 1.0 mph NE1.6 kmh NE 8.0 mph12.9 kmh 30.75 in1041.3 mb 0.00 in0.0 mm 0.00 in0.0 mm 0.00 in0.0 mm
05:09 AM 25.6°F-3.6°C 16.5°F-8.6°C 68% 1.0 mph NE1.6 kmh NE 8.0 mph12.9 kmh 30.75 in1041.3 mb 0.00 in0.0 mm 0.00 in0.0 mm 0.00 in0.0 mm
05:10 AM 25.6°F-3.6°C 16.5°F-8.6°C 68% 1.0 mph NE1.6 kmh NE 8.0 mph12.9 kmh 30.75 in1041.3 mb 0.00 in0.0 mm 0.00 in0.0 mm 0.00 in0.0 mm
05:11 AM 25.6°F-3.6°C 16.5°F-8.6°C 68% 1.0 mph NE1.6 kmh NE 8.0 mph12.9 kmh 30.75 in1041.3 mb 0.00 in0.0 mm 0.00 in0.0 mm 0.00 in0.0 mm
05:12 AM 25.5°F-3.6°C 16.4°F-8.7°C 68% 1.0 mph NE1.6 kmh NE 4.0 mph6.4 kmh 30.75 in1041.3 mb 0.00 in0.0 mm 0.00 in0.0 mm 0.00 in0.0 mm
05:13 AM 25.5°F-3.6°C 16.4°F-8.7°C 68% 1.0 mph NE1.6 kmh NE 4.0 mph6.4 kmh 30.75 in1041.3 mb 0.00 in0.0 mm 0.00 in0.0 mm 0.00 in0.0 mm
05:14 AM 25.5°F-3.6°C 16.4°F-8.7°C 68% 1.0 mph NE1.6 kmh NE 4.0 mph6.4 kmh 30.76 in1041.7 mb 0.00 in0.0 mm 0.00 in0.0 mm 0.00 in0.0 mm
05:15 AM 25.5°F-3.6°C 16.4°F-8.7°C 68% 1.0 mph NE1.6 kmh NE 4.0 mph6.4 kmh 30.76 in1041.7 mb 0.00 in0.0 mm 0.00 in0.0 mm 0.00 in0.0 mm
05:16 AM 25.5°F-3.6°C 16.4°F-8.7°C 68% 1.0 mph NE1.6 kmh NE 4.0 mph6.4 kmh 30.76 in1041.7 mb 0.00 in0.0 mm 0.00 in0.0 mm 0.00 in0.0 mm
05:17 AM 25.5°F-3.6°C 16.4°F-8.7°C 68% 1.0 mph NE1.6 kmh NE 4.0 mph6.4 kmh 30.76 in1041.7 mb 0.00 in0.0 mm 0.00 in0.0 mm 0.00 in0.0 mm
05:18 AM 25.5°F-3.6°C 16.4°F-8.7°C 68% 1.0 mph NE1.6 kmh NE 7.0 mph11.3 kmh 30.76 in1041.7 mb 0.00 in0.0 mm 0.00 in0.0 mm 0.00 in0.0 mm
05:19 AM 25.5°F-3.6°C 16.4°F-8.7°C 68% 2.0 mph NE3.2 kmh NE 7.0 mph11.3 kmh 30.76 in1041.7 mb 0.00 in0.0 mm 0.00 in0.0 mm 0.00 in0.0 mm
05:20 AM 25.5°F-3.6°C 16.4°F-8.7°C 68% 1.0 mph NE1.6 kmh NE 7.0 mph11.3 kmh 30.76 in1041.7 mb 0.00 in0.0 mm 0.00 in0.0 mm 0.00 in0.0 mm
05:21 AM 25.5°F-3.6°C 16.4°F-8.7°C 68% 2.0 mph NE3.2 kmh NE 7.0 mph11.3 kmh 30.76 in1041.7 mb 0.00 in0.0 mm 0.00 in0.0 mm 0.00 in0.0 mm
05:22 AM 25.5°F-3.6°C 16.4°F-8.7°C 68% 2.0 mph NE3.2 kmh NE 7.0 mph11.3 kmh 30.76 in1041.7 mb 0.00 in0.0 mm 0.00 in0.0 mm 0.00 in0.0 mm
05:23 AM 25.5°F-3.6°C 16.4°F-8.7°C 68% 2.0 mph NE3.2 kmh NE 7.0 mph11.3 kmh 30.76 in1041.7 mb 0.00 in0.0 mm 0.00 in0.0 mm 0.00 in0.0 mm
05:24 AM 25.5°F-3.6°C 16.4°F-8.7°C 68% 2.0 mph NE3.2 kmh NE 8.0 mph12.9 kmh 30.76 in1041.7 mb 0.00 in0.0 mm 0.00 in0.0 mm 0.00 in0.0 mm
05:25 AM 25.5°F-3.6°C 16.4°F-8.7°C 68% 2.0 mph NE3.2 kmh NE 8.0 mph12.9 kmh 30.76 in1041.7 mb 0.00 in0.0 mm 0.00 in0.0 mm 0.00 in0.0 mm
05:26 AM 25.5°F-3.6°C 16.4°F-8.7°C 68% 2.0 mph NE3.2 kmh NE 8.0 mph12.9 kmh 30.76 in1041.7 mb 0.00 in0.0 mm 0.00 in0.0 mm 0.00 in0.0 mm
05:27 AM 25.6°F-3.6°C 16.5°F-8.6°C 68% 2.0 mph NE3.2 kmh NE 8.0 mph12.9 kmh 30.76 in1041.7 mb 0.00 in0.0 mm 0.00 in0.0 mm 0.00 in0.0 mm
05:28 AM 25.5°F-3.6°C 16.4°F-8.7°C 68% 2.0 mph NE3.2 kmh NE 8.0 mph12.9 kmh 30.76 in1041.7 mb 0.00 in0.0 mm 0.00 in0.0 mm 0.00 in0.0 mm
05:29 AM 25.5°F-3.6°C 16.1°F-8.8°C 67% 2.0 mph NE3.2 kmh NE 8.0 mph12.9 kmh 30.76 in1041.7 mb 0.00 in0.0 mm 0.00 in0.0 mm 0.00 in0.0 mm
05:30 AM 25.5°F-3.6°C 16.1°F-8.8°C 67% 2.0 mph NE3.2 kmh NE 8.0 mph12.9 kmh 30.76 in1041.7 mb 0.00 in0.0 mm 0.00 in0.0 mm 0.00 in0.0 mm
05:31 AM 25.5°F-3.6°C 16.1°F-8.8°C 67% 2.0 mph NE3.2 kmh NE 8.0 mph12.9 kmh 30.76 in1041.7 mb 0.00 in0.0 mm 0.00 in0.0 mm 0.00 in0.0 mm
05:32 AM 25.5°F-3.6°C 16.1°F-8.8°C 67% 2.0 mph NE3.2 kmh NE 8.0 mph12.9 kmh 30.76 in1041.7 mb 0.00 in0.0 mm 0.00 in0.0 mm 0.00 in0.0 mm
05:33 AM 25.5°F-3.6°C 16.1°F-8.8°C 67% 2.0 mph NNE3.2 kmh NNE 8.0 mph12.9 kmh 30.76 in1041.7 mb 0.00 in0.0 mm 0.00 in0.0 mm 0.00 in0.0 mm
05:34 AM 25.5°F-3.6°C 16.1°F-8.8°C 67% 3.0 mph NNE4.8 kmh NNE 8.0 mph12.9 kmh 30.76 in1041.7 mb 0.00 in0.0 mm 0.00 in0.0 mm 0.00 in0.0 mm
05:35 AM 25.5°F-3.6°C 16.1°F-8.8°C 67% 3.0 mph NNE4.8 kmh NNE 8.0 mph12.9 kmh 30.76 in1041.7 mb 0.00 in0.0 mm 0.00 in0.0 mm 0.00 in0.0 mm
05:36 AM 25.6°F-3.6°C 16.2°F-8.8°C 67% 3.0 mph NNE4.8 kmh NNE 8.0 mph12.9 kmh 30.76 in1041.7 mb 0.00 in0.0 mm 0.00 in0.0 mm 0.00 in0.0 mm
05:37 AM 25.6°F-3.6°C 16.2°F-8.8°C 67% 4.0 mph NE6.4 kmh NE 8.0 mph12.9 kmh 30.76 in1041.7 mb 0.00 in0.0 mm 0.00 in0.0 mm 0.00 in0.0 mm
05:38 AM 25.6°F-3.6°C 16.2°F-8.8°C 67% 4.0 mph NE6.4 kmh NE 8.0 mph12.9 kmh 30.75 in1041.3 mb 0.00 in0.0 mm 0.00 in0.0 mm 0.00 in0.0 mm
05:39 AM 25.6°F-3.6°C 16.2°F-8.8°C 67% 4.0 mph NE6.4 kmh NE 8.0 mph12.9 kmh 30.76 in1041.7 mb 0.00 in0.0 mm 0.00 in0.0 mm 0.00 in0.0 mm
05:40 AM 25.6°F-3.6°C 16.2°F-8.8°C 67% 4.0 mph NE6.4 kmh NE 8.0 mph12.9 kmh 30.76 in1041.7 mb 0.00 in0.0 mm 0.00 in0.0 mm 0.00 in0.0 mm
05:41 AM 25.6°F-3.6°C 16.2°F-8.8°C 67% 4.0 mph NE6.4 kmh NE 11.0 mph17.7 kmh 30.75 in1041.3 mb 0.00 in0.0 mm 0.00 in0.0 mm 0.00 in0.0 mm
05:42 AM 25.7°F-3.5°C 16.3°F-8.7°C 67% 4.0 mph NE6.4 kmh NE 11.0 mph17.7 kmh 30.76 in1041.7 mb 0.00 in0.0 mm 0.00 in0.0 mm 0.00 in0.0 mm
05:43 AM 25.7°F-3.5°C 15.9°F-8.9°C 66% 4.0 mph NE6.4 kmh NE 11.0 mph17.7 kmh 30.76 in1041.7 mb 0.00 in0.0 mm 0.00 in0.0 mm 0.00 in0.0 mm
05:44 AM 25.7°F-3.5°C 16.3°F-8.7°C 67% 4.0 mph NE6.4 kmh NE 11.0 mph17.7 kmh 30.76 in1041.7 mb 0.00 in0.0 mm 0.00 in0.0 mm 0.00 in0.0 mm
05:45 AM 25.7°F-3.5°C 17.9°F-7.8°C 72% 4.0 mph NE6.4 kmh NE 11.0 mph17.7 kmh 30.76 in1041.7 mb 0.00 in0.0 mm 0.00 in0.0 mm 0.00 in0.0 mm
05:46 AM 25.7°F-3.5°C 17.9°F-7.8°C 72% 3.0 mph NE4.8 kmh NE 11.0 mph17.7 kmh 30.76 in1041.7 mb 0.00 in0.0 mm 0.00 in0.0 mm 0.00 in0.0 mm
05:47 AM 25.7°F-3.5°C 17.9°F-7.8°C 72% 3.0 mph NNE4.8 kmh NNE 11.0 mph17.7 kmh 30.76 in1041.7 mb 0.00 in0.0 mm 0.00 in0.0 mm 0.00 in0.0 mm
05:48 AM 25.6°F-3.6°C 15.8°F-9.0°C 66% 3.0 mph NE4.8 kmh NE 11.0 mph17.7 kmh 30.76 in1041.7 mb 0.00 in0.0 mm 0.00 in0.0 mm 0.00 in0.0 mm
05:49 AM 25.6°F-3.6°C 15.8°F-9.0°C 66% 3.0 mph NE4.8 kmh NE 11.0 mph17.7 kmh 30.76 in1041.7 mb 0.00 in0.0 mm 0.00 in0.0 mm 0.00 in0.0 mm
05:50 AM 25.6°F-3.6°C 15.8°F-9.0°C 66% 3.0 mph NE4.8 kmh NE 11.0 mph17.7 kmh 30.76 in1041.7 mb 0.00 in0.0 mm 0.00 in0.0 mm 0.00 in0.0 mm
05:51 AM 25.6°F-3.6°C 15.8°F-9.0°C 66% 3.0 mph NNE4.8 kmh NNE 9.0 mph14.5 kmh 30.76 in1041.7 mb 0.00 in0.0 mm 0.00 in0.0 mm 0.00 in0.0 mm
05:52 AM 25.6°F-3.6°C 15.8°F-9.0°C 66% 2.0 mph NE3.2 kmh NE 9.0 mph14.5 kmh 30.76 in1041.7 mb 0.00 in0.0 mm 0.00 in0.0 mm 0.00 in0.0 mm
05:53 AM 25.6°F-3.6°C 15.8°F-9.0°C 66% 2.0 mph NE3.2 kmh NE 9.0 mph14.5 kmh 30.76 in1041.7 mb 0.00 in0.0 mm 0.00 in0.0 mm 0.00 in0.0 mm
05:54 AM 25.6°F-3.6°C 15.8°F-9.0°C 66% 2.0 mph NE3.2 kmh NE 9.0 mph14.5 kmh 30.76 in1041.7 mb 0.00 in0.0 mm 0.00 in0.0 mm 0.00 in0.0 mm
05:55 AM 25.6°F-3.6°C 15.8°F-9.0°C 66% 2.0 mph NE3.2 kmh NE 9.0 mph14.5 kmh 30.76 in1041.7 mb 0.00 in0.0 mm 0.00 in0.0 mm 0.00 in0.0 mm
05:56 AM 25.6°F-3.6°C 15.8°F-9.0°C 66% 2.0 mph NE3.2 kmh NE 9.0 mph14.5 kmh 30.76 in1041.7 mb 0.00 in0.0 mm 0.00 in0.0 mm 0.00 in0.0 mm
05:57 AM 25.5°F-3.6°C 15.7°F-9.1°C 66% 2.0 mph NE3.2 kmh NE 9.0 mph14.5 kmh 30.76 in1041.7 mb 0.00 in0.0 mm 0.00 in0.0 mm 0.00 in0.0 mm
05:58 AM 25.5°F-3.6°C 15.7°F-9.1°C 66% 2.0 mph NE3.2 kmh NE 7.0 mph11.3 kmh 30.76 in1041.7 mb 0.00 in0.0 mm 0.00 in0.0 mm 0.00 in0.0 mm
05:59 AM 25.5°F-3.6°C 15.7°F-9.1°C 66% 1.0 mph NE1.6 kmh NE 7.0 mph11.3 kmh 30.76 in1041.7 mb 0.00 in0.0 mm 0.00 in0.0 mm 0.00 in0.0 mm
06:00 AM 25.4°F-3.7°C 15.6°F-9.1°C 66% 1.0 mph NE1.6 kmh NE 7.0 mph11.3 kmh 30.76 in1041.7 mb 0.00 in0.0 mm 0.00 in0.0 mm 0.00 in0.0 mm
06:01 AM 25.4°F-3.7°C 15.6°F-9.1°C 66% 1.0 mph NE1.6 kmh NE 7.0 mph11.3 kmh 30.76 in1041.7 mb 0.00 in0.0 mm 0.00 in0.0 mm 0.00 in0.0 mm
06:02 AM 25.4°F-3.7°C 16.0°F-8.9°C 67% 1.0 mph NE1.6 kmh NE 6.0 mph9.7 kmh 30.76 in1041.7 mb 0.00 in0.0 mm 0.00 in0.0 mm 0.00 in0.0 mm
06:03 AM 25.4°F-3.7°C 16.0°F-8.9°C 67% Calm Calm 4.0 mph6.4 kmh 30.76 in1041.7 mb 0.00 in0.0 mm 0.00 in0.0 mm 0.00 in0.0 mm
06:04 AM 25.3°F-3.7°C 15.9°F-8.9°C 67% Calm Calm 2.0 mph3.2 kmh 30.76 in1041.7 mb 0.00 in0.0 mm 0.00 in0.0 mm 0.00 in0.0 mm
06:05 AM 25.3°F-3.7°C 15.9°F-8.9°C 67% Calm Calm 2.0 mph3.2 kmh 30.76 in1041.7 mb 0.00 in0.0 mm 0.00 in0.0 mm 0.00 in0.0 mm
06:06 AM 25.3°F-3.7°C 15.9°F-8.9°C 67% Calm Calm 1.0 mph1.6 kmh 30.76 in1041.7 mb 0.00 in0.0 mm 0.00 in0.0 mm 0.00 in0.0 mm
06:07 AM 25.2°F-3.8°C 15.8°F-9.0°C 67% Calm Calm 1.0 mph1.6 kmh 30.76 in1041.7 mb 0.00 in0.0 mm 0.00 in0.0 mm 0.00 in0.0 mm
06:08 AM 25.2°F-3.8°C 15.8°F-9.0°C 67% Calm Calm 3.0 mph4.8 kmh 30.77 in1042.0 mb 0.00 in0.0 mm 0.00 in0.0 mm 0.00 in0.0 mm
06:09 AM 25.2°F-3.8°C 15.8°F-9.0°C 67% Calm Calm 3.0 mph4.8 kmh 30.76 in1041.7 mb 0.00 in0.0 mm 0.00 in0.0 mm 0.00 in0.0 mm
06:10 AM 25.1°F-3.8°C 15.7°F-9.1°C 67% Calm Calm 3.0 mph4.8 kmh 30.77 in1042.0 mb 0.00 in0.0 mm 0.00 in0.0 mm 0.00 in0.0 mm
06:11 AM 25.1°F-3.8°C 15.7°F-9.1°C 67% Calm Calm 5.0 mph8.0 kmh 30.77 in1042.0 mb 0.00 in0.0 mm 0.00 in0.0 mm 0.00 in0.0 mm
06:12 AM 25.0°F-3.9°C 15.6°F-9.1°C 67% Calm Calm 5.0 mph8.0 kmh 30.77 in1042.0 mb 0.00 in0.0 mm 0.00 in0.0 mm 0.00 in0.0 mm
06:13 AM 25.0°F-3.9°C 15.6°F-9.1°C 67% Calm Calm 5.0 mph8.0 kmh 30.77 in1042.0 mb 0.00 in0.0 mm 0.00 in0.0 mm 0.00 in0.0 mm
06:14 AM 24.9°F-3.9°C 15.5°F-9.2°C 67% 1.0 mph ENE1.6 kmh ENE 5.0 mph8.0 kmh 30.77 in1042.0 mb 0.00 in0.0 mm 0.00 in0.0 mm 0.00 in0.0 mm
06:15 AM 24.9°F-3.9°C 15.5°F-9.2°C 67% 1.0 mph ENE1.6 kmh ENE 5.0 mph8.0 kmh 30.77 in1042.0 mb 0.00 in0.0 mm 0.00 in0.0 mm 0.00 in0.0 mm
06:16 AM 24.9°F-3.9°C 15.5°F-9.2°C 67% 1.0 mph ENE1.6 kmh ENE 5.0 mph8.0 kmh 30.77 in1042.0 mb 0.00 in0.0 mm 0.00 in0.0 mm 0.00 in0.0 mm
06:17 AM 24.9°F-3.9°C 15.5°F-9.2°C 67% 1.0 mph ENE1.6 kmh ENE 5.0 mph8.0 kmh 30.77 in1042.0 mb 0.00 in0.0 mm 0.00 in0.0 mm 0.00 in0.0 mm
06:18 AM 24.9°F-3.9°C 15.5°F-9.2°C 67% 1.0 mph ENE1.6 kmh ENE 5.0 mph8.0 kmh 30.77 in1042.0 mb 0.00 in0.0 mm 0.00 in0.0 mm 0.00 in0.0 mm
06:19 AM 24.9°F-3.9°C 15.5°F-9.2°C 67% 1.0 mph ENE1.6 kmh ENE 5.0 mph8.0 kmh 30.77 in1042.0 mb 0.00 in0.0 mm 0.00 in0.0 mm 0.00 in0.0 mm
06:20 AM 24.8°F-4.0°C 15.4°F-9.2°C 67% 1.0 mph ENE1.6 kmh ENE 5.0 mph8.0 kmh 30.77 in1042.0 mb 0.00 in0.0 mm 0.00 in0.0 mm 0.00 in0.0 mm
06:21 AM 24.8°F-4.0°C 15.4°F-9.2°C 67% Calm Calm 2.0 mph3.2 kmh 30.77 in1042.0 mb 0.00 in0.0 mm 0.00 in0.0 mm 0.00 in0.0 mm
06:22 AM 24.8°F-4.0°C 15.4°F-9.2°C 67% Calm Calm 2.0 mph3.2 kmh 30.77 in1042.0 mb 0.00 in0.0 mm 0.00 in0.0 mm 0.00 in0.0 mm
06:23 AM 24.8°F-4.0°C 15.4°F-9.2°C 67% Calm Calm 2.0 mph3.2 kmh 30.77 in1042.0 mb 0.00 in0.0 mm 0.00 in0.0 mm 0.00 in0.0 mm
06:24 AM 24.7°F-4.1°C 15.3°F-9.3°C 67% Calm Calm 2.0 mph3.2 kmh 30.77 in1042.0 mb 0.00 in0.0 mm 0.00 in0.0 mm 0.00 in0.0 mm
06:25 AM 24.7°F-4.1°C 15.6°F-9.1°C 68% Calm Calm 2.0 mph3.2 kmh 30.77 in1042.0 mb 0.00 in0.0 mm 0.00 in0.0 mm 0.00 in0.0 mm
06:26 AM 24.7°F-4.1°C 15.6°F-9.1°C 68% Calm Calm 4.0 mph6.4 kmh 30.77 in1042.0 mb 0.00 in0.0 mm 0.00 in0.0 mm 0.00 in0.0 mm
06:27 AM 24.7°F-4.1°C 15.6°F-9.1°C 68% Calm Calm 4.0 mph6.4 kmh 30.77 in1042.0 mb 0.00 in0.0 mm 0.00 in0.0 mm 0.00 in0.0 mm
06:28 AM 24.7°F-4.1°C 15.6°F-9.1°C 68% Calm Calm 4.0 mph6.4 kmh 30.77 in1042.0 mb 0.00 in0.0 mm 0.00 in0.0 mm 0.00 in0.0 mm
06:29 AM 24.7°F-4.1°C 15.6°F-9.1°C 68% Calm Calm 4.0 mph6.4 kmh 30.77 in1042.0 mb 0.00 in0.0 mm 0.00 in0.0 mm 0.00 in0.0 mm
06:30 AM 24.7°F-4.1°C 15.6°F-9.1°C 68% Calm Calm 4.0 mph6.4 kmh 30.77 in1042.0 mb 0.00 in0.0 mm 0.00 in0.0 mm 0.00 in0.0 mm
06:31 AM 24.6°F-4.1°C 15.5°F-9.2°C 68% Calm Calm 4.0 mph6.4 kmh 30.77 in1042.0 mb 0.00 in0.0 mm 0.00 in0.0 mm 0.00 in0.0 mm
06:32 AM 24.6°F-4.1°C 15.5°F-9.2°C 68% Calm Calm 4.0 mph6.4 kmh 30.77 in1042.0 mb 0.00 in0.0 mm 0.00 in0.0 mm 0.00 in0.0 mm
06:33 AM 24.5°F-4.2°C 15.4°F-9.2°C 68% Calm Calm 4.0 mph6.4 kmh 30.77 in1042.0 mb 0.00 in0.0 mm 0.00 in0.0 mm 0.00 in0.0 mm
06:34 AM 24.5°F-4.2°C 15.4°F-9.2°C 68% Calm Calm 4.0 mph6.4 kmh 30.77 in1042.0 mb 0.00 in0.0 mm 0.00 in0.0 mm 0.00 in0.0 mm
06:35 AM 24.4°F-4.2°C 15.3°F-9.3°C 68% Calm Calm 4.0 mph6.4 kmh 30.77 in1042.0 mb 0.00 in0.0 mm 0.00 in0.0 mm 0.00 in0.0 mm
06:36 AM 24.4°F-4.2°C 15.3°F-9.3°C 68% Calm Calm 4.0 mph6.4 kmh 30.77 in1042.0 mb 0.00 in0.0 mm 0.00 in0.0 mm 0.00 in0.0 mm
06:37 AM 24.3°F-4.3°C 15.3°F-9.3°C 68% Calm Calm 4.0 mph6.4 kmh 30.77 in1042.0 mb 0.00 in0.0 mm 0.00 in0.0 mm 0.00 in0.0 mm
06:38 AM 24.3°F-4.3°C 15.3°F-9.3°C 68% Calm Calm 4.0 mph6.4 kmh 30.77 in1042.0 mb 0.00 in0.0 mm 0.00 in0.0 mm 0.00 in0.0 mm
06:39 AM 24.3°F-4.3°C 15.3°F-9.3°C 68% 1.0 mph ENE1.6 kmh ENE 4.0 mph6.4 kmh 30.77 in1042.0 mb 0.00 in0.0 mm 0.00 in0.0 mm 0.00 in0.0 mm
06:40 AM 24.2°F-4.3°C 15.2°F-9.3°C 68% Calm Calm 4.0 mph6.4 kmh 30.77 in1042.0 mb 0.00 in0.0 mm 0.00 in0.0 mm 0.00 in0.0 mm
06:41 AM 24.2°F-4.3°C 15.2°F-9.3°C 68% Calm Calm 4.0 mph6.4 kmh 30.77 in1042.0 mb 0.00 in0.0 mm 0.00 in0.0 mm 0.00 in0.0 mm
06:42 AM 24.2°F-4.3°C 15.2°F-9.3°C 68% 1.0 mph ENE1.6 kmh ENE 4.0 mph6.4 kmh 30.77 in1042.0 mb 0.00 in0.0 mm 0.00 in0.0 mm 0.00 in0.0 mm
06:43 AM 24.2°F-4.3°C 15.2°F-9.3°C 68% 1.0 mph ENE1.6 kmh ENE 4.0 mph6.4 kmh 30.77 in1042.0 mb 0.00 in0.0 mm 0.00 in0.0 mm 0.00 in0.0 mm
06:44 AM 24.2°F-4.3°C 15.2°F-9.3°C 68% 1.0 mph ENE1.6 kmh ENE 4.0 mph6.4 kmh 30.77 in1042.0 mb 0.00 in0.0 mm 0.00 in0.0 mm 0.00 in0.0 mm
06:45 AM 24.2°F-4.3°C 15.2°F-9.3°C 68% 1.0 mph ENE1.6 kmh ENE 4.0 mph6.4 kmh 30.77 in1042.0 mb 0.00 in0.0 mm 0.00 in0.0 mm 0.00 in0.0 mm
06:46 AM 24.2°F-4.3°C 15.2°F-9.3°C 68% 1.0 mph ENE1.6 kmh ENE 4.0 mph6.4 kmh 30.77 in1042.0 mb 0.00 in0.0 mm 0.00 in0.0 mm 0.00 in0.0 mm
06:47 AM 24.2°F-4.3°C 15.2°F-9.3°C 68% 1.0 mph ENE1.6 kmh ENE 4.0 mph6.4 kmh 30.77 in1042.0 mb 0.00 in0.0 mm 0.00 in0.0 mm 0.00 in0.0 mm
06:48 AM 24.2°F-4.3°C 15.2°F-9.3°C 68% 1.0 mph ENE1.6 kmh ENE 4.0 mph6.4 kmh 30.77 in1042.0 mb 0.00 in0.0 mm 0.00 in0.0 mm 0.00 in0.0 mm
06:49 AM 24.1°F-4.4°C 15.1°F-9.4°C 68% 1.0 mph ENE1.6 kmh ENE 4.0 mph6.4 kmh 30.77 in1042.0 mb 0.00 in0.0 mm 0.00 in0.0 mm 0.00 in0.0 mm
06:50 AM 24.1°F-4.4°C 15.1°F-9.4°C 68% 1.0 mph ENE1.6 kmh ENE 4.0 mph6.4 kmh 30.77 in1042.0 mb 0.00 in0.0 mm 0.00 in0.0 mm 0.00 in0.0 mm
06:51 AM 24.1°F-4.4°C 15.1°F-9.4°C 68% 1.0 mph ENE1.6 kmh ENE 4.0 mph6.4 kmh 30.77 in1042.0 mb 0.00 in0.0 mm 0.00 in0.0 mm 0.00 in0.0 mm
06:52 AM 24.1°F-4.4°C 15.1°F-9.4°C 68% 1.0 mph ENE1.6 kmh ENE 4.0 mph6.4 kmh 30.77 in1042.0 mb 0.00 in0.0 mm 0.00 in0.0 mm 0.00 in0.0 mm
06:53 AM 24.1°F-4.4°C 15.1°F-9.4°C 68% Calm Calm 3.0 mph4.8 kmh 30.77 in1042.0 mb 0.00 in0.0 mm 0.00 in0.0 mm 0.00 in0.0 mm
06:54 AM 24.1°F-4.4°C 15.1°F-9.4°C 68% Calm Calm 3.0 mph4.8 kmh 30.76 in1041.7 mb 0.00 in0.0 mm 0.00 in0.0 mm 0.00 in0.0 mm
06:55 AM 24.1°F-4.4°C 15.1°F-9.4°C 68% Calm Calm 3.0 mph4.8 kmh 30.76 in1041.7 mb 0.00 in0.0 mm 0.00 in0.0 mm 0.00 in0.0 mm
06:56 AM 24.1°F-4.4°C 15.1°F-9.4°C 68% Calm Calm 3.0 mph4.8 kmh 30.77 in1042.0 mb 0.00 in0.0 mm 0.00 in0.0 mm 0.00 in0.0 mm
06:57 AM 24.0°F-4.4°C 15.0°F-9.4°C 68% Calm Calm 9.0 mph14.5 kmh 30.77 in1042.0 mb 0.00 in0.0 mm 0.00 in0.0 mm 0.00 in0.0 mm
06:58 AM 24.1°F-4.4°C 15.1°F-9.4°C 68% 1.0 mph NE1.6 kmh NE 9.0 mph14.5 kmh 30.77 in1042.0 mb 0.00 in0.0 mm 0.00 in0.0 mm 0.00 in0.0 mm
06:59 AM 24.0°F-4.4°C 15.0°F-9.4°C 68% 1.0 mph NE1.6 kmh NE 9.0 mph14.5 kmh 30.77 in1042.0 mb 0.00 in0.0 mm 0.00 in0.0 mm 0.00 in0.0 mm
07:00 AM 24.1°F-4.4°C 15.4°F-9.2°C 69% 1.0 mph NE1.6 kmh NE 9.0 mph14.5 kmh 30.77 in1042.0 mb 0.00 in0.0 mm 0.00 in0.0 mm 0.00 in0.0 mm
07:01 AM 24.1°F-4.4°C 15.4°F-9.2°C 69% 1.0 mph NE1.6 kmh NE 9.0 mph14.5 kmh 30.77 in1042.0 mb 0.00 in0.0 mm 0.00 in0.0 mm 0.00 in0.0 mm
07:02 AM 24.1°F-4.4°C 15.4°F-9.2°C 69% 1.0 mph NE1.6 kmh NE 9.0 mph14.5 kmh 30.77 in1042.0 mb 0.00 in0.0 mm 0.00 in0.0 mm 0.00 in0.0 mm
07:03 AM 24.1°F-4.4°C 15.4°F-9.2°C 69% 1.0 mph NE1.6 kmh NE 9.0 mph14.5 kmh 30.77 in1042.0 mb 0.00 in0.0 mm 0.00 in0.0 mm 0.00 in0.0 mm
07:04 AM 24.1°F-4.4°C 15.4°F-9.2°C 69% 1.0 mph NNE1.6 kmh NNE 9.0 mph14.5 kmh 30.77 in1042.0 mb 0.00 in0.0 mm 0.00 in0.0 mm 0.00 in0.0 mm
07:05 AM 24.2°F-4.3°C 15.2°F-9.3°C 68% 1.0 mph NNE1.6 kmh NNE 9.0 mph14.5 kmh 30.77 in1042.0 mb 0.00 in0.0 mm 0.00 in0.0 mm 0.00 in0.0 mm
07:06 AM 24.2°F-4.3°C 15.2°F-9.3°C 68% 1.0 mph NNE1.6 kmh NNE 9.0 mph14.5 kmh 30.77 in1042.0 mb 0.00 in0.0 mm 0.00 in0.0 mm 0.00 in0.0 mm
07:07 AM 24.2°F-4.3°C 15.2°F-9.3°C 68% 1.0 mph NNE1.6 kmh NNE 5.0 mph8.0 kmh 30.77 in1042.0 mb 0.00 in0.0 mm 0.00 in0.0 mm 0.00 in0.0 mm
07:08 AM 24.2°F-4.3°C 15.2°F-9.3°C 68% Calm Calm 5.0 mph8.0 kmh 30.77 in1042.0 mb 0.00 in0.0 mm 0.00 in0.0 mm 0.00 in0.0 mm
07:09 AM 24.2°F-4.3°C 15.2°F-9.3°C 68% Calm Calm 5.0 mph8.0 kmh 30.77 in1042.0 mb 0.00 in0.0 mm 0.00 in0.0 mm 0.00 in0.0 mm
07:10 AM 24.2°F-4.3°C 15.2°F-9.3°C 68% Calm Calm 5.0 mph8.0 kmh 30.77 in1042.0 mb 0.00 in0.0 mm 0.00 in0.0 mm 0.00 in0.0 mm
07:11 AM 24.2°F-4.3°C 15.2°F-9.3°C 68% 1.0 mph NNE1.6 kmh NNE 5.0 mph8.0 kmh 30.78 in1042.3 mb 0.00 in0.0 mm 0.00 in0.0 mm 0.00 in0.0 mm
07:12 AM 24.2°F-4.3°C 15.2°F-9.3°C 68% 1.0 mph NNE1.6 kmh NNE 5.0 mph8.0 kmh 30.78 in1042.3 mb 0.00 in0.0 mm 0.00 in0.0 mm 0.00 in0.0 mm
07:13 AM 24.2°F-4.3°C 15.2°F-9.3°C 68% 1.0 mph NNE1.6 kmh NNE 5.0 mph8.0 kmh 30.78 in1042.3 mb 0.00 in0.0 mm 0.00 in0.0 mm 0.00 in0.0 mm
07:14 AM 24.2°F-4.3°C 15.2°F-9.3°C 68% 1.0 mph NNE1.6 kmh NNE 5.0 mph8.0 kmh 30.78 in1042.3 mb 0.00 in0.0 mm 0.00 in0.0 mm 0.00 in0.0 mm
07:15 AM 24.2°F-4.3°C 15.2°F-9.3°C 68% 1.0 mph NNE1.6 kmh NNE 5.0 mph8.0 kmh 30.78 in1042.3 mb 0.00 in0.0 mm 0.00 in0.0 mm 0.00 in0.0 mm
07:16 AM 24.2°F-4.3°C 15.2°F-9.3°C 68% 1.0 mph NNE1.6 kmh NNE 5.0 mph8.0 kmh 30.78 in1042.3 mb 0.00 in0.0 mm 0.00 in0.0 mm 0.00 in0.0 mm
07:17 AM 24.2°F-4.3°C 15.2°F-9.3°C 68% 1.0 mph NNE1.6 kmh NNE 5.0 mph8.0 kmh 30.78 in1042.3 mb 0.00 in0.0 mm 0.00 in0.0 mm 0.00 in0.0 mm
07:18 AM 24.2°F-4.3°C 15.2°F-9.3°C 68% 1.0 mph NNE1.6 kmh NNE 5.0 mph8.0 kmh 30.78 in1042.3 mb 0.00 in0.0 mm 0.00 in0.0 mm 0.00 in0.0 mm
07:19 AM 24.2°F-4.3°C 15.2°F-9.3°C 68% 1.0 mph NNE1.6 kmh NNE 5.0 mph8.0 kmh 30.78 in1042.3 mb 0.00 in0.0 mm 0.00 in0.0 mm 0.00 in0.0 mm
07:20 AM 24.2°F-4.3°C 15.2°F-9.3°C 68% Calm Calm 4.0 mph6.4 kmh 30.78 in1042.3 mb 0.00 in0.0 mm 0.00 in0.0 mm 0.00 in0.0 mm
07:21 AM 24.1°F-4.4°C 15.1°F-9.4°C 68% Calm Calm -- 30.79 in1042.7 mb 0.00 in0.0 mm 0.00 in0.0 mm 0.00 in0.0 mm
07:22 AM 24.1°F-4.4°C 15.1°F-9.4°C 68% Calm Calm -- 30.79 in1042.7 mb 0.00 in0.0 mm 0.00 in0.0 mm 0.00 in0.0 mm
07:23 AM 24.0°F-4.4°C 15.0°F-9.4°C 68% Calm Calm -- 30.79 in1042.7 mb 0.00 in0.0 mm 0.00 in0.0 mm 0.00 in0.0 mm
07:24 AM 24.0°F-4.4°C 15.0°F-9.4°C 68% Calm Calm -- 30.79 in1042.7 mb 0.00 in0.0 mm 0.00 in0.0 mm 0.00 in0.0 mm
07:25 AM 24.0°F-4.4°C 15.0°F-9.4°C 68% Calm Calm 2.0 mph3.2 kmh 30.79 in1042.7 mb 0.00 in0.0 mm 0.00 in0.0 mm 0.00 in0.0 mm
07:26 AM 23.9°F-4.5°C 14.9°F-9.5°C 68% Calm Calm 2.0 mph3.2 kmh 30.79 in1042.7 mb 0.00 in0.0 mm 0.00 in0.0 mm 0.00 in0.0 mm
07:27 AM 23.9°F-4.5°C 14.9°F-9.5°C 68% Calm Calm 2.0 mph3.2 kmh 30.79 in1042.7 mb 0.00 in0.0 mm 0.00 in0.0 mm 0.00 in0.0 mm
07:28 AM 23.9°F-4.5°C 14.9°F-9.5°C 68% Calm Calm 2.0 mph3.2 kmh 30.79 in1042.7 mb 0.00 in0.0 mm 0.00 in0.0 mm 0.00 in0.0 mm
07:29 AM 23.8°F-4.6°C 15.1°F-9.4°C 69% Calm Calm 2.0 mph3.2 kmh 30.78 in1042.3 mb 0.00 in0.0 mm 0.00 in0.0 mm 0.00 in0.0 mm
07:30 AM 23.8°F-4.6°C 15.1°F-9.4°C 69% Calm Calm 2.0 mph3.2 kmh 30.78 in1042.3 mb 0.00 in0.0 mm 0.00 in0.0 mm 0.00 in0.0 mm
07:31 AM 23.8°F-4.6°C 15.1°F-9.4°C 69% Calm Calm 2.0 mph3.2 kmh 30.79 in1042.7 mb 0.00 in0.0 mm 0.00 in0.0 mm 0.00 in0.0 mm
07:32 AM 23.8°F-4.6°C 15.1°F-9.4°C 69% Calm Calm 2.0 mph3.2 kmh 30.79 in1042.7 mb 0.00 in0.0 mm 0.00 in0.0 mm 0.00 in0.0 mm
07:33 AM 23.7°F-4.6°C 15.0°F-9.4°C 69% Calm Calm 2.0 mph3.2 kmh 30.79 in1042.7 mb 0.00 in0.0 mm 0.00 in0.0 mm 0.00 in0.0 mm
07:34 AM 23.7°F-4.6°C 15.0°F-9.4°C 69% Calm Calm 2.0 mph3.2 kmh 30.79 in1042.7 mb 0.00 in0.0 mm 0.00 in0.0 mm 0.00 in0.0 mm
07:35 AM 23.6°F-4.7°C 14.9°F-9.5°C 69% Calm Calm 2.0 mph3.2 kmh 30.79 in1042.7 mb 0.00 in0.0 mm 0.00 in0.0 mm 0.00 in0.0 mm
07:36 AM 23.5°F-4.7°C 14.8°F-9.6°C 69% Calm Calm 2.0 mph3.2 kmh 30.79 in1042.7 mb 0.00 in0.0 mm 0.00 in0.0 mm 0.00 in0.0 mm
07:37 AM 23.4°F-4.8°C 14.7°F-9.6°C 69% Calm Calm 1.0 mph1.6 kmh 30.79 in1042.7 mb 0.00 in0.0 mm 0.00 in0.0 mm 0.00 in0.0 mm
07:38 AM 23.4°F-4.8°C 15.1°F-9.4°C 70% Calm Calm 1.0 mph1.6 kmh 30.79 in1042.7 mb 0.00 in0.0 mm 0.00 in0.0 mm 0.00 in0.0 mm
07:39 AM 23.3°F-4.8°C 15.0°F-9.4°C 70% Calm Calm 1.0 mph1.6 kmh 30.79 in1042.7 mb 0.00 in0.0 mm 0.00 in0.0 mm 0.00 in0.0 mm
07:40 AM 23.2°F-4.9°C 14.9°F-9.5°C 70% Calm Calm 1.0 mph1.6 kmh 30.78 in1042.3 mb 0.00 in0.0 mm 0.00 in0.0 mm 0.00 in0.0 mm
07:41 AM 23.2°F-4.9°C 14.9°F-9.5°C 70% Calm Calm 1.0 mph1.6 kmh 30.79 in1042.7 mb 0.00 in0.0 mm 0.00 in0.0 mm 0.00 in0.0 mm
07:42 AM 23.1°F-4.9°C 14.8°F-9.6°C 70% Calm Calm 1.0 mph1.6 kmh 30.79 in1042.7 mb 0.00 in0.0 mm 0.00 in0.0 mm 0.00 in0.0 mm
07:43 AM 23.1°F-4.9°C 14.8°F-9.6°C 70% Calm Calm 1.0 mph1.6 kmh 30.79 in1042.7 mb 0.00 in0.0 mm 0.00 in0.0 mm 0.00 in0.0 mm
07:44 AM 23.0°F-5.0°C 14.7°F-9.6°C 70% Calm Calm -- 30.79 in1042.7 mb 0.00 in0.0 mm 0.00 in0.0 mm 0.00 in0.0 mm
07:45 AM 23.0°F-5.0°C 14.7°F-9.6°C 70% Calm Calm -- 30.79 in1042.7 mb 0.00 in0.0 mm 0.00 in0.0 mm 0.00 in0.0 mm
07:46 AM 23.0°F-5.0°C 14.7°F-9.6°C 70% Calm Calm -- 30.79 in1042.7 mb 0.00 in0.0 mm 0.00 in0.0 mm 0.00 in0.0 mm
07:47 AM 22.9°F-5.1°C 14.6°F-9.7°C 70% Calm Calm -- 30.79 in1042.7 mb 0.00 in0.0 mm 0.00 in0.0 mm 0.00 in0.0 mm
07:48 AM 22.9°F-5.1°C 14.6°F-9.7°C 70% Calm Calm -- 30.79 in1042.7 mb 0.00 in0.0 mm 0.00 in0.0 mm 0.00 in0.0 mm
07:49 AM 22.8°F-5.1°C 14.5°F-9.7°C 70% Calm Calm -- 30.79 in1042.7 mb 0.00 in0.0 mm 0.00 in0.0 mm 0.00 in0.0 mm
07:50 AM 22.7°F-5.2°C 14.4°F-9.8°C 70% Calm Calm -- 30.79 in1042.7 mb 0.00 in0.0 mm 0.00 in0.0 mm 0.00 in0.0 mm
07:51 AM 22.7°F-5.2°C 14.4°F-9.8°C 70% Calm Calm -- 30.79 in1042.7 mb 0.00 in0.0 mm 0.00 in0.0 mm 0.00 in0.0 mm
07:52 AM 22.6°F-5.2°C 14.6°F-9.7°C 71% Calm Calm -- 30.79 in1042.7 mb 0.00 in0.0 mm 0.00 in0.0 mm 0.00 in0.0 mm
07:53 AM 22.5°F-5.3°C 14.5°F-9.7°C 71% Calm Calm -- 30.79 in1042.7 mb 0.00 in0.0 mm 0.00 in0.0 mm 0.00 in0.0 mm
07:54 AM 22.5°F-5.3°C 14.5°F-9.7°C 71% Calm Calm -- 30.79 in1042.7 mb 0.00 in0.0 mm 0.00 in0.0 mm 0.00 in0.0 mm
07:55 AM 22.4°F-5.3°C 14.4°F-9.8°C 71% Calm Calm -- 30.79 in1042.7 mb 0.00 in0.0 mm 0.00 in0.0 mm 0.00 in0.0 mm
07:56 AM 22.4°F-5.3°C 14.4°F-9.8°C 71% Calm Calm -- 30.79 in1042.7 mb 0.00 in0.0 mm 0.00 in0.0 mm 0.00 in0.0 mm
07:57 AM 22.3°F-5.4°C 14.3°F-9.8°C 71% Calm Calm -- 30.80 in1043.0 mb 0.00 in0.0 mm 0.00 in0.0 mm 0.00 in0.0 mm
07:58 AM 22.3°F-5.4°C 14.3°F-9.8°C 71% Calm Calm -- 30.80 in1043.0 mb 0.00 in0.0 mm 0.00 in0.0 mm 0.00 in0.0 mm
07:59 AM 22.2°F-5.4°C 14.2°F-9.9°C 71% Calm Calm -- 30.80 in1043.0 mb 0.00 in0.0 mm 0.00 in0.0 mm 0.00 in0.0 mm
08:00 AM 22.2°F-5.4°C 14.2°F-9.9°C 71% Calm Calm -- 30.80 in1043.0 mb 0.00 in0.0 mm 0.00 in0.0 mm 0.00 in0.0 mm
08:01 AM 22.1°F-5.5°C 14.1°F-9.9°C 71% Calm Calm -- 30.80 in1043.0 mb 0.00 in0.0 mm 0.00 in0.0 mm 0.00 in0.0 mm
08:02 AM 22.1°F-5.5°C 14.1°F-9.9°C 71% Calm Calm -- 30.80 in1043.0 mb 0.00 in0.0 mm 0.00 in0.0 mm 0.00 in0.0 mm
08:03 AM 22.0°F-5.6°C 14.0°F-10.0°C 71% Calm Calm -- 30.80 in1043.0 mb 0.00 in0.0 mm 0.00 in0.0 mm 0.00 in0.0 mm
08:04 AM 22.0°F-5.6°C 14.0°F-10.0°C 71% Calm Calm -- 30.80 in1043.0 mb 0.00 in0.0 mm 0.00 in0.0 mm 0.00 in0.0 mm
08:05 AM 21.9°F-5.6°C 13.9°F-10.1°C 71% Calm Calm -- 30.80 in1043.0 mb 0.00 in0.0 mm 0.00 in0.0 mm 0.00 in0.0 mm
08:06 AM 21.9°F-5.6°C 13.9°F-10.1°C 71% Calm Calm -- 30.80 in1043.0 mb 0.00 in0.0 mm 0.00 in0.0 mm 0.00 in0.0 mm
08:07 AM 21.8°F-5.7°C 13.8°F-10.1°C 71% Calm Calm -- 30.80 in1043.0 mb 0.00 in0.0 mm 0.00 in0.0 mm 0.00 in0.0 mm
08:08 AM 21.8°F-5.7°C 13.8°F-10.1°C 71% Calm Calm -- 30.80 in1043.0 mb 0.00 in0.0 mm 0.00 in0.0 mm 0.00 in0.0 mm
08:09 AM 21.8°F-5.7°C 14.2°F-9.9°C 72% Calm Calm -- 30.80 in1043.0 mb 0.00 in0.0 mm 0.00 in0.0 mm 0.00 in0.0 mm
08:10 AM 21.7°F-5.7°C 14.1°F-9.9°C 72% Calm Calm -- 30.80 in1043.0 mb 0.00 in0.0 mm 0.00 in0.0 mm 0.00 in0.0 mm
08:11 AM 21.7°F-5.7°C 14.1°F-9.9°C 72% Calm Calm -- 30.80 in1043.0 mb 0.00 in0.0 mm 0.00 in0.0 mm 0.00 in0.0 mm
08:12 AM 21.7°F-5.7°C 14.1°F-9.9°C 72% Calm Calm -- 30.80 in1043.0 mb 0.00 in0.0 mm 0.00 in0.0 mm 0.00 in0.0 mm
08:13 AM 21.7°F-5.7°C 14.1°F-9.9°C 72% Calm Calm -- 30.80 in1043.0 mb 0.00 in0.0 mm 0.00 in0.0 mm 0.00 in0.0 mm
08:14 AM 21.7°F-5.7°C 14.4°F-9.8°C 73% Calm Calm -- 30.80 in1043.0 mb 0.00 in0.0 mm 0.00 in0.0 mm 0.00 in0.0 mm
08:15 AM 21.6°F-5.8°C 14.3°F-9.8°C 73% Calm Calm -- 30.80 in1043.0 mb 0.00 in0.0 mm 0.00 in0.0 mm 0.00 in0.0 mm
08:16 AM 21.6°F-5.8°C 14.3°F-9.8°C 73% Calm Calm -- 30.80 in1043.0 mb 0.00 in0.0 mm 0.00 in0.0 mm 0.00 in0.0 mm
08:17 AM 21.6°F-5.8°C 14.3°F-9.8°C 73% Calm Calm -- 30.80 in1043.0 mb 0.00 in0.0 mm 0.00 in0.0 mm 0.00 in0.0 mm
08:18 AM 21.6°F-5.8°C 14.3°F-9.8°C 73% Calm Calm -- 30.80 in1043.0 mb 0.00 in0.0 mm 0.00 in0.0 mm 0.00 in0.0 mm
08:19 AM 21.6°F-5.8°C 14.3°F-9.8°C 73% Calm Calm -- 30.80 in1043.0 mb 0.00 in0.0 mm 0.00 in0.0 mm 0.00 in0.0 mm
08:20 AM 21.6°F-5.8°C 14.3°F-9.8°C 73% Calm Calm -- 30.80 in1043.0 mb 0.00 in0.0 mm 0.00 in0.0 mm 0.00 in0.0 mm
08:21 AM 21.5°F-5.8°C 14.2°F-9.9°C 73% Calm Calm -- 30.81 in1043.3 mb 0.00 in0.0 mm 0.00 in0.0 mm 0.00 in0.0 mm
08:22 AM 21.6°F-5.8°C 14.3°F-9.8°C 73% Calm Calm -- 30.81 in1043.3 mb 0.00 in0.0 mm 0.00 in0.0 mm 0.00 in0.0 mm
08:23 AM 21.6°F-5.8°C 14.6°F-9.7°C 74% Calm Calm -- 30.81 in1043.3 mb 0.00 in0.0 mm 0.00 in0.0 mm 0.00 in0.0 mm
08:24 AM 21.6°F-5.8°C 14.9°F-9.5°C 75% Calm Calm -- 30.81 in1043.3 mb 0.00 in0.0 mm 0.00 in0.0 mm 0.00 in0.0 mm
08:25 AM 21.7°F-5.7°C 15.0°F-9.4°C 75% Calm Calm -- 30.81 in1043.3 mb 0.00 in0.0 mm 0.00 in0.0 mm 0.00 in0.0 mm
08:26 AM 21.7°F-5.7°C 15.0°F-9.4°C 75% Calm Calm -- 30.81 in1043.3 mb 0.00 in0.0 mm 0.00 in0.0 mm 0.00 in0.0 mm
08:27 AM 21.7°F-5.7°C 15.0°F-9.4°C 75% Calm Calm -- 30.81 in1043.3 mb 0.00 in0.0 mm 0.00 in0.0 mm 0.00 in0.0 mm
08:28 AM 21.7°F-5.7°C 15.0°F-9.4°C 75% Calm Calm -- 30.81 in1043.3 mb 0.00 in0.0 mm 0.00 in0.0 mm 0.00 in0.0 mm
08:29 AM 21.7°F-5.7°C 15.0°F-9.4°C 75% Calm Calm -- 30.81 in1043.3 mb 0.00 in0.0 mm 0.00 in0.0 mm 0.00 in0.0 mm
08:30 AM 21.7°F-5.7°C 15.0°F-9.4°C 75% Calm Calm -- 30.81 in1043.3 mb 0.00 in0.0 mm 0.00 in0.0 mm 0.00 in0.0 mm
08:31 AM 21.7°F-5.7°C 15.0°F-9.4°C 75% Calm Calm -- 30.81 in1043.3 mb 0.00 in0.0 mm 0.00 in0.0 mm 0.00 in0.0 mm
08:32 AM 21.6°F-5.8°C 14.9°F-9.5°C 75% Calm Calm -- 30.81 in1043.3 mb 0.00 in0.0 mm 0.00 in0.0 mm 0.00 in0.0 mm
08:33 AM 21.6°F-5.8°C 14.9°F-9.5°C 75% Calm Calm -- 30.81 in1043.3 mb 0.00 in0.0 mm 0.00 in0.0 mm 0.00 in0.0 mm
08:34 AM 21.6°F-5.8°C 14.9°F-9.5°C 75% Calm Calm -- 30.81 in1043.3 mb 0.00 in0.0 mm 0.00 in0.0 mm 0.00 in0.0 mm
08:35 AM 21.6°F-5.8°C 14.9°F-9.5°C 75% Calm Calm -- 30.81 in1043.3 mb 0.00 in0.0 mm 0.00 in0.0 mm 0.00 in0.0 mm
08:36 AM 21.6°F-5.8°C 14.9°F-9.5°C 75% Calm Calm -- 30.81 in1043.3 mb 0.00 in0.0 mm 0.00 in0.0 mm 0.00 in0.0 mm
08:37 AM 21.6°F-5.8°C 14.9°F-9.5°C 75% Calm Calm -- 30.81 in1043.3 mb 0.00 in0.0 mm 0.00 in0.0 mm 0.00 in0.0 mm
08:38 AM 21.6°F-5.8°C 15.2°F-9.3°C 76% Calm Calm -- 30.81 in1043.3 mb 0.00 in0.0 mm 0.00 in0.0 mm 0.00 in0.0 mm
08:39 AM 21.6°F-5.8°C 15.2°F-9.3°C 76% Calm Calm -- 30.81 in1043.3 mb 0.00 in0.0 mm 0.00 in0.0 mm 0.00 in0.0 mm
08:40 AM 21.6°F-5.8°C 15.2°F-9.3°C 76% Calm Calm -- 30.81 in1043.3 mb 0.00 in0.0 mm 0.00 in0.0 mm 0.00 in0.0 mm
08:41 AM 21.6°F-5.8°C 15.2°F-9.3°C 76% Calm Calm -- 30.81 in1043.3 mb 0.00 in0.0 mm 0.00 in0.0 mm 0.00 in0.0 mm
08:42 AM 21.6°F-5.8°C 15.2°F-9.3°C 76% Calm Calm -- 30.82 in1043.7 mb 0.00 in0.0 mm 0.00 in0.0 mm 0.00 in0.0 mm
08:43 AM 21.6°F-5.8°C 15.2°F-9.3°C 76% Calm Calm -- 30.81 in1043.3 mb 0.00 in0.0 mm 0.00 in0.0 mm 0.00 in0.0 mm
08:44 AM 21.6°F-5.8°C 15.2°F-9.3°C 76% Calm Calm -- 30.82 in1043.7 mb 0.00 in0.0 mm 0.00 in0.0 mm 0.00 in0.0 mm
08:45 AM 21.6°F-5.8°C 15.2°F-9.3°C 76% Calm Calm -- 30.81 in1043.3 mb 0.00 in0.0 mm 0.00 in0.0 mm 0.00 in0.0 mm
08:46 AM 21.6°F-5.8°C 15.2°F-9.3°C 76% Calm Calm 1.0 mph1.6 kmh 30.81 in1043.3 mb 0.00 in0.0 mm 0.00 in0.0 mm 0.00 in0.0 mm
08:47 AM 21.7°F-5.7°C 15.3°F-9.3°C 76% Calm Calm 2.0 mph3.2 kmh 30.81 in1043.3 mb 0.00 in0.0 mm 0.00 in0.0 mm 0.00 in0.0 mm
08:48 AM 21.7°F-5.7°C 15.3°F-9.3°C 76% Calm Calm 2.0 mph3.2 kmh 30.81 in1043.3 mb 0.00 in0.0 mm 0.00 in0.0 mm 0.00 in0.0 mm
08:49 AM 21.8°F-5.7°C 15.7°F-9.1°C 77% Calm Calm 2.0 mph3.2 kmh 30.82 in1043.7 mb 0.00 in0.0 mm 0.00 in0.0 mm 0.00 in0.0 mm
08:50 AM 21.8°F-5.7°C 15.7°F-9.1°C 77% Calm Calm 2.0 mph3.2 kmh 30.82 in1043.7 mb 0.00 in0.0 mm 0.00 in0.0 mm 0.00 in0.0 mm
08:51 AM 21.9°F-5.6°C 15.8°F-9.0°C 77% Calm Calm 2.0 mph3.2 kmh 30.82 in1043.7 mb 0.00 in0.0 mm 0.00 in0.0 mm 0.00 in0.0 mm
08:52 AM 21.9°F-5.6°C 15.8°F-9.0°C 77% Calm Calm 2.0 mph3.2 kmh 30.82 in1043.7 mb 0.00 in0.0 mm 0.00 in0.0 mm 0.00 in0.0 mm
08:53 AM 22.0°F-5.6°C 15.9°F-8.9°C 77% Calm Calm 2.0 mph3.2 kmh 30.82 in1043.7 mb 0.00 in0.0 mm 0.00 in0.0 mm 0.00 in0.0 mm
08:54 AM 22.0°F-5.6°C 15.9°F-8.9°C 77% Calm Calm 4.0 mph6.4 kmh 30.82 in1043.7 mb 0.00 in0.0 mm 0.00 in0.0 mm 0.00 in0.0 mm
08:55 AM 22.1°F-5.5°C 16.0°F-8.9°C 77% Calm Calm 4.0 mph6.4 kmh 30.81 in1043.3 mb 0.00 in0.0 mm 0.00 in0.0 mm 0.00 in0.0 mm
08:56 AM 22.2°F-5.4°C 16.1°F-8.8°C 77% Calm Calm 4.0 mph6.4 kmh 30.82 in1043.7 mb 0.00 in0.0 mm 0.00 in0.0 mm 0.00 in0.0 mm
08:57 AM 22.2°F-5.4°C 16.1°F-8.8°C 77% Calm Calm 4.0 mph6.4 kmh 30.81 in1043.3 mb 0.00 in0.0 mm 0.00 in0.0 mm 0.00 in0.0 mm
08:58 AM 22.4°F-5.3°C 16.3°F-8.7°C 77% Calm Calm 4.0 mph6.4 kmh 30.81 in1043.3 mb 0.00 in0.0 mm 0.00 in0.0 mm 0.00 in0.0 mm
08:59 AM 22.5°F-5.3°C 16.4°F-8.7°C 77% 1.0 mph NNE1.6 kmh NNE 4.0 mph6.4 kmh 30.81 in1043.3 mb 0.00 in0.0 mm 0.00 in0.0 mm 0.00 in0.0 mm
09:00 AM 22.6°F-5.2°C 16.5°F-8.6°C 77% 1.0 mph NNE1.6 kmh NNE 5.0 mph8.0 kmh 30.81 in1043.3 mb 0.00 in0.0 mm 0.00 in0.0 mm 0.00 in0.0 mm
09:01 AM 22.7°F-5.2°C 16.6°F-8.6°C 77% 1.0 mph NNE1.6 kmh NNE 5.0 mph8.0 kmh 30.81 in1043.3 mb 0.00 in0.0 mm 0.00 in0.0 mm 0.00 in0.0 mm
09:02 AM 23.0°F-5.0°C 16.9°F-8.4°C 77% 1.0 mph NNE1.6 kmh NNE 5.0 mph8.0 kmh 30.81 in1043.3 mb 0.00 in0.0 mm 0.00 in0.0 mm 0.00 in0.0 mm
09:03 AM 23.2°F-4.9°C 16.8°F-8.4°C 76% 1.0 mph NNE1.6 kmh NNE 5.0 mph8.0 kmh 30.82 in1043.7 mb 0.00 in0.0 mm 0.00 in0.0 mm 0.00 in0.0 mm
09:04 AM 23.4°F-4.8°C 16.9°F-8.4°C 76% 1.0 mph NNE1.6 kmh NNE 5.0 mph8.0 kmh 30.82 in1043.7 mb 0.00 in0.0 mm 0.00 in0.0 mm 0.00 in0.0 mm
09:05 AM 23.6°F-4.7°C 16.8°F-8.4°C 75% 2.0 mph NNE3.2 kmh NNE 5.0 mph8.0 kmh 30.82 in1043.7 mb 0.00 in0.0 mm 0.00 in0.0 mm 0.00 in0.0 mm
09:06 AM 23.8°F-4.6°C 17.0°F-8.3°C 75% 2.0 mph NNE3.2 kmh NNE 5.0 mph8.0 kmh 30.82 in1043.7 mb 0.00 in0.0 mm 0.00 in0.0 mm 0.00 in0.0 mm
09:07 AM 24.0°F-4.4°C 17.2°F-8.2°C 75% 2.0 mph NE3.2 kmh NE 5.0 mph8.0 kmh 30.82 in1043.7 mb 0.00 in0.0 mm 0.00 in0.0 mm 0.00 in0.0 mm
09:08 AM 24.2°F-4.3°C 17.4°F-8.1°C 75% 2.0 mph NE3.2 kmh NE 5.0 mph8.0 kmh 30.82 in1043.7 mb 0.00 in0.0 mm 0.00 in0.0 mm 0.00 in0.0 mm
09:09 AM 24.4°F-4.2°C 17.3°F-8.2°C 74% 2.0 mph NE3.2 kmh NE 6.0 mph9.7 kmh 30.82 in1043.7 mb 0.00 in0.0 mm 0.00 in0.0 mm 0.00 in0.0 mm
09:10 AM 24.6°F-4.1°C 17.2°F-8.2°C 73% 3.0 mph NE4.8 kmh NE 7.0 mph11.3 kmh 30.82 in1043.7 mb 0.00 in0.0 mm 0.00 in0.0 mm 0.00 in0.0 mm
09:11 AM 24.8°F-4.0°C 17.4°F-8.1°C 73% 3.0 mph NE4.8 kmh NE 7.0 mph11.3 kmh 30.82 in1043.7 mb 0.00 in0.0 mm 0.00 in0.0 mm 0.00 in0.0 mm
09:12 AM 25.0°F-3.9°C 17.6°F-8.0°C 73% 3.0 mph NE4.8 kmh NE 7.0 mph11.3 kmh 30.82 in1043.7 mb 0.00 in0.0 mm 0.00 in0.0 mm 0.00 in0.0 mm
09:13 AM 25.2°F-3.8°C 17.4°F-8.1°C 72% 3.0 mph NE4.8 kmh NE 7.0 mph11.3 kmh 30.82 in1043.7 mb 0.00 in0.0 mm 0.00 in0.0 mm 0.00 in0.0 mm
09:14 AM 25.4°F-3.7°C 17.6°F-8.0°C 72% 3.0 mph NE4.8 kmh NE 7.0 mph11.3 kmh 30.82 in1043.7 mb 0.00 in0.0 mm 0.00 in0.0 mm 0.00 in0.0 mm
09:15 AM 25.5°F-3.6°C 17.4°F-8.1°C 71% 3.0 mph NE4.8 kmh NE 7.0 mph11.3 kmh 30.82 in1043.7 mb 0.00 in0.0 mm 0.00 in0.0 mm 0.00 in0.0 mm
09:16 AM 25.7°F-3.5°C 17.6°F-8.0°C 71% 3.0 mph NE4.8 kmh NE 7.0 mph11.3 kmh 30.82 in1043.7 mb 0.00 in0.0 mm 0.00 in0.0 mm 0.00 in0.0 mm
09:17 AM 25.9°F-3.4°C 17.5°F-8.1°C 70% 4.0 mph NE6.4 kmh NE 7.0 mph11.3 kmh 30.82 in1043.7 mb 0.00 in0.0 mm 0.00 in0.0 mm 0.00 in0.0 mm
09:18 AM 26.1°F-3.3°C 17.6°F-8.0°C 70% 4.0 mph NE6.4 kmh NE 7.0 mph11.3 kmh 30.82 in1043.7 mb 0.00 in0.0 mm 0.00 in0.0 mm 0.00 in0.0 mm
09:19 AM 26.2°F-3.2°C 17.4°F-8.1°C 69% 4.0 mph NE6.4 kmh NE 7.0 mph11.3 kmh 30.82 in1043.7 mb 0.00 in0.0 mm 0.00 in0.0 mm 0.00 in0.0 mm
09:20 AM 26.3°F-3.2°C 17.5°F-8.1°C 69% 4.0 mph NE6.4 kmh NE 6.0 mph9.7 kmh 30.82 in1043.7 mb 0.00 in0.0 mm 0.00 in0.0 mm 0.00 in0.0 mm
09:21 AM 26.5°F-3.1°C 17.7°F-7.9°C 69% 4.0 mph ENE6.4 kmh ENE 6.0 mph9.7 kmh 30.82 in1043.7 mb 0.00 in0.0 mm 0.00 in0.0 mm 0.00 in0.0 mm
09:22 AM 26.6°F-3.0°C 17.5°F-8.1°C 68% 4.0 mph ENE6.4 kmh ENE 6.0 mph9.7 kmh 30.82 in1043.7 mb 0.00 in0.0 mm 0.00 in0.0 mm 0.00 in0.0 mm
09:23 AM 26.7°F-2.9°C 17.6°F-8.0°C 68% 4.0 mph NE6.4 kmh NE 6.0 mph9.7 kmh 30.82 in1043.7 mb 0.00 in0.0 mm 0.00 in0.0 mm 0.00 in0.0 mm
09:24 AM 26.8°F-2.9°C 17.3°F-8.2°C 67% 3.0 mph NE4.8 kmh NE 6.0 mph9.7 kmh 30.82 in1043.7 mb 0.00 in0.0 mm 0.00 in0.0 mm 0.00 in0.0 mm
09:25 AM 26.9°F-2.8°C 17.4°F-8.1°C 67% 4.0 mph NE6.4 kmh NE 7.0 mph11.3 kmh 30.82 in1043.7 mb 0.00 in0.0 mm 0.00 in0.0 mm 0.00 in0.0 mm
09:26 AM 27.0°F-2.8°C 17.1°F-8.3°C 66% 4.0 mph NE6.4 kmh NE 7.0 mph11.3 kmh 30.82 in1043.7 mb 0.00 in0.0 mm 0.00 in0.0 mm 0.00 in0.0 mm
09:27 AM 27.0°F-2.8°C 17.1°F-8.3°C 66% 3.0 mph NE4.8 kmh NE 7.0 mph11.3 kmh 30.82 in1043.7 mb 0.00 in0.0 mm 0.00 in0.0 mm 0.00 in0.0 mm
09:28 AM 27.0°F-2.8°C 17.1°F-8.3°C 66% 3.0 mph NE4.8 kmh NE 7.0 mph11.3 kmh 30.82 in1043.7 mb 0.00 in0.0 mm 0.00 in0.0 mm 0.00 in0.0 mm
09:29 AM 27.1°F-2.7°C 17.2°F-8.2°C 66% 3.0 mph NE4.8 kmh NE 7.0 mph11.3 kmh 30.82 in1043.7 mb 0.00 in0.0 mm 0.00 in0.0 mm 0.00 in0.0 mm
09:30 AM 27.1°F-2.7°C 16.9°F-8.4°C 65% 3.0 mph NE4.8 kmh NE 8.0 mph12.9 kmh 30.82 in1043.7 mb 0.00 in0.0 mm 0.00 in0.0 mm 0.00 in0.0 mm
09:31 AM 27.2°F-2.7°C 17.0°F-8.3°C 65% 3.0 mph NE4.8 kmh NE 8.0 mph12.9 kmh 30.82 in1043.7 mb 0.00 in0.0 mm 0.00 in0.0 mm 0.00 in0.0 mm
09:32 AM 27.2°F-2.7°C 17.0°F-8.3°C 65% 3.0 mph NE4.8 kmh NE 8.0 mph12.9 kmh 30.82 in1043.7 mb 0.00 in0.0 mm 0.00 in0.0 mm 0.00 in0.0 mm
09:33 AM 27.3°F-2.6°C 17.1°F-8.3°C 65% 3.0 mph NE4.8 kmh NE 8.0 mph12.9 kmh 30.82 in1043.7 mb 0.00 in0.0 mm 0.00 in0.0 mm 0.00 in0.0 mm
09:34 AM 27.4°F-2.6°C 17.2°F-8.2°C 65% 3.0 mph NE4.8 kmh NE 8.0 mph12.9 kmh 30.82 in1043.7 mb 0.00 in0.0 mm 0.00 in0.0 mm 0.00 in0.0 mm
09:35 AM 27.4°F-2.6°C 17.2°F-8.2°C 65% 3.0 mph ENE4.8 kmh ENE 8.0 mph12.9 kmh 30.82 in1043.7 mb 0.00 in0.0 mm 0.00 in0.0 mm 0.00 in0.0 mm
09:36 AM 27.4°F-2.6°C 17.2°F-8.2°C 65% 3.0 mph ENE4.8 kmh ENE 8.0 mph12.9 kmh 30.82 in1043.7 mb 0.00 in0.0 mm 0.00 in0.0 mm 0.00 in0.0 mm
09:37 AM 27.4°F-2.6°C 16.8°F-8.4°C 64% 3.0 mph ENE4.8 kmh ENE 8.0 mph12.9 kmh 30.82 in1043.7 mb 0.00 in0.0 mm 0.00 in0.0 mm 0.00 in0.0 mm
09:38 AM 27.4°F-2.6°C 16.8°F-8.4°C 64% 4.0 mph ENE6.4 kmh ENE 8.0 mph12.9 kmh 30.82 in1043.7 mb 0.00 in0.0 mm 0.00 in0.0 mm 0.00 in0.0 mm
09:39 AM 27.4°F-2.6°C 16.8°F-8.4°C 64% 4.0 mph NE6.4 kmh NE 8.0 mph12.9 kmh 30.82 in1043.7 mb 0.00 in0.0 mm 0.00 in0.0 mm 0.00 in0.0 mm
09:40 AM 27.4°F-2.6°C 16.8°F-8.4°C 64% 3.0 mph NE4.8 kmh NE 8.0 mph12.9 kmh 30.82 in1043.7 mb 0.00 in0.0 mm 0.00 in0.0 mm 0.00 in0.0 mm
09:41 AM 27.5°F-2.5°C 16.9°F-8.4°C 64% 3.0 mph NE4.8 kmh NE 8.0 mph12.9 kmh 30.82 in1043.7 mb 0.00 in0.0 mm 0.00 in0.0 mm 0.00 in0.0 mm
09:42 AM 27.4°F-2.6°C 16.8°F-8.4°C 64% 3.0 mph NE4.8 kmh NE 8.0 mph12.9 kmh 30.82 in1043.7 mb 0.00 in0.0 mm 0.00 in0.0 mm 0.00 in0.0 mm
09:43 AM 27.5°F-2.5°C 16.9°F-8.4°C 64% 4.0 mph NE6.4 kmh NE 8.0 mph12.9 kmh 30.82 in1043.7 mb 0.00 in0.0 mm 0.00 in0.0 mm 0.00 in0.0 mm
09:44 AM 27.5°F-2.5°C 16.9°F-8.4°C 64% 4.0 mph NE6.4 kmh NE 8.0 mph12.9 kmh 30.82 in1043.7 mb 0.00 in0.0 mm 0.00 in0.0 mm 0.00 in0.0 mm
09:45 AM 27.4°F-2.6°C 16.8°F-8.4°C 64% 4.0 mph NE6.4 kmh NE 8.0 mph12.9 kmh 30.82 in1043.7 mb 0.00 in0.0 mm 0.00 in0.0 mm 0.00 in0.0 mm
09:46 AM 27.5°F-2.5°C 16.9°F-8.4°C 64% 4.0 mph NNE6.4 kmh NNE 8.0 mph12.9 kmh 30.82 in1043.7 mb 0.00 in0.0 mm 0.00 in0.0 mm 0.00 in0.0 mm
09:47 AM 27.5°F-2.5°C 16.9°F-8.4°C 64% 3.0 mph NNE4.8 kmh NNE 8.0 mph12.9 kmh 30.82 in1043.7 mb 0.00 in0.0 mm 0.00 in0.0 mm 0.00 in0.0 mm
09:48 AM 27.5°F-2.5°C 16.9°F-8.4°C 64% 3.0 mph NNE4.8 kmh NNE 8.0 mph12.9 kmh 30.82 in1043.7 mb 0.00 in0.0 mm 0.00 in0.0 mm 0.00 in0.0 mm
09:49 AM 27.5°F-2.5°C 16.9°F-8.4°C 64% 3.0 mph NE4.8 kmh NE 8.0 mph12.9 kmh 30.82 in1043.7 mb 0.00 in0.0 mm 0.00 in0.0 mm 0.00 in0.0 mm
09:50 AM 27.5°F-2.5°C 16.5°F-8.6°C 63% 4.0 mph NE6.4 kmh NE 8.0 mph12.9 kmh 30.82 in1043.7 mb 0.00 in0.0 mm 0.00 in0.0 mm 0.00 in0.0 mm
09:51 AM 27.5°F-2.5°C 16.9°F-8.4°C 64% 4.0 mph NE6.4 kmh NE 8.0 mph12.9 kmh 30.82 in1043.7 mb 0.00 in0.0 mm 0.00 in0.0 mm 0.00 in0.0 mm
09:52 AM 27.5°F-2.5°C 16.5°F-8.6°C 63% 3.0 mph NE4.8 kmh NE 8.0 mph12.9 kmh 30.82 in1043.7 mb 0.00 in0.0 mm 0.00 in0.0 mm 0.00 in0.0 mm
09:53 AM 27.5°F-2.5°C 16.5°F-8.6°C 63% 3.0 mph NE4.8 kmh NE 8.0 mph12.9 kmh 30.82 in1043.7 mb 0.00 in0.0 mm 0.00 in0.0 mm 0.00 in0.0 mm
09:54 AM 27.5°F-2.5°C 16.9°F-8.4°C 64% 3.0 mph NE4.8 kmh NE 7.0 mph11.3 kmh 30.82 in1043.7 mb 0.00 in0.0 mm 0.00 in0.0 mm 0.00 in0.0 mm
09:55 AM 27.5°F-2.5°C 16.5°F-8.6°C 63% 3.0 mph NE4.8 kmh NE 7.0 mph11.3 kmh 30.82 in1043.7 mb 0.00 in0.0 mm 0.00 in0.0 mm 0.00 in0.0 mm
09:56 AM 27.6°F-2.4°C 17.0°F-8.3°C 64% 3.0 mph NE4.8 kmh NE 7.0 mph11.3 kmh 30.83 in1044.0 mb 0.00 in0.0 mm 0.00 in0.0 mm 0.00 in0.0 mm
09:57 AM 27.6°F-2.4°C 17.0°F-8.3°C 64% 3.0 mph NE4.8 kmh NE 7.0 mph11.3 kmh 30.83 in1044.0 mb 0.00 in0.0 mm 0.00 in0.0 mm 0.00 in0.0 mm
09:58 AM 27.6°F-2.4°C 17.0°F-8.3°C 64% 3.0 mph NE4.8 kmh NE 7.0 mph11.3 kmh 30.83 in1044.0 mb 0.00 in0.0 mm 0.00 in0.0 mm 0.00 in0.0 mm
09:59 AM 27.6°F-2.4°C 16.6°F-8.6°C 63% 3.0 mph NNE4.8 kmh NNE 7.0 mph11.3 kmh 30.83 in1044.0 mb 0.00 in0.0 mm 0.00 in0.0 mm 0.00 in0.0 mm
10:00 AM 27.7°F-2.4°C 17.1°F-8.3°C 64% 2.0 mph N3.2 kmh N 7.0 mph11.3 kmh 30.83 in1044.0 mb 0.00 in0.0 mm 0.00 in0.0 mm 0.00 in0.0 mm
10:01 AM 27.7°F-2.4°C 17.1°F-8.3°C 64% 2.0 mph N3.2 kmh N 8.0 mph12.9 kmh 30.83 in1044.0 mb 0.00 in0.0 mm 0.00 in0.0 mm 0.00 in0.0 mm
10:02 AM 27.8°F-2.3°C 16.8°F-8.4°C 63% 3.0 mph N4.8 kmh N 8.0 mph12.9 kmh 30.83 in1044.0 mb 0.00 in0.0 mm 0.00 in0.0 mm 0.00 in0.0 mm
10:03 AM 27.8°F-2.3°C 16.8°F-8.4°C 63% 3.0 mph N4.8 kmh N 8.0 mph12.9 kmh 30.83 in1044.0 mb 0.00 in0.0 mm 0.00 in0.0 mm 0.00 in0.0 mm
10:04 AM 27.8°F-2.3°C 16.8°F-8.4°C 63% 3.0 mph N4.8 kmh N 8.0 mph12.9 kmh 30.83 in1044.0 mb 0.00 in0.0 mm 0.00 in0.0 mm 0.00 in0.0 mm
10:05 AM 27.8°F-2.3°C 16.8°F-8.4°C 63% 3.0 mph N4.8 kmh N 8.0 mph12.9 kmh 30.83 in1044.0 mb 0.00 in0.0 mm 0.00 in0.0 mm 0.00 in0.0 mm
10:06 AM 27.8°F-2.3°C 16.8°F-8.4°C 63% 3.0 mph N4.8 kmh N 8.0 mph12.9 kmh 30.83 in1044.0 mb 0.00 in0.0 mm 0.00 in0.0 mm 0.00 in0.0 mm
10:07 AM 27.8°F-2.3°C 16.8°F-8.4°C 63% 3.0 mph N4.8 kmh N 8.0 mph12.9 kmh 30.83 in1044.0 mb 0.00 in0.0 mm 0.00 in0.0 mm 0.00 in0.0 mm
10:08 AM 27.9°F-2.3°C 16.9°F-8.4°C 63% 3.0 mph NNE4.8 kmh NNE 8.0 mph12.9 kmh 30.83 in1044.0 mb 0.00 in0.0 mm 0.00 in0.0 mm 0.00 in0.0 mm
10:09 AM 27.9°F-2.3°C 16.9°F-8.4°C 63% 3.0 mph NNE4.8 kmh NNE 8.0 mph12.9 kmh 30.83 in1044.0 mb 0.00 in0.0 mm 0.00 in0.0 mm 0.00 in0.0 mm
10:10 AM 27.9°F-2.3°C 16.6°F-8.6°C 62% 4.0 mph NNE6.4 kmh NNE 8.0 mph12.9 kmh 30.83 in1044.0 mb 0.00 in0.0 mm 0.00 in0.0 mm 0.00 in0.0 mm
10:11 AM 27.9°F-2.3°C 16.9°F-8.4°C 63% 4.0 mph NNE6.4 kmh NNE 7.0 mph11.3 kmh 30.83 in1044.0 mb 0.00 in0.0 mm 0.00 in0.0 mm 0.00 in0.0 mm
10:12 AM 28.0°F-2.2°C 17.0°F-8.3°C 63% 3.0 mph NNE4.8 kmh NNE 7.0 mph11.3 kmh 30.83 in1044.0 mb 0.00 in0.0 mm 0.00 in0.0 mm 0.00 in0.0 mm
10:13 AM 28.0°F-2.2°C 17.0°F-8.3°C 63% 3.0 mph NNE4.8 kmh NNE 7.0 mph11.3 kmh 30.83 in1044.0 mb 0.00 in0.0 mm 0.00 in0.0 mm 0.00 in0.0 mm
10:14 AM 28.1°F-2.2°C 17.1°F-8.3°C 63% 3.0 mph N4.8 kmh N 7.0 mph11.3 kmh 30.83 in1044.0 mb 0.00 in0.0 mm 0.00 in0.0 mm 0.00 in0.0 mm
10:15 AM 28.2°F-2.1°C 17.2°F-8.2°C 63% 3.0 mph NNE4.8 kmh NNE 7.0 mph11.3 kmh 30.83 in1044.0 mb 0.00 in0.0 mm 0.00 in0.0 mm 0.00 in0.0 mm
10:16 AM 28.3°F-2.1°C 17.3°F-8.2°C 63% 3.0 mph NNE4.8 kmh NNE 7.0 mph11.3 kmh 30.83 in1044.0 mb 0.00 in0.0 mm 0.00 in0.0 mm 0.00 in0.0 mm
10:17 AM 28.4°F-2.0°C 17.4°F-8.1°C 63% 3.0 mph N4.8 kmh N 7.0 mph11.3 kmh 30.83 in1044.0 mb 0.00 in0.0 mm 0.00 in0.0 mm 0.00 in0.0 mm
10:18 AM 28.5°F-1.9°C 17.5°F-8.1°C 63% 3.0 mph N4.8 kmh N 6.0 mph9.7 kmh 30.83 in1044.0 mb 0.00 in0.0 mm 0.00 in0.0 mm 0.00 in0.0 mm
10:19 AM 28.5°F-1.9°C 17.1°F-8.3°C 62% 3.0 mph N4.8 kmh N 6.0 mph9.7 kmh 30.83 in1044.0 mb 0.00 in0.0 mm 0.00 in0.0 mm 0.00 in0.0 mm
10:20 AM 28.6°F-1.9°C 17.2°F-8.2°C 62% 3.0 mph N4.8 kmh N 6.0 mph9.7 kmh 30.83 in1044.0 mb 0.00 in0.0 mm 0.00 in0.0 mm 0.00 in0.0 mm
10:21 AM 28.7°F-1.8°C 17.3°F-8.2°C 62% 2.0 mph NNE3.2 kmh NNE 6.0 mph9.7 kmh 30.83 in1044.0 mb 0.00 in0.0 mm 0.00 in0.0 mm 0.00 in0.0 mm
10:22 AM 28.8°F-1.8°C 17.4°F-8.1°C 62% 2.0 mph NNE3.2 kmh NNE 7.0 mph11.3 kmh 30.83 in1044.0 mb 0.00 in0.0 mm 0.00 in0.0 mm 0.00 in0.0 mm
10:23 AM 28.8°F-1.8°C 17.4°F-8.1°C 62% 3.0 mph NNE4.8 kmh NNE 7.0 mph11.3 kmh 30.83 in1044.0 mb 0.00 in0.0 mm 0.00 in0.0 mm 0.00 in0.0 mm
10:24 AM 28.9°F-1.7°C 17.5°F-8.1°C 62% 3.0 mph NNE4.8 kmh NNE 7.0 mph11.3 kmh 30.83 in1044.0 mb 0.00 in0.0 mm 0.00 in0.0 mm 0.00 in0.0 mm
10:25 AM 28.9°F-1.7°C 17.5°F-8.1°C 62% 3.0 mph NNE4.8 kmh NNE 7.0 mph11.3 kmh 30.83 in1044.0 mb 0.00 in0.0 mm 0.00 in0.0 mm 0.00 in0.0 mm
10:26 AM 29.0°F-1.7°C 17.6°F-8.0°C 62% 3.0 mph NE4.8 kmh NE 7.0 mph11.3 kmh 30.82 in1043.7 mb 0.00 in0.0 mm 0.00 in0.0 mm 0.00 in0.0 mm
10:27 AM 29.1°F-1.6°C 17.7°F-7.9°C 62% 2.0 mph NE3.2 kmh NE 7.0 mph11.3 kmh 30.82 in1043.7 mb 0.00 in0.0 mm 0.00 in0.0 mm 0.00 in0.0 mm
10:28 AM 29.2°F-1.6°C 17.8°F-7.9°C 62% 2.0 mph NE3.2 kmh NE 7.0 mph11.3 kmh 30.82 in1043.7 mb 0.00 in0.0 mm 0.00 in0.0 mm 0.00 in0.0 mm
10:29 AM 29.3°F-1.5°C 17.9°F-7.8°C 62% 2.0 mph NE3.2 kmh NE 7.0 mph11.3 kmh 30.82 in1043.7 mb 0.00 in0.0 mm 0.00 in0.0 mm 0.00 in0.0 mm
10:30 AM 29.4°F-1.4°C 18.0°F-7.8°C 62% 2.0 mph NE3.2 kmh NE 7.0 mph11.3 kmh 30.82 in1043.7 mb 0.00 in0.0 mm 0.00 in0.0 mm 0.00 in0.0 mm
10:31 AM 29.5°F-1.4°C 18.1°F-7.7°C 62% 2.0 mph NE3.2 kmh NE 7.0 mph11.3 kmh 30.82 in1043.7 mb 0.00 in0.0 mm 0.00 in0.0 mm 0.00 in0.0 mm
10:32 AM 29.6°F-1.3°C 17.8°F-7.9°C 61% 2.0 mph NE3.2 kmh NE 9.0 mph14.5 kmh 30.82 in1043.7 mb 0.00 in0.0 mm 0.00 in0.0 mm 0.00 in0.0 mm
10:33 AM 29.7°F-1.3°C 17.5°F-8.1°C 60% 2.0 mph NE3.2 kmh NE 10.0 mph16.1 kmh 30.82 in1043.7 mb 0.00 in0.0 mm 0.00 in0.0 mm 0.00 in0.0 mm
10:34 AM 29.7°F-1.3°C 17.5°F-8.1°C 60% 2.0 mph NE3.2 kmh NE 10.0 mph16.1 kmh 30.82 in1043.7 mb 0.00 in0.0 mm 0.00 in0.0 mm 0.00 in0.0 mm
10:35 AM 29.8°F-1.2°C 17.6°F-8.0°C 60% 2.0 mph NE3.2 kmh NE 10.0 mph16.1 kmh 30.82 in1043.7 mb 0.00 in0.0 mm 0.00 in0.0 mm 0.00 in0.0 mm
10:36 AM 29.8°F-1.2°C 18.0°F-7.8°C 61% 2.0 mph NE3.2 kmh NE 10.0 mph16.1 kmh 30.82 in1043.7 mb 0.00 in0.0 mm 0.00 in0.0 mm 0.00 in0.0 mm
10:37 AM 29.9°F-1.2°C 18.1°F-7.7°C 61% 2.0 mph NE3.2 kmh NE 10.0 mph16.1 kmh 30.82 in1043.7 mb 0.00 in0.0 mm 0.00 in0.0 mm 0.00 in0.0 mm
10:38 AM 30.0°F-1.1°C 18.2°F-7.7°C 61% 2.0 mph NE3.2 kmh NE 10.0 mph16.1 kmh 30.82 in1043.7 mb 0.00 in0.0 mm 0.00 in0.0 mm 0.00 in0.0 mm
10:39 AM 30.1°F-1.1°C 18.3°F-7.6°C 61% 2.0 mph NE3.2 kmh NE 10.0 mph16.1 kmh 30.82 in1043.7 mb 0.00 in0.0 mm 0.00 in0.0 mm 0.00 in0.0 mm
10:40 AM 30.1°F-1.1°C 17.9°F-7.8°C 60% 3.0 mph NE4.8 kmh NE 10.0 mph16.1 kmh 30.82 in1043.7 mb 0.00 in0.0 mm 0.00 in0.0 mm 0.00 in0.0 mm
10:41 AM 30.2°F-1.0°C 18.0°F-7.8°C 60% 3.0 mph NE4.8 kmh NE 10.0 mph16.1 kmh 30.82 in1043.7 mb 0.00 in0.0 mm 0.00 in0.0 mm 0.00 in0.0 mm
10:42 AM 30.2°F-1.0°C 18.0°F-7.8°C 60% 3.0 mph NE4.8 kmh NE 10.0 mph16.1 kmh 30.82 in1043.7 mb 0.00 in0.0 mm 0.00 in0.0 mm 0.00 in0.0 mm
10:43 AM 30.3°F-0.9°C 18.1°F-7.7°C 60% 3.0 mph NE4.8 kmh NE 7.0 mph11.3 kmh 30.82 in1043.7 mb 0.00 in0.0 mm 0.00 in0.0 mm 0.00 in0.0 mm
10:44 AM 30.3°F-0.9°C 18.1°F-7.7°C 60% 3.0 mph NE4.8 kmh NE 7.0 mph11.3 kmh 30.81 in1043.3 mb 0.00 in0.0 mm 0.00 in0.0 mm 0.00 in0.0 mm
10:45 AM 30.3°F-0.9°C 18.1°F-7.7°C 60% 3.0 mph NE4.8 kmh NE 7.0 mph11.3 kmh 30.81 in1043.3 mb 0.00 in0.0 mm 0.00 in0.0 mm 0.00 in0.0 mm
10:46 AM 30.4°F-0.9°C 18.2°F-7.7°C 60% 3.0 mph NE4.8 kmh NE 7.0 mph11.3 kmh 30.81 in1043.3 mb 0.00 in0.0 mm 0.00 in0.0 mm 0.00 in0.0 mm
10:47 AM 30.5°F-0.8°C 18.6°F-7.4°C 61% 3.0 mph NE4.8 kmh NE 7.0 mph11.3 kmh 30.81 in1043.3 mb 0.00 in0.0 mm 0.00 in0.0 mm 0.00 in0.0 mm
10:48 AM 30.6°F-0.8°C 18.3°F-7.6°C 60% 4.0 mph NE6.4 kmh NE 7.0 mph11.3 kmh 30.81 in1043.3 mb 0.00 in0.0 mm 0.00 in0.0 mm 0.00 in0.0 mm
10:49 AM 30.6°F-0.8°C 18.3°F-7.6°C 60% 4.0 mph NE6.4 kmh NE 7.0 mph11.3 kmh 30.81 in1043.3 mb 0.00 in0.0 mm 0.00 in0.0 mm 0.00 in0.0 mm
10:50 AM 30.6°F-0.8°C 18.3°F-7.6°C 60% 4.0 mph ENE6.4 kmh ENE 7.0 mph11.3 kmh 30.81 in1043.3 mb 0.00 in0.0 mm 0.00 in0.0 mm 0.00 in0.0 mm
10:51 AM 30.7°F-0.7°C 18.4°F-7.6°C 60% 4.0 mph ENE6.4 kmh ENE 7.0 mph11.3 kmh 30.81 in1043.3 mb 0.00 in0.0 mm 0.00 in0.0 mm 0.00 in0.0 mm
10:52 AM 30.7°F-0.7°C 18.4°F-7.6°C 60% 4.0 mph ENE6.4 kmh ENE 7.0 mph11.3 kmh 30.81 in1043.3 mb 0.00 in0.0 mm 0.00 in0.0 mm 0.00 in0.0 mm
10:53 AM 30.8°F-0.7°C 18.5°F-7.5°C 60% 3.0 mph E4.8 kmh E 7.0 mph11.3 kmh 30.81 in1043.3 mb 0.00 in0.0 mm 0.00 in0.0 mm 0.00 in0.0 mm
10:54 AM 30.9°F-0.6°C 18.6°F-7.4°C 60% 3.0 mph E4.8 kmh E 7.0 mph11.3 kmh 30.81 in1043.3 mb 0.00 in0.0 mm 0.00 in0.0 mm 0.00 in0.0 mm
10:55 AM 31.1°F-0.5°C 18.8°F-7.3°C 60% 3.0 mph E4.8 kmh E 7.0 mph11.3 kmh 30.81 in1043.3 mb 0.00 in0.0 mm 0.00 in0.0 mm 0.00 in0.0 mm
10:56 AM 31.1°F-0.5°C 18.8°F-7.3°C 60% 3.0 mph E4.8 kmh E 7.0 mph11.3 kmh 30.81 in1043.3 mb 0.00 in0.0 mm 0.00 in0.0 mm 0.00 in0.0 mm
10:57 AM 31.1°F-0.5°C 18.4°F-7.6°C 59% 2.0 mph ENE3.2 kmh ENE 7.0 mph11.3 kmh 30.81 in1043.3 mb 0.00 in0.0 mm 0.00 in0.0 mm 0.00 in0.0 mm
10:58 AM 31.2°F-0.4°C 18.5°F-7.5°C 59% 2.0 mph ENE3.2 kmh ENE 7.0 mph11.3 kmh 30.81 in1043.3 mb 0.00 in0.0 mm 0.00 in0.0 mm 0.00 in0.0 mm
10:59 AM 31.4°F-0.3°C 19.1°F-7.2°C 60% 2.0 mph ENE3.2 kmh ENE 7.0 mph11.3 kmh 30.81 in1043.3 mb 0.00 in0.0 mm 0.00 in0.0 mm 0.00 in0.0 mm
11:00 AM 31.5°F-0.3°C 18.8°F-7.3°C 59% 2.0 mph ENE3.2 kmh ENE 6.0 mph9.7 kmh 30.81 in1043.3 mb 0.00 in0.0 mm 0.00 in0.0 mm 0.00 in0.0 mm
11:01 AM 31.5°F-0.3°C 18.8°F-7.3°C 59% 1.0 mph NE1.6 kmh NE 5.0 mph8.0 kmh 30.81 in1043.3 mb 0.00 in0.0 mm 0.00 in0.0 mm 0.00 in0.0 mm
11:02 AM 31.6°F-0.2°C 18.9°F-7.3°C 59% 1.0 mph NE1.6 kmh NE 5.0 mph8.0 kmh 30.81 in1043.3 mb 0.00 in0.0 mm 0.00 in0.0 mm 0.00 in0.0 mm
11:03 AM 31.6°F-0.2°C 18.5°F-7.5°C 58% 1.0 mph NE1.6 kmh NE 6.0 mph9.7 kmh 30.81 in1043.3 mb 0.00 in0.0 mm 0.00 in0.0 mm 0.00 in0.0 mm
11:04 AM 31.6°F-0.2°C 18.9°F-7.3°C 59% 2.0 mph NE3.2 kmh NE 8.0 mph12.9 kmh 30.81 in1043.3 mb 0.00 in0.0 mm 0.00 in0.0 mm 0.00 in0.0 mm
11:05 AM 31.5°F-0.3°C 18.4°F-7.6°C 58% 2.0 mph NE3.2 kmh NE 9.0 mph14.5 kmh 30.81 in1043.3 mb 0.00 in0.0 mm 0.00 in0.0 mm 0.00 in0.0 mm
11:06 AM 31.4°F-0.3°C 17.9°F-7.8°C 57% 3.0 mph NE4.8 kmh NE 9.0 mph14.5 kmh 30.81 in1043.3 mb 0.00 in0.0 mm 0.00 in0.0 mm 0.00 in0.0 mm
11:07 AM 31.3°F-0.4°C 17.8°F-7.9°C 57% 3.0 mph NE4.8 kmh NE 9.0 mph14.5 kmh 30.81 in1043.3 mb 0.00 in0.0 mm 0.00 in0.0 mm 0.00 in0.0 mm
11:08 AM 31.2°F-0.4°C 17.7°F-7.9°C 57% 3.0 mph NE4.8 kmh NE 9.0 mph14.5 kmh 30.81 in1043.3 mb 0.00 in0.0 mm 0.00 in0.0 mm 0.00 in0.0 mm
11:09 AM 31.1°F-0.5°C 18.0°F-7.8°C 58% 3.0 mph NE4.8 kmh NE 9.0 mph14.5 kmh 30.81 in1043.3 mb 0.00 in0.0 mm 0.00 in0.0 mm 0.00 in0.0 mm
11:10 AM 31.0°F-0.6°C 17.9°F-7.8°C 58% 3.0 mph NE4.8 kmh NE 9.0 mph14.5 kmh 30.81 in1043.3 mb 0.00 in0.0 mm 0.00 in0.0 mm 0.00 in0.0 mm
11:11 AM 31.0°F-0.6°C 17.9°F-7.8°C 58% 3.0 mph NE4.8 kmh NE 9.0 mph14.5 kmh 30.81 in1043.3 mb 0.00 in0.0 mm 0.00 in0.0 mm 0.00 in0.0 mm
11:12 AM 30.9°F-0.6°C 17.8°F-7.9°C 58% 4.0 mph NE6.4 kmh NE 9.0 mph14.5 kmh 30.80 in1043.0 mb 0.00 in0.0 mm 0.00 in0.0 mm 0.00 in0.0 mm
11:13 AM 30.9°F-0.6°C 18.2°F-7.7°C 59% 4.0 mph NE6.4 kmh NE 9.0 mph14.5 kmh 30.80 in1043.0 mb 0.00 in0.0 mm 0.00 in0.0 mm 0.00 in0.0 mm
11:14 AM 30.9°F-0.6°C 18.2°F-7.7°C 59% 3.0 mph NE4.8 kmh NE 9.0 mph14.5 kmh 30.81 in1043.3 mb 0.00 in0.0 mm 0.00 in0.0 mm 0.00 in0.0 mm
11:15 AM 31.0°F-0.6°C 18.3°F-7.6°C 59% 3.0 mph NE4.8 kmh NE 8.0 mph12.9 kmh 30.81 in1043.3 mb 0.00 in0.0 mm 0.00 in0.0 mm 0.00 in0.0 mm
11:16 AM 31.0°F-0.6°C 18.3°F-7.6°C 59% 3.0 mph NE4.8 kmh NE 8.0 mph12.9 kmh 30.81 in1043.3 mb 0.00 in0.0 mm 0.00 in0.0 mm 0.00 in0.0 mm
11:17 AM 31.0°F-0.6°C 18.3°F-7.6°C 59% 3.0 mph ENE4.8 kmh ENE 8.0 mph12.9 kmh 30.81 in1043.3 mb 0.00 in0.0 mm 0.00 in0.0 mm 0.00 in0.0 mm
11:18 AM 31.0°F-0.6°C 18.3°F-7.6°C 59% 3.0 mph ENE4.8 kmh ENE 8.0 mph12.9 kmh 30.81 in1043.3 mb 0.00 in0.0 mm 0.00 in0.0 mm 0.00 in0.0 mm
11:19 AM 31.0°F-0.6°C 18.3°F-7.6°C 59% 4.0 mph ENE6.4 kmh ENE 8.0 mph12.9 kmh 30.81 in1043.3 mb 0.00 in0.0 mm 0.00 in0.0 mm 0.00 in0.0 mm
11:20 AM 31.1°F-0.5°C 18.8°F-7.3°C 60% 4.0 mph ENE6.4 kmh ENE 8.0 mph12.9 kmh 30.80 in1043.0 mb 0.00 in0.0 mm 0.00 in0.0 mm 0.00 in0.0 mm
11:21 AM 31.1°F-0.5°C 18.4°F-7.6°C 59% 3.0 mph ENE4.8 kmh ENE 8.0 mph12.9 kmh 30.80 in1043.0 mb 0.00 in0.0 mm 0.00 in0.0 mm 0.00 in0.0 mm
11:22 AM 31.2°F-0.4°C 18.9°F-7.3°C 60% 3.0 mph ENE4.8 kmh ENE 8.0 mph12.9 kmh 30.80 in1043.0 mb 0.00 in0.0 mm 0.00 in0.0 mm 0.00 in0.0 mm
11:23 AM 31.4°F-0.3°C 19.1°F-7.2°C 60% 3.0 mph ENE4.8 kmh ENE 8.0 mph12.9 kmh 30.80 in1043.0 mb 0.00 in0.0 mm 0.00 in0.0 mm 0.00 in0.0 mm
11:24 AM 31.4°F-0.3°C 19.1°F-7.2°C 60% 3.0 mph ENE4.8 kmh ENE 8.0 mph12.9 kmh 30.80 in1043.0 mb 0.00 in0.0 mm 0.00 in0.0 mm 0.00 in0.0 mm
11:25 AM 31.5°F-0.3°C 19.2°F-7.1°C 60% 3.0 mph ENE4.8 kmh ENE 7.0 mph11.3 kmh 30.80 in1043.0 mb 0.00 in0.0 mm 0.00 in0.0 mm 0.00 in0.0 mm
11:26 AM 31.5°F-0.3°C 19.2°F-7.1°C 60% 3.0 mph NE4.8 kmh NE 7.0 mph11.3 kmh 30.80 in1043.0 mb 0.00 in0.0 mm 0.00 in0.0 mm 0.00 in0.0 mm
11:27 AM 31.5°F-0.3°C 18.8°F-7.3°C 59% 3.0 mph NE4.8 kmh NE 7.0 mph11.3 kmh 30.80 in1043.0 mb 0.00 in0.0 mm 0.00 in0.0 mm 0.00 in0.0 mm
11:28 AM 31.6°F-0.2°C 18.9°F-7.3°C 59% 3.0 mph NE4.8 kmh NE 7.0 mph11.3 kmh 30.80 in1043.0 mb 0.00 in0.0 mm 0.00 in0.0 mm 0.00 in0.0 mm
11:29 AM 31.5°F-0.3°C 18.8°F-7.3°C 59% 2.0 mph NE3.2 kmh NE 6.0 mph9.7 kmh 30.80 in1043.0 mb 0.00 in0.0 mm 0.00 in0.0 mm 0.00 in0.0 mm
11:30 AM 31.5°F-0.3°C 18.8°F-7.3°C 59% 3.0 mph NE4.8 kmh NE 7.0 mph11.3 kmh 30.80 in1043.0 mb 0.00 in0.0 mm 0.00 in0.0 mm 0.00 in0.0 mm
11:31 AM 31.5°F-0.3°C 18.8°F-7.3°C 59% 3.0 mph NE4.8 kmh NE 7.0 mph11.3 kmh 30.80 in1043.0 mb 0.00 in0.0 mm 0.00 in0.0 mm 0.00 in0.0 mm
11:32 AM 31.5°F-0.3°C 18.8°F-7.3°C 59% 3.0 mph NE4.8 kmh NE 7.0 mph11.3 kmh 30.80 in1043.0 mb 0.00 in0.0 mm 0.00 in0.0 mm 0.00 in0.0 mm
11:33 AM 31.5°F-0.3°C 18.8°F-7.3°C 59% 3.0 mph NE4.8 kmh NE 7.0 mph11.3 kmh 30.80 in1043.0 mb 0.00 in0.0 mm 0.00 in0.0 mm 0.00 in0.0 mm
11:34 AM 31.5°F-0.3°C 18.8°F-7.3°C 59% 3.0 mph NE4.8 kmh NE 7.0 mph11.3 kmh 30.80 in1043.0 mb 0.00 in0.0 mm 0.00 in0.0 mm 0.00 in0.0 mm
11:35 AM 31.5°F-0.3°C 18.8°F-7.3°C 59% 3.0 mph NE4.8 kmh NE 7.0 mph11.3 kmh 30.80 in1043.0 mb 0.00 in0.0 mm 0.00 in0.0 mm 0.00 in0.0 mm
11:36 AM 31.5°F-0.3°C 18.8°F-7.3°C 59% 3.0 mph NE4.8 kmh NE 7.0 mph11.3 kmh 30.80 in1043.0 mb 0.00 in0.0 mm 0.00 in0.0 mm 0.00 in0.0 mm
11:37 AM 31.6°F-0.2°C 18.9°F-7.3°C 59% 3.0 mph NE4.8 kmh NE 7.0 mph11.3 kmh 30.80 in1043.0 mb 0.00 in0.0 mm 0.00 in0.0 mm 0.00 in0.0 mm
11:38 AM 31.7°F-0.2°C 19.0°F-7.2°C 59% 3.0 mph NE4.8 kmh NE 7.0 mph11.3 kmh 30.80 in1043.0 mb 0.00 in0.0 mm 0.00 in0.0 mm 0.00 in0.0 mm
11:39 AM 31.7°F-0.2°C 19.0°F-7.2°C 59% 3.0 mph NE4.8 kmh NE 7.0 mph11.3 kmh 30.80 in1043.0 mb 0.00 in0.0 mm 0.00 in0.0 mm 0.00 in0.0 mm
11:40 AM 31.8°F-0.1°C 19.1°F-7.2°C 59% 3.0 mph NE4.8 kmh NE 7.0 mph11.3 kmh 30.80 in1043.0 mb 0.00 in0.0 mm 0.00 in0.0 mm 0.00 in0.0 mm
11:41 AM 31.9°F-0.1°C 19.6°F-6.9°C 60% 3.0 mph NE4.8 kmh NE 7.0 mph11.3 kmh 30.80 in1043.0 mb 0.00 in0.0 mm 0.00 in0.0 mm 0.00 in0.0 mm
11:42 AM 31.9°F-0.1°C 19.2°F-7.1°C 59% 3.0 mph NE4.8 kmh NE 7.0 mph11.3 kmh 30.80 in1043.0 mb 0.00 in0.0 mm 0.00 in0.0 mm 0.00 in0.0 mm
11:43 AM 31.9°F-0.1°C 19.2°F-7.1°C 59% 3.0 mph NE4.8 kmh NE 7.0 mph11.3 kmh 30.80 in1043.0 mb 0.00 in0.0 mm 0.00 in0.0 mm 0.00 in0.0 mm
11:44 AM 31.9°F-0.1°C 19.2°F-7.1°C 59% 3.0 mph NE4.8 kmh NE 7.0 mph11.3 kmh 30.80 in1043.0 mb 0.00 in0.0 mm 0.00 in0.0 mm 0.00 in0.0 mm
11:45 AM 31.9°F-0.1°C 18.8°F-7.3°C 58% 3.0 mph NE4.8 kmh NE 7.0 mph11.3 kmh 30.80 in1043.0 mb 0.00 in0.0 mm 0.00 in0.0 mm 0.00 in0.0 mm
11:46 AM 31.9°F-0.1°C 19.2°F-7.1°C 59% 3.0 mph NE4.8 kmh NE 7.0 mph11.3 kmh 30.80 in1043.0 mb 0.00 in0.0 mm 0.00 in0.0 mm 0.00 in0.0 mm
11:47 AM 31.9°F-0.1°C 19.2°F-7.1°C 59% 3.0 mph NE4.8 kmh NE 7.0 mph11.3 kmh 30.79 in1042.7 mb 0.00 in0.0 mm 0.00 in0.0 mm 0.00 in0.0 mm
11:48 AM 31.9°F-0.1°C 19.2°F-7.1°C 59% 3.0 mph NE4.8 kmh NE 7.0 mph11.3 kmh 30.80 in1043.0 mb 0.00 in0.0 mm 0.00 in0.0 mm 0.00 in0.0 mm
11:49 AM 31.9°F-0.1°C 18.8°F-7.3°C 58% 2.0 mph NE3.2 kmh NE 7.0 mph11.3 kmh 30.79 in1042.7 mb 0.00 in0.0 mm 0.00 in0.0 mm 0.00 in0.0 mm
11:50 AM 31.9°F-0.1°C 18.8°F-7.3°C 58% 2.0 mph NE3.2 kmh NE 7.0 mph11.3 kmh 30.79 in1042.7 mb 0.00 in0.0 mm 0.00 in0.0 mm 0.00 in0.0 mm
11:51 AM 31.9°F-0.1°C 19.2°F-7.1°C 59% 2.0 mph NE3.2 kmh NE 7.0 mph11.3 kmh 30.79 in1042.7 mb 0.00 in0.0 mm 0.00 in0.0 mm 0.00 in0.0 mm
11:52 AM 32.0°F0.0°C 19.7°F-6.8°C 60% 2.0 mph NE3.2 kmh NE 7.0 mph11.3 kmh 30.79 in1042.7 mb 0.00 in0.0 mm 0.00 in0.0 mm 0.00 in0.0 mm
11:53 AM 32.0°F0.0°C 19.3°F-7.1°C 59% 2.0 mph NE3.2 kmh NE 6.0 mph9.7 kmh 30.79 in1042.7 mb 0.00 in0.0 mm 0.00 in0.0 mm 0.00 in0.0 mm
11:54 AM 32.1°F0.1°C 19.8°F-6.8°C 60% 2.0 mph NE3.2 kmh NE 6.0 mph9.7 kmh 30.79 in1042.7 mb 0.00 in0.0 mm 0.00 in0.0 mm 0.00 in0.0 mm
11:55 AM 32.1°F0.1°C 19.4°F-7.0°C 59% 2.0 mph NE3.2 kmh NE 6.0 mph9.7 kmh 30.79 in1042.7 mb 0.00 in0.0 mm 0.00 in0.0 mm 0.00 in0.0 mm
11:56 AM 32.1°F0.1°C 19.4°F-7.0°C 59% 2.0 mph NE3.2 kmh NE 6.0 mph9.7 kmh 30.79 in1042.7 mb 0.00 in0.0 mm 0.00 in0.0 mm 0.00 in0.0 mm
11:57 AM 32.1°F0.1°C 19.4°F-7.0°C 59% 2.0 mph NE3.2 kmh NE 6.0 mph9.7 kmh 30.79 in1042.7 mb 0.00 in0.0 mm 0.00 in0.0 mm 0.00 in0.0 mm
11:58 AM 32.2°F0.1°C 19.5°F-6.9°C 59% 2.0 mph ENE3.2 kmh ENE 6.0 mph9.7 kmh 30.79 in1042.7 mb 0.00 in0.0 mm 0.00 in0.0 mm 0.00 in0.0 mm
11:59 AM 32.3°F0.2°C 20.0°F-6.7°C 60% 2.0 mph ENE3.2 kmh ENE 7.0 mph11.3 kmh 30.79 in1042.7 mb 0.00 in0.0 mm 0.00 in0.0 mm 0.00 in0.0 mm
12:00 PM 32.3°F0.2°C 20.0°F-6.7°C 60% 2.0 mph ENE3.2 kmh ENE 7.0 mph11.3 kmh 30.79 in1042.7 mb 0.00 in0.0 mm 0.00 in0.0 mm 0.00 in0.0 mm
12:01 PM 32.4°F0.2°C 19.7°F-6.8°C 59% 3.0 mph ENE4.8 kmh ENE 7.0 mph11.3 kmh 30.79 in1042.7 mb 0.00 in0.0 mm 0.00 in0.0 mm 0.00 in0.0 mm
12:02 PM 32.4°F0.2°C 19.7°F-6.8°C 59% 3.0 mph ENE4.8 kmh ENE 7.0 mph11.3 kmh 30.79 in1042.7 mb 0.00 in0.0 mm 0.00 in0.0 mm 0.00 in0.0 mm
12:03 PM 32.4°F0.2°C 19.7°F-6.8°C 59% 2.0 mph ENE3.2 kmh ENE 7.0 mph11.3 kmh 30.79 in1042.7 mb 0.00 in0.0 mm 0.00 in0.0 mm 0.00 in0.0 mm
12:04 PM 32.4°F0.2°C 19.3°F-7.1°C 58% 2.0 mph NE3.2 kmh NE 7.0 mph11.3 kmh 30.79 in1042.7 mb 0.00 in0.0 mm 0.00 in0.0 mm 0.00 in0.0 mm
12:05 PM 32.4°F0.2°C 19.7°F-6.8°C 59% 2.0 mph NE3.2 kmh NE 7.0 mph11.3 kmh 30.79 in1042.7 mb 0.00 in0.0 mm 0.00 in0.0 mm 0.00 in0.0 mm
12:06 PM 32.4°F0.2°C 19.7°F-6.8°C 59% 2.0 mph NE3.2 kmh NE 7.0 mph11.3 kmh 30.79 in1042.7 mb 0.00 in0.0 mm 0.00 in0.0 mm 0.00 in0.0 mm
12:07 PM 32.4°F0.2°C 19.7°F-6.8°C 59% 2.0 mph NE3.2 kmh NE 7.0 mph11.3 kmh 30.79 in1042.7 mb 0.00 in0.0 mm 0.00 in0.0 mm 0.00 in0.0 mm
12:08 PM 32.4°F0.2°C 19.7°F-6.8°C 59% 3.0 mph ENE4.8 kmh ENE 7.0 mph11.3 kmh 30.79 in1042.7 mb 0.00 in0.0 mm 0.00 in0.0 mm 0.00 in0.0 mm
12:09 PM 32.5°F0.3°C 19.3°F-7.1°C 58% 3.0 mph ENE4.8 kmh ENE 7.0 mph11.3 kmh 30.79 in1042.7 mb 0.00 in0.0 mm 0.00 in0.0 mm 0.00 in0.0 mm
12:10 PM 32.5°F0.3°C 19.3°F-7.1°C 58% 3.0 mph ENE4.8 kmh ENE 7.0 mph11.3 kmh 30.79 in1042.7 mb 0.00 in0.0 mm 0.00 in0.0 mm 0.00 in0.0 mm
12:11 PM 32.5°F0.3°C 19.3°F-7.1°C 58% 3.0 mph ENE4.8 kmh ENE 7.0 mph11.3 kmh 30.79 in1042.7 mb 0.00 in0.0 mm 0.00 in0.0 mm 0.00 in0.0 mm
12:12 PM 32.6°F0.3°C 19.8°F-6.8°C 59% 3.0 mph ENE4.8 kmh ENE 7.0 mph11.3 kmh 30.79 in1042.7 mb 0.00 in0.0 mm 0.00 in0.0 mm 0.00 in0.0 mm
12:13 PM 32.6°F0.3°C 19.8°F-6.8°C 59% 3.0 mph E4.8 kmh E 7.0 mph11.3 kmh 30.80 in1043.0 mb 0.00 in0.0 mm 0.00 in0.0 mm 0.00 in0.0 mm
12:14 PM 32.7°F0.4°C 19.9°F-6.7°C 59% 3.0 mph E4.8 kmh E 7.0 mph11.3 kmh 30.80 in1043.0 mb 0.00 in0.0 mm 0.00 in0.0 mm 0.00 in0.0 mm
12:15 PM 32.7°F0.4°C 19.5°F-6.9°C 58% 3.0 mph E4.8 kmh E 7.0 mph11.3 kmh 30.79 in1042.7 mb 0.00 in0.0 mm 0.00 in0.0 mm 0.00 in0.0 mm
12:16 PM 32.7°F0.4°C 19.1°F-7.2°C 57% 4.0 mph E6.4 kmh E 7.0 mph11.3 kmh 30.79 in1042.7 mb 0.00 in0.0 mm 0.00 in0.0 mm 0.00 in0.0 mm
12:17 PM 32.7°F0.4°C 19.1°F-7.2°C 57% 4.0 mph ENE6.4 kmh ENE 7.0 mph11.3 kmh 30.79 in1042.7 mb 0.00 in0.0 mm 0.00 in0.0 mm 0.00 in0.0 mm
12:18 PM 32.6°F0.3°C 19.0°F-7.2°C 57% 3.0 mph ENE4.8 kmh ENE 7.0 mph11.3 kmh 30.79 in1042.7 mb 0.00 in0.0 mm 0.00 in0.0 mm 0.00 in0.0 mm
12:19 PM 32.6°F0.3°C 18.6°F-7.4°C 56% 3.0 mph ENE4.8 kmh ENE 7.0 mph11.3 kmh 30.79 in1042.7 mb 0.00 in0.0 mm 0.00 in0.0 mm 0.00 in0.0 mm
12:20 PM 32.6°F0.3°C 19.0°F-7.2°C 57% 3.0 mph ENE4.8 kmh ENE 7.0 mph11.3 kmh 30.80 in1043.0 mb 0.00 in0.0 mm 0.00 in0.0 mm 0.00 in0.0 mm
12:21 PM 32.6°F0.3°C 19.0°F-7.2°C 57% 3.0 mph ENE4.8 kmh ENE 7.0 mph11.3 kmh 30.80 in1043.0 mb 0.00 in0.0 mm 0.00 in0.0 mm 0.00 in0.0 mm
12:22 PM 32.6°F0.3°C 19.0°F-7.2°C 57% 4.0 mph ENE6.4 kmh ENE 7.0 mph11.3 kmh 30.80 in1043.0 mb 0.00 in0.0 mm 0.00 in0.0 mm 0.00 in0.0 mm
12:23 PM 32.6°F0.3°C 19.0°F-7.2°C 57% 4.0 mph ENE6.4 kmh ENE 7.0 mph11.3 kmh 30.80 in1043.0 mb 0.00 in0.0 mm 0.00 in0.0 mm 0.00 in0.0 mm
12:24 PM 32.7°F0.4°C 19.1°F-7.2°C 57% 3.0 mph ENE4.8 kmh ENE 7.0 mph11.3 kmh 30.80 in1043.0 mb 0.00 in0.0 mm 0.00 in0.0 mm 0.00 in0.0 mm
12:25 PM 32.7°F0.4°C 19.1°F-7.2°C 57% 3.0 mph ENE4.8 kmh ENE 7.0 mph11.3 kmh 30.79 in1042.7 mb 0.00 in0.0 mm 0.00 in0.0 mm 0.00 in0.0 mm
12:26 PM 32.8°F0.4°C 19.2°F-7.1°C 57% 3.0 mph ENE4.8 kmh ENE 7.0 mph11.3 kmh 30.80 in1043.0 mb 0.00 in0.0 mm 0.00 in0.0 mm 0.00 in0.0 mm
12:27 PM 32.9°F0.5°C 19.3°F-7.1°C 57% 3.0 mph ENE4.8 kmh ENE 7.0 mph11.3 kmh 30.80 in1043.0 mb 0.00 in0.0 mm 0.00 in0.0 mm 0.00 in0.0 mm
12:28 PM 32.9°F0.5°C 18.9°F-7.3°C 56% 3.0 mph E4.8 kmh E 7.0 mph11.3 kmh 30.80 in1043.0 mb 0.00 in0.0 mm 0.00 in0.0 mm 0.00 in0.0 mm
12:29 PM 32.9°F0.5°C 18.9°F-7.3°C 56% 3.0 mph E4.8 kmh E 7.0 mph11.3 kmh 30.80 in1043.0 mb 0.00 in0.0 mm 0.00 in0.0 mm 0.00 in0.0 mm
12:30 PM 33.0°F0.6°C 19.0°F-7.2°C 56% 3.0 mph E4.8 kmh E 7.0 mph11.3 kmh 30.79 in1042.7 mb 0.00 in0.0 mm 0.00 in0.0 mm 0.00 in0.0 mm
12:31 PM 33.0°F0.6°C 19.0°F-7.2°C 56% 2.0 mph E3.2 kmh E 7.0 mph11.3 kmh 30.79 in1042.7 mb 0.00 in0.0 mm 0.00 in0.0 mm 0.00 in0.0 mm
12:32 PM 33.0°F0.6°C 19.0°F-7.2°C 56% 2.0 mph E3.2 kmh E 8.0 mph12.9 kmh 30.79 in1042.7 mb 0.00 in0.0 mm 0.00 in0.0 mm 0.00 in0.0 mm
12:33 PM 33.0°F0.6°C 19.0°F-7.2°C 56% 2.0 mph ENE3.2 kmh ENE 8.0 mph12.9 kmh 30.79 in1042.7 mb 0.00 in0.0 mm 0.00 in0.0 mm 0.00 in0.0 mm
12:34 PM 33.1°F0.6°C 19.5°F-6.9°C 57% 2.0 mph ENE3.2 kmh ENE 8.0 mph12.9 kmh 30.79 in1042.7 mb 0.00 in0.0 mm 0.00 in0.0 mm 0.00 in0.0 mm
12:35 PM 33.1°F0.6°C 19.5°F-6.9°C 57% 3.0 mph ENE4.8 kmh ENE 8.0 mph12.9 kmh 30.79 in1042.7 mb 0.00 in0.0 mm 0.00 in0.0 mm 0.00 in0.0 mm
12:36 PM 33.1°F0.6°C 19.5°F-6.9°C 57% 3.0 mph ENE4.8 kmh ENE 8.0 mph12.9 kmh 30.79 in1042.7 mb 0.00 in0.0 mm 0.00 in0.0 mm 0.00 in0.0 mm
12:37 PM 33.1°F0.6°C 19.1°F-7.2°C 56% 3.0 mph ENE4.8 kmh ENE 8.0 mph12.9 kmh 30.79 in1042.7 mb 0.00 in0.0 mm 0.00 in0.0 mm 0.00 in0.0 mm
12:38 PM 33.1°F0.6°C 19.1°F-7.2°C 56% 3.0 mph NE4.8 kmh NE 8.0 mph12.9 kmh 30.79 in1042.7 mb 0.00 in0.0 mm 0.00 in0.0 mm 0.00 in0.0 mm
12:39 PM 33.2°F0.7°C 19.2°F-7.1°C 56% 3.0 mph NE4.8 kmh NE 8.0 mph12.9 kmh 30.79 in1042.7 mb 0.00 in0.0 mm 0.00 in0.0 mm 0.00 in0.0 mm
12:40 PM 33.2°F0.7°C 19.2°F-7.1°C 56% 3.0 mph NE4.8 kmh NE 8.0 mph12.9 kmh 30.79 in1042.7 mb 0.00 in0.0 mm 0.00 in0.0 mm 0.00 in0.0 mm
12:41 PM 33.2°F0.7°C 19.2°F-7.1°C 56% 4.0 mph NE6.4 kmh NE 8.0 mph12.9 kmh 30.79 in1042.7 mb 0.00 in0.0 mm 0.00 in0.0 mm 0.00 in0.0 mm
12:42 PM 33.2°F0.7°C 19.2°F-7.1°C 56% 4.0 mph NE6.4 kmh NE 7.0 mph11.3 kmh 30.79 in1042.7 mb 0.00 in0.0 mm 0.00 in0.0 mm 0.00 in0.0 mm
12:43 PM 33.3°F0.7°C 19.3°F-7.1°C 56% 3.0 mph NE4.8 kmh NE 6.0 mph9.7 kmh 30.79 in1042.7 mb 0.00 in0.0 mm 0.00 in0.0 mm 0.00 in0.0 mm
12:44 PM 33.3°F0.7°C 19.7°F-6.8°C 57% 3.0 mph NE4.8 kmh NE 6.0 mph9.7 kmh 30.79 in1042.7 mb 0.00 in0.0 mm 0.00 in0.0 mm 0.00 in0.0 mm
12:45 PM 33.4°F0.8°C 19.8°F-6.8°C 57% 3.0 mph NE4.8 kmh NE 6.0 mph9.7 kmh 30.79 in1042.7 mb 0.00 in0.0 mm 0.00 in0.0 mm 0.00 in0.0 mm
12:46 PM 33.5°F0.8°C 19.9°F-6.7°C 57% 3.0 mph NE4.8 kmh NE 6.0 mph9.7 kmh 30.79 in1042.7 mb 0.00 in0.0 mm 0.00 in0.0 mm 0.00 in0.0 mm
12:47 PM 33.5°F0.8°C 19.9°F-6.7°C 57% 3.0 mph NE4.8 kmh NE 6.0 mph9.7 kmh 30.79 in1042.7 mb 0.00 in0.0 mm 0.00 in0.0 mm 0.00 in0.0 mm
12:48 PM 33.5°F0.8°C 19.5°F-6.9°C 56% 3.0 mph NE4.8 kmh NE 6.0 mph9.7 kmh 30.79 in1042.7 mb 0.00 in0.0 mm 0.00 in0.0 mm 0.00 in0.0 mm
12:49 PM 33.6°F0.9°C 19.1°F-7.2°C 55% 2.0 mph ENE3.2 kmh ENE 6.0 mph9.7 kmh 30.79 in1042.7 mb 0.00 in0.0 mm 0.00 in0.0 mm 0.00 in0.0 mm
12:50 PM 33.7°F0.9°C 19.7°F-6.8°C 56% 2.0 mph E3.2 kmh E 6.0 mph9.7 kmh 30.79 in1042.7 mb 0.00 in0.0 mm 0.00 in0.0 mm 0.00 in0.0 mm
12:51 PM 33.8°F1.0°C 19.7°F-6.8°C 56% 2.0 mph E3.2 kmh E 6.0 mph9.7 kmh 30.79 in1042.7 mb 0.00 in0.0 mm 0.00 in0.0 mm 0.00 in0.0 mm
12:52 PM 33.9°F1.1°C 19.4°F-7.0°C 55% 2.0 mph E3.2 kmh E 5.0 mph8.0 kmh 30.79 in1042.7 mb 0.00 in0.0 mm 0.00 in0.0 mm 0.00 in0.0 mm
12:53 PM 33.9°F1.1°C 19.4°F-7.0°C 55% 2.0 mph E3.2 kmh E 5.0 mph8.0 kmh 30.78 in1042.3 mb 0.00 in0.0 mm 0.00 in0.0 mm 0.00 in0.0 mm
12:54 PM 34.0°F1.1°C 19.9°F-6.7°C 56% 2.0 mph E3.2 kmh E 7.0 mph11.3 kmh 30.79 in1042.7 mb 0.00 in0.0 mm 0.00 in0.0 mm 0.00 in0.0 mm
12:55 PM 34.0°F1.1°C 19.9°F-6.7°C 56% 2.0 mph E3.2 kmh E 7.0 mph11.3 kmh 30.78 in1042.3 mb 0.00 in0.0 mm 0.00 in0.0 mm 0.00 in0.0 mm
12:56 PM 34.1°F1.2°C 20.0°F-6.7°C 56% 2.0 mph E3.2 kmh E 7.0 mph11.3 kmh 30.78 in1042.3 mb 0.00 in0.0 mm 0.00 in0.0 mm 0.00 in0.0 mm
12:57 PM 34.1°F1.2°C 20.0°F-6.7°C 56% 2.0 mph E3.2 kmh E 7.0 mph11.3 kmh 30.78 in1042.3 mb 0.00 in0.0 mm 0.00 in0.0 mm 0.00 in0.0 mm
12:58 PM 34.1°F1.2°C 20.4°F-6.4°C 57% 2.0 mph ENE3.2 kmh ENE 7.0 mph11.3 kmh 30.78 in1042.3 mb 0.00 in0.0 mm 0.00 in0.0 mm 0.00 in0.0 mm
12:59 PM 34.2°F1.2°C 20.5°F-6.4°C 57% 2.0 mph NE3.2 kmh NE 7.0 mph11.3 kmh 30.78 in1042.3 mb 0.00 in0.0 mm 0.00 in0.0 mm 0.00 in0.0 mm
01:00 PM 34.1°F1.2°C 19.6°F-6.9°C 55% 2.0 mph NE3.2 kmh NE 7.0 mph11.3 kmh 30.78 in1042.3 mb 0.00 in0.0 mm 0.00 in0.0 mm 0.00 in0.0 mm
01:01 PM 34.1°F1.2°C 19.6°F-6.9°C 55% 3.0 mph NE4.8 kmh NE 7.0 mph11.3 kmh 30.78 in1042.3 mb 0.00 in0.0 mm 0.00 in0.0 mm 0.00 in0.0 mm
01:02 PM 34.2°F1.2°C 20.1°F-6.6°C 56% 3.0 mph NE4.8 kmh NE 7.0 mph11.3 kmh 30.78 in1042.3 mb 0.00 in0.0 mm 0.00 in0.0 mm 0.00 in0.0 mm
01:03 PM 34.2°F1.2°C 20.1°F-6.6°C 56% 3.0 mph NE4.8 kmh NE 7.0 mph11.3 kmh 30.78 in1042.3 mb 0.00 in0.0 mm 0.00 in0.0 mm 0.00 in0.0 mm
01:04 PM 34.3°F1.3°C 20.2°F-6.6°C 56% 3.0 mph NE4.8 kmh NE 7.0 mph11.3 kmh 30.78 in1042.3 mb 0.00 in0.0 mm 0.00 in0.0 mm 0.00 in0.0 mm
01:05 PM 34.4°F1.3°C 19.9°F-6.7°C 55% 3.0 mph ENE4.8 kmh ENE 7.0 mph11.3 kmh 30.78 in1042.3 mb 0.00 in0.0 mm 0.00 in0.0 mm 0.00 in0.0 mm
01:06 PM 34.4°F1.3°C 19.9°F-6.7°C 55% 3.0 mph ENE4.8 kmh ENE 7.0 mph11.3 kmh 30.77 in1042.0 mb 0.00 in0.0 mm 0.00 in0.0 mm 0.00 in0.0 mm
01:07 PM 34.4°F1.3°C 19.9°F-6.7°C 55% 2.0 mph ENE3.2 kmh ENE 7.0 mph11.3 kmh 30.77 in1042.0 mb 0.00 in0.0 mm 0.00 in0.0 mm 0.00 in0.0 mm
01:08 PM 34.4°F1.3°C 19.9°F-6.7°C 55% 2.0 mph ENE3.2 kmh ENE 7.0 mph11.3 kmh 30.77 in1042.0 mb 0.00 in0.0 mm 0.00 in0.0 mm 0.00 in0.0 mm
01:09 PM 34.5°F1.4°C 19.5°F-6.9°C 54% 2.0 mph ENE3.2 kmh ENE 6.0 mph9.7 kmh 30.77 in1042.0 mb 0.00 in0.0 mm 0.00 in0.0 mm 0.00 in0.0 mm
01:10 PM 34.5°F1.4°C 19.5°F-6.9°C 54% 2.0 mph E3.2 kmh E 6.0 mph9.7 kmh 30.77 in1042.0 mb 0.00 in0.0 mm 0.00 in0.0 mm 0.00 in0.0 mm
01:11 PM 34.6°F1.4°C 19.6°F-6.9°C 54% 2.0 mph E3.2 kmh E 6.0 mph9.7 kmh 30.77 in1042.0 mb 0.00 in0.0 mm 0.00 in0.0 mm 0.00 in0.0 mm
01:12 PM 34.6°F1.4°C 19.6°F-6.9°C 54% 2.0 mph E3.2 kmh E 6.0 mph9.7 kmh 30.77 in1042.0 mb 0.00 in0.0 mm 0.00 in0.0 mm 0.00 in0.0 mm
01:13 PM 34.6°F1.4°C 19.6°F-6.9°C 54% 2.0 mph E3.2 kmh E 6.0 mph9.7 kmh 30.77 in1042.0 mb 0.00 in0.0 mm 0.00 in0.0 mm 0.00 in0.0 mm
01:14 PM 34.6°F1.4°C 19.6°F-6.9°C 54% 2.0 mph ENE3.2 kmh ENE 6.0 mph9.7 kmh 30.77 in1042.0 mb 0.00 in0.0 mm 0.00 in0.0 mm 0.00 in0.0 mm
01:15 PM 34.6°F1.4°C 19.6°F-6.9°C 54% 2.0 mph ENE3.2 kmh ENE 6.0 mph9.7 kmh 30.76 in1041.7 mb 0.00 in0.0 mm 0.00 in0.0 mm 0.00 in0.0 mm
01:16 PM 34.6°F1.4°C 19.6°F-6.9°C 54% 2.0 mph ENE3.2 kmh ENE 6.0 mph9.7 kmh 30.76 in1041.7 mb 0.00 in0.0 mm 0.00 in0.0 mm 0.00 in0.0 mm
01:17 PM 34.6°F1.4°C 19.6°F-6.9°C 54% 2.0 mph ENE3.2 kmh ENE 7.0 mph11.3 kmh 30.76 in1041.7 mb 0.00 in0.0 mm 0.00 in0.0 mm 0.00 in0.0 mm
01:18 PM 34.7°F1.5°C 20.2°F-6.6°C 55% 3.0 mph ENE4.8 kmh ENE 7.0 mph11.3 kmh 30.76 in1041.7 mb 0.00 in0.0 mm 0.00 in0.0 mm 0.00 in0.0 mm
01:19 PM 34.7°F1.5°C 19.7°F-6.8°C 54% 3.0 mph ENE4.8 kmh ENE 7.0 mph11.3 kmh 30.76 in1041.7 mb 0.00 in0.0 mm 0.00 in0.0 mm 0.00 in0.0 mm
01:20 PM 34.8°F1.6°C 19.8°F-6.8°C 54% 3.0 mph ENE4.8 kmh ENE 7.0 mph11.3 kmh 30.76 in1041.7 mb 0.00 in0.0 mm 0.00 in0.0 mm 0.00 in0.0 mm
01:21 PM 34.8°F1.6°C 19.8°F-6.8°C 54% 3.0 mph ENE4.8 kmh ENE 7.0 mph11.3 kmh 30.76 in1041.7 mb 0.00 in0.0 mm 0.00 in0.0 mm 0.00 in0.0 mm
01:22 PM 34.9°F1.6°C 20.4°F-6.4°C 55% 2.0 mph ENE3.2 kmh ENE 7.0 mph11.3 kmh 30.76 in1041.7 mb 0.00 in0.0 mm 0.00 in0.0 mm 0.00 in0.0 mm
01:23 PM 35.1°F1.7°C 20.5°F-6.4°C 55% 3.0 mph ENE4.8 kmh ENE 7.0 mph11.3 kmh 30.76 in1041.7 mb 0.00 in0.0 mm 0.00 in0.0 mm 0.00 in0.0 mm
01:24 PM 35.3°F1.8°C 20.7°F-6.3°C 55% 3.0 mph ENE4.8 kmh ENE 7.0 mph11.3 kmh 30.75 in1041.3 mb 0.00 in0.0 mm 0.00 in0.0 mm 0.00 in0.0 mm
01:25 PM 35.5°F1.9°C 20.9°F-6.2°C 55% 2.0 mph ENE3.2 kmh ENE 7.0 mph11.3 kmh 30.76 in1041.7 mb 0.00 in0.0 mm 0.00 in0.0 mm 0.00 in0.0 mm
01:26 PM 35.5°F1.9°C 20.0°F-6.7°C 53% 2.0 mph E3.2 kmh E 7.0 mph11.3 kmh 30.76 in1041.7 mb 0.00 in0.0 mm 0.00 in0.0 mm 0.00 in0.0 mm
01:27 PM 35.6°F2.0°C 20.1°F-6.6°C 53% 2.0 mph E3.2 kmh E 7.0 mph11.3 kmh 30.76 in1041.7 mb 0.00 in0.0 mm 0.00 in0.0 mm 0.00 in0.0 mm
01:28 PM 35.6°F2.0°C 20.1°F-6.6°C 53% 2.0 mph E3.2 kmh E 6.0 mph9.7 kmh 30.76 in1041.7 mb 0.00 in0.0 mm 0.00 in0.0 mm 0.00 in0.0 mm
01:29 PM 35.7°F2.1°C 20.2°F-6.6°C 53% 1.0 mph E1.6 kmh E 6.0 mph9.7 kmh 30.75 in1041.3 mb 0.00 in0.0 mm 0.00 in0.0 mm 0.00 in0.0 mm
01:30 PM 35.6°F2.0°C 19.7°F-6.8°C 52% 1.0 mph E1.6 kmh E 6.0 mph9.7 kmh 30.75 in1041.3 mb 0.00 in0.0 mm 0.00 in0.0 mm 0.00 in0.0 mm
01:31 PM 35.7°F2.1°C 20.2°F-6.6°C 53% 2.0 mph E3.2 kmh E 7.0 mph11.3 kmh 30.75 in1041.3 mb 0.00 in0.0 mm 0.00 in0.0 mm 0.00 in0.0 mm
01:32 PM 35.6°F2.0°C 19.7°F-6.8°C 52% 2.0 mph E3.2 kmh E 7.0 mph11.3 kmh 30.75 in1041.3 mb 0.00 in0.0 mm 0.00 in0.0 mm 0.00 in0.0 mm
01:33 PM 35.6°F2.0°C 20.1°F-6.6°C 53% 2.0 mph E3.2 kmh E 7.0 mph11.3 kmh 30.75 in1041.3 mb 0.00 in0.0 mm 0.00 in0.0 mm 0.00 in0.0 mm
01:34 PM 35.6°F2.0°C 20.1°F-6.6°C 53% 2.0 mph ENE3.2 kmh ENE 8.0 mph12.9 kmh 30.75 in1041.3 mb 0.00 in0.0 mm 0.00 in0.0 mm 0.00 in0.0 mm
01:35 PM 35.5°F1.9°C 21.8°F-5.7°C 57% 3.0 mph ENE4.8 kmh ENE 8.0 mph12.9 kmh 30.75 in1041.3 mb 0.00 in0.0 mm 0.00 in0.0 mm 0.00 in0.0 mm
01:36 PM 35.5°F1.9°C 20.0°F-6.7°C 53% 3.0 mph ENE4.8 kmh ENE 8.0 mph12.9 kmh 30.75 in1041.3 mb 0.00 in0.0 mm 0.00 in0.0 mm 0.00 in0.0 mm
01:37 PM 35.5°F1.9°C 20.5°F-6.4°C 54% 2.0 mph ENE3.2 kmh ENE 8.0 mph12.9 kmh 30.75 in1041.3 mb 0.00 in0.0 mm 0.00 in0.0 mm 0.00 in0.0 mm
01:38 PM 35.5°F1.9°C 20.0°F-6.7°C 53% 2.0 mph ENE3.2 kmh ENE 8.0 mph12.9 kmh 30.75 in1041.3 mb 0.00 in0.0 mm 0.00 in0.0 mm 0.00 in0.0 mm
01:39 PM 35.5°F1.9°C 21.8°F-5.7°C 57% 2.0 mph ENE3.2 kmh ENE 8.0 mph12.9 kmh 30.75 in1041.3 mb 0.00 in0.0 mm 0.00 in0.0 mm 0.00 in0.0 mm
01:40 PM 35.6°F2.0°C 20.1°F-6.6°C 53% 2.0 mph ENE3.2 kmh ENE 8.0 mph12.9 kmh 30.75 in1041.3 mb 0.00 in0.0 mm 0.00 in0.0 mm 0.00 in0.0 mm
01:41 PM 35.6°F2.0°C 19.7°F-6.8°C 52% 2.0 mph ENE3.2 kmh ENE 8.0 mph12.9 kmh 30.75 in1041.3 mb 0.00 in0.0 mm 0.00 in0.0 mm 0.00 in0.0 mm
01:42 PM 35.7°F2.1°C 20.7°F-6.3°C 54% 2.0 mph ENE3.2 kmh ENE 8.0 mph12.9 kmh 30.75 in1041.3 mb 0.00 in0.0 mm 0.00 in0.0 mm 0.00 in0.0 mm
01:43 PM 35.8°F2.1°C 20.8°F-6.2°C 54% 2.0 mph ENE3.2 kmh ENE 8.0 mph12.9 kmh 30.75 in1041.3 mb 0.00 in0.0 mm 0.00 in0.0 mm 0.00 in0.0 mm
01:44 PM 35.9°F2.2°C 20.9°F-6.2°C 54% 1.0 mph E1.6 kmh E 6.0 mph9.7 kmh 30.75 in1041.3 mb 0.00 in0.0 mm 0.00 in0.0 mm 0.00 in0.0 mm
01:45 PM 36.0°F2.2°C 20.9°F-6.2°C 54% 1.0 mph E1.6 kmh E 7.0 mph11.3 kmh 30.75 in1041.3 mb 0.00 in0.0 mm 0.00 in0.0 mm 0.00 in0.0 mm
01:46 PM 36.1°F2.3°C 21.5°F-5.8°C 55% 1.0 mph E1.6 kmh E 7.0 mph11.3 kmh 30.75 in1041.3 mb 0.00 in0.0 mm 0.00 in0.0 mm 0.00 in0.0 mm
01:47 PM 36.2°F2.3°C 21.1°F-6.1°C 54% 2.0 mph ENE3.2 kmh ENE 7.0 mph11.3 kmh 30.75 in1041.3 mb 0.00 in0.0 mm 0.00 in0.0 mm 0.00 in0.0 mm
01:48 PM 36.2°F2.3°C 21.1°F-6.1°C 54% 2.0 mph ENE3.2 kmh ENE 7.0 mph11.3 kmh 30.75 in1041.3 mb 0.00 in0.0 mm 0.00 in0.0 mm 0.00 in0.0 mm
01:49 PM 36.3°F2.4°C 20.8°F-6.2°C 53% 2.0 mph ENE3.2 kmh ENE 7.0 mph11.3 kmh 30.75 in1041.3 mb 0.00 in0.0 mm 0.00 in0.0 mm 0.00 in0.0 mm
01:50 PM 36.3°F2.4°C 20.8°F-6.2°C 53% 2.0 mph ENE3.2 kmh ENE 7.0 mph11.3 kmh 30.74 in1041.0 mb 0.00 in0.0 mm 0.00 in0.0 mm 0.00 in0.0 mm
01:51 PM 36.3°F2.4°C 20.8°F-6.2°C 53% 2.0 mph ENE3.2 kmh ENE 7.0 mph11.3 kmh 30.74 in1041.0 mb 0.00 in0.0 mm 0.00 in0.0 mm 0.00 in0.0 mm
01:52 PM 36.3°F2.4°C 20.8°F-6.2°C 53% 2.0 mph ENE3.2 kmh ENE 7.0 mph11.3 kmh 30.74 in1041.0 mb 0.00 in0.0 mm 0.00 in0.0 mm 0.00 in0.0 mm
01:53 PM 36.3°F2.4°C 20.3°F-6.5°C 52% 2.0 mph ENE3.2 kmh ENE 7.0 mph11.3 kmh 30.74 in1041.0 mb 0.00 in0.0 mm 0.00 in0.0 mm 0.00 in0.0 mm
01:54 PM 36.3°F2.4°C 20.3°F-6.5°C 52% 2.0 mph NE3.2 kmh NE 7.0 mph11.3 kmh 30.74 in1041.0 mb 0.00 in0.0 mm 0.00 in0.0 mm 0.00 in0.0 mm
01:55 PM 36.3°F2.4°C 20.8°F-6.2°C 53% 2.0 mph NE3.2 kmh NE 7.0 mph11.3 kmh 30.74 in1041.0 mb 0.00 in0.0 mm 0.00 in0.0 mm 0.00 in0.0 mm
01:56 PM 36.3°F2.4°C 20.8°F-6.2°C 53% 2.0 mph NE3.2 kmh NE 7.0 mph11.3 kmh 30.74 in1041.0 mb 0.00 in0.0 mm 0.00 in0.0 mm 0.00 in0.0 mm
01:57 PM 36.3°F2.4°C 20.8°F-6.2°C 53% 2.0 mph NE3.2 kmh NE 7.0 mph11.3 kmh 30.74 in1041.0 mb 0.00 in0.0 mm 0.00 in0.0 mm 0.00 in0.0 mm
01:58 PM 36.4°F2.4°C 20.9°F-6.2°C 53% 2.0 mph NE3.2 kmh NE 7.0 mph11.3 kmh 30.74 in1041.0 mb 0.00 in0.0 mm 0.00 in0.0 mm 0.00 in0.0 mm
01:59 PM 36.4°F2.4°C 20.9°F-6.2°C 53% 3.0 mph NE4.8 kmh NE 7.0 mph11.3 kmh 30.74 in1041.0 mb 0.00 in0.0 mm 0.00 in0.0 mm 0.00 in0.0 mm
02:00 PM 36.4°F2.4°C 20.9°F-6.2°C 53% 3.0 mph NE4.8 kmh NE 7.0 mph11.3 kmh 30.74 in1041.0 mb 0.00 in0.0 mm 0.00 in0.0 mm 0.00 in0.0 mm
02:01 PM 36.4°F2.4°C 20.9°F-6.2°C 53% 3.0 mph NE4.8 kmh NE 7.0 mph11.3 kmh 30.74 in1041.0 mb 0.00 in0.0 mm 0.00 in0.0 mm 0.00 in0.0 mm
02:02 PM 36.4°F2.4°C 20.9°F-6.2°C 53% 3.0 mph NE4.8 kmh NE 7.0 mph11.3 kmh 30.74 in1041.0 mb 0.00 in0.0 mm 0.00 in0.0 mm 0.00 in0.0 mm
02:03 PM 36.4°F2.4°C 20.4°F-6.4°C 52% 3.0 mph NE4.8 kmh NE 8.0 mph12.9 kmh 30.74 in1041.0 mb 0.00 in0.0 mm 0.00 in0.0 mm 0.00 in0.0 mm
02:04 PM 36.4°F2.4°C 20.4°F-6.4°C 52% 3.0 mph NE4.8 kmh NE 8.0 mph12.9 kmh 30.74 in1041.0 mb 0.00 in0.0 mm 0.00 in0.0 mm 0.00 in0.0 mm
02:05 PM 36.3°F2.4°C 20.3°F-6.5°C 52% 4.0 mph NE6.4 kmh NE 8.0 mph12.9 kmh 30.74 in1041.0 mb 0.00 in0.0 mm 0.00 in0.0 mm 0.00 in0.0 mm
02:06 PM 36.3°F2.4°C 19.9°F-6.7°C 51% 4.0 mph NE6.4 kmh NE 8.0 mph12.9 kmh 30.73 in1040.6 mb 0.00 in0.0 mm 0.00 in0.0 mm 0.00 in0.0 mm
02:07 PM 36.3°F2.4°C 20.3°F-6.5°C 52% 4.0 mph ENE6.4 kmh ENE 8.0 mph12.9 kmh 30.73 in1040.6 mb 0.00 in0.0 mm 0.00 in0.0 mm 0.00 in0.0 mm
02:08 PM 36.3°F2.4°C 20.3°F-6.5°C 52% 4.0 mph ENE6.4 kmh ENE 8.0 mph12.9 kmh 30.73 in1040.6 mb 0.00 in0.0 mm 0.00 in0.0 mm 0.00 in0.0 mm
02:09 PM 36.2°F2.3°C 20.2°F-6.6°C 52% 4.0 mph ENE6.4 kmh ENE 10.0 mph16.1 kmh 30.73 in1040.6 mb 0.00 in0.0 mm 0.00 in0.0 mm 0.00 in0.0 mm
02:10 PM 36.2°F2.3°C 20.2°F-6.6°C 52% 4.0 mph ENE6.4 kmh ENE 10.0 mph16.1 kmh 30.73 in1040.6 mb 0.00 in0.0 mm 0.00 in0.0 mm 0.00 in0.0 mm
02:11 PM 36.2°F2.3°C 20.2°F-6.6°C 52% 4.0 mph ENE6.4 kmh ENE 10.0 mph16.1 kmh 30.73 in1040.6 mb 0.00 in0.0 mm 0.00 in0.0 mm 0.00 in0.0 mm
02:12 PM 36.2°F2.3°C 20.2°F-6.6°C 52% 5.0 mph ENE8.0 kmh ENE 10.0 mph16.1 kmh 30.73 in1040.6 mb 0.00 in0.0 mm 0.00 in0.0 mm 0.00 in0.0 mm
02:13 PM 36.2°F2.3°C 20.7°F-6.3°C 53% 5.0 mph ENE8.0 kmh ENE 10.0 mph16.1 kmh 30.73 in1040.6 mb 0.00 in0.0 mm 0.00 in0.0 mm 0.00 in0.0 mm
02:14 PM 36.2°F2.3°C 20.7°F-6.3°C 53% 5.0 mph ENE8.0 kmh ENE 10.0 mph16.1 kmh 30.73 in1040.6 mb 0.00 in0.0 mm 0.00 in0.0 mm 0.00 in0.0 mm
02:15 PM 36.2°F2.3°C 20.7°F-6.3°C 53% 5.0 mph ENE8.0 kmh ENE 10.0 mph16.1 kmh 30.73 in1040.6 mb 0.00 in0.0 mm 0.00 in0.0 mm 0.00 in0.0 mm
02:16 PM 36.2°F2.3°C 20.2°F-6.6°C 52% 5.0 mph ENE8.0 kmh ENE 10.0 mph16.1 kmh 30.73 in1040.6 mb 0.00 in0.0 mm 0.00 in0.0 mm 0.00 in0.0 mm
02:17 PM 36.2°F2.3°C 20.7°F-6.3°C 53% 5.0 mph ENE8.0 kmh ENE 10.0 mph16.1 kmh 30.73 in1040.6 mb 0.00 in0.0 mm 0.00 in0.0 mm 0.00 in0.0 mm
02:18 PM 36.3°F2.4°C 20.8°F-6.2°C 53% 5.0 mph ENE8.0 kmh ENE 10.0 mph16.1 kmh 30.73 in1040.6 mb 0.00 in0.0 mm 0.00 in0.0 mm 0.00 in0.0 mm
02:19 PM 36.3°F2.4°C 20.3°F-6.5°C 52% 5.0 mph ENE8.0 kmh ENE 9.0 mph14.5 kmh 30.73 in1040.6 mb 0.00 in0.0 mm 0.00 in0.0 mm 0.00 in0.0 mm
02:20 PM 36.3°F2.4°C 20.3°F-6.5°C 52% 5.0 mph ENE8.0 kmh ENE 9.0 mph14.5 kmh 30.73 in1040.6 mb 0.00 in0.0 mm 0.00 in0.0 mm 0.00 in0.0 mm
02:21 PM 36.3°F2.4°C 19.9°F-6.7°C 51% 4.0 mph ENE6.4 kmh ENE 8.0 mph12.9 kmh 30.73 in1040.6 mb 0.00 in0.0 mm 0.00 in0.0 mm 0.00 in0.0 mm
02:22 PM 36.3°F2.4°C 19.9°F-6.7°C 51% 4.0 mph ENE6.4 kmh ENE 8.0 mph12.9 kmh 30.73 in1040.6 mb 0.00 in0.0 mm 0.00 in0.0 mm 0.00 in0.0 mm
02:23 PM 36.3°F2.4°C 20.3°F-6.5°C 52% 4.0 mph ENE6.4 kmh ENE 8.0 mph12.9 kmh 30.73 in1040.6 mb 0.00 in0.0 mm 0.00 in0.0 mm 0.00 in0.0 mm
02:24 PM 36.3°F2.4°C 20.3°F-6.5°C 52% 4.0 mph ENE6.4 kmh ENE 8.0 mph12.9 kmh 30.73 in1040.6 mb 0.00 in0.0 mm 0.00 in0.0 mm 0.00 in0.0 mm
02:25 PM 36.3°F2.4°C 20.3°F-6.5°C 52% 4.0 mph ENE6.4 kmh ENE 8.0 mph12.9 kmh 30.73 in1040.6 mb 0.00 in0.0 mm 0.00 in0.0 mm 0.00 in0.0 mm
02:26 PM 36.4°F2.4°C 20.4°F-6.4°C 52% 4.0 mph ENE6.4 kmh ENE 8.0 mph12.9 kmh 30.72 in1040.3 mb 0.00 in0.0 mm 0.00 in0.0 mm 0.00 in0.0 mm
02:27 PM 36.4°F2.4°C 20.4°F-6.4°C 52% 3.0 mph ENE4.8 kmh ENE 8.0 mph12.9 kmh 30.72 in1040.3 mb 0.00 in0.0 mm 0.00 in0.0 mm 0.00 in0.0 mm
02:28 PM 36.5°F2.5°C 20.1°F-6.6°C 51% 3.0 mph ENE4.8 kmh ENE 7.0 mph11.3 kmh 30.72 in1040.3 mb 0.00 in0.0 mm 0.00 in0.0 mm 0.00 in0.0 mm
02:29 PM 36.6°F2.6°C 20.6°F-6.3°C 52% 2.0 mph ENE3.2 kmh ENE 7.0 mph11.3 kmh 30.72 in1040.3 mb 0.00 in0.0 mm 0.00 in0.0 mm 0.00 in0.0 mm
02:30 PM 36.9°F2.7°C 21.3°F-5.9°C 53% 2.0 mph E3.2 kmh E 6.0 mph9.7 kmh 30.72 in1040.3 mb 0.00 in0.0 mm 0.00 in0.0 mm 0.00 in0.0 mm
02:31 PM 37.1°F2.8°C 21.1°F-6.1°C 52% 2.0 mph E3.2 kmh E 6.0 mph9.7 kmh 30.72 in1040.3 mb 0.00 in0.0 mm 0.00 in0.0 mm 0.00 in0.0 mm
02:32 PM 37.2°F2.9°C 20.7°F-6.3°C 51% 2.0 mph ESE3.2 kmh ESE 6.0 mph9.7 kmh 30.72 in1040.3 mb 0.00 in0.0 mm 0.00 in0.0 mm 0.00 in0.0 mm
02:33 PM 37.3°F2.9°C 20.8°F-6.2°C 51% 2.0 mph SE3.2 kmh SE 6.0 mph9.7 kmh 30.71 in1040.0 mb 0.00 in0.0 mm 0.00 in0.0 mm 0.00 in0.0 mm
02:34 PM 37.4°F3.0°C 20.9°F-6.2°C 51% 2.0 mph SE3.2 kmh SE 6.0 mph9.7 kmh 30.71 in1040.0 mb 0.00 in0.0 mm 0.00 in0.0 mm 0.00 in0.0 mm
02:35 PM 37.5°F3.1°C 21.0°F-6.1°C 51% 2.0 mph SSE3.2 kmh SSE 6.0 mph9.7 kmh 30.72 in1040.3 mb 0.00 in0.0 mm 0.00 in0.0 mm 0.00 in0.0 mm
02:36 PM 37.6°F3.1°C 20.6°F-6.3°C 50% 2.0 mph SSE3.2 kmh SSE 6.0 mph9.7 kmh 30.72 in1040.3 mb 0.00 in0.0 mm 0.00 in0.0 mm 0.00 in0.0 mm
02:37 PM 37.7°F3.2°C 20.7°F-6.3°C 50% 2.0 mph S3.2 kmh S 6.0 mph9.7 kmh 30.72 in1040.3 mb 0.00 in0.0 mm 0.00 in0.0 mm 0.00 in0.0 mm
02:38 PM 37.7°F3.2°C 20.7°F-6.3°C 50% 3.0 mph S4.8 kmh S 6.0 mph9.7 kmh 30.72 in1040.3 mb 0.00 in0.0 mm 0.00 in0.0 mm 0.00 in0.0 mm
02:39 PM 37.8°F3.2°C 20.8°F-6.2°C 50% 3.0 mph S4.8 kmh S 6.0 mph9.7 kmh 30.72 in1040.3 mb 0.00 in0.0 mm 0.00 in0.0 mm 0.00 in0.0 mm
02:40 PM 37.9°F3.3°C 21.4°F-5.9°C 51% 3.0 mph S4.8 kmh S 6.0 mph9.7 kmh 30.72 in1040.3 mb 0.00 in0.0 mm 0.00 in0.0 mm 0.00 in0.0 mm
02:41 PM 38.0°F3.3°C 21.0°F-6.1°C 50% 3.0 mph S4.8 kmh S 6.0 mph9.7 kmh 30.72 in1040.3 mb 0.00 in0.0 mm 0.00 in0.0 mm 0.00 in0.0 mm
02:42 PM 38.1°F3.4°C 22.0°F-5.6°C 52% 3.0 mph S4.8 kmh S 6.0 mph9.7 kmh 30.72 in1040.3 mb 0.00 in0.0 mm 0.00 in0.0 mm 0.00 in0.0 mm
02:43 PM 38.3°F3.5°C 22.2°F-5.4°C 52% 2.0 mph S3.2 kmh S 6.0 mph9.7 kmh 30.72 in1040.3 mb 0.00 in0.0 mm 0.00 in0.0 mm 0.00 in0.0 mm
02:44 PM 38.4°F3.6°C 21.8°F-5.7°C 51% 2.0 mph S3.2 kmh S 6.0 mph9.7 kmh 30.72 in1040.3 mb 0.00 in0.0 mm 0.00 in0.0 mm 0.00 in0.0 mm
02:45 PM 38.5°F3.6°C 21.5°F-5.8°C 50% 2.0 mph S3.2 kmh S 6.0 mph9.7 kmh 30.71 in1040.0 mb 0.00 in0.0 mm 0.00 in0.0 mm 0.00 in0.0 mm
02:46 PM 38.6°F3.7°C 21.1°F-6.1°C 49% 1.0 mph S1.6 kmh S 6.0 mph9.7 kmh 30.72 in1040.3 mb 0.00 in0.0 mm 0.00 in0.0 mm 0.00 in0.0 mm
02:47 PM 38.8°F3.8°C 21.7°F-5.7°C 50% 1.0 mph S1.6 kmh S 6.0 mph9.7 kmh 30.71 in1040.0 mb 0.00 in0.0 mm 0.00 in0.0 mm 0.00 in0.0 mm
02:48 PM 38.9°F3.8°C 22.3°F-5.4°C 51% 1.0 mph S1.6 kmh S 4.0 mph6.4 kmh 30.71 in1040.0 mb 0.00 in0.0 mm 0.00 in0.0 mm 0.00 in0.0 mm
02:49 PM 39.0°F3.9°C 21.4°F-5.9°C 49% 1.0 mph SSE1.6 kmh SSE 5.0 mph8.0 kmh 30.71 in1040.0 mb 0.00 in0.0 mm 0.00 in0.0 mm 0.00 in0.0 mm
02:50 PM 39.1°F3.9°C 22.0°F-5.6°C 50% 1.0 mph SSE1.6 kmh SSE 5.0 mph8.0 kmh 30.71 in1040.0 mb 0.00 in0.0 mm 0.00 in0.0 mm 0.00 in0.0 mm
02:51 PM 39.1°F3.9°C 21.5°F-5.8°C 49% 1.0 mph SSE1.6 kmh SSE 5.0 mph8.0 kmh 30.71 in1040.0 mb 0.00 in0.0 mm 0.00 in0.0 mm 0.00 in0.0 mm
02:52 PM 39.1°F3.9°C 21.0°F-6.1°C 48% 1.0 mph SSE1.6 kmh SSE 5.0 mph8.0 kmh 30.71 in1040.0 mb 0.00 in0.0 mm 0.00 in0.0 mm 0.00 in0.0 mm
02:53 PM 39.1°F3.9°C 21.5°F-5.8°C 49% 1.0 mph SSE1.6 kmh SSE 5.0 mph8.0 kmh 30.71 in1040.0 mb 0.00 in0.0 mm 0.00 in0.0 mm 0.00 in0.0 mm
02:54 PM 39.2°F4.0°C 22.1°F-5.5°C 50% 1.0 mph SE1.6 kmh SE 6.0 mph9.7 kmh 30.71 in1040.0 mb 0.00 in0.0 mm 0.00 in0.0 mm 0.00 in0.0 mm
02:55 PM 39.2°F4.0°C 21.6°F-5.8°C 49% 2.0 mph SE3.2 kmh SE 6.0 mph9.7 kmh 30.71 in1040.0 mb 0.00 in0.0 mm 0.00 in0.0 mm 0.00 in0.0 mm
02:56 PM 39.2°F4.0°C 21.6°F-5.8°C 49% 2.0 mph SE3.2 kmh SE 6.0 mph9.7 kmh 30.71 in1040.0 mb 0.00 in0.0 mm 0.00 in0.0 mm 0.00 in0.0 mm
02:57 PM 39.2°F4.0°C 21.1°F-6.1°C 48% 2.0 mph SE3.2 kmh SE 6.0 mph9.7 kmh 30.71 in1040.0 mb 0.00 in0.0 mm 0.00 in0.0 mm 0.00 in0.0 mm
02:58 PM 39.2°F4.0°C 21.1°F-6.1°C 48% 2.0 mph SE3.2 kmh SE 6.0 mph9.7 kmh 30.71 in1040.0 mb 0.00 in0.0 mm 0.00 in0.0 mm 0.00 in0.0 mm
02:59 PM 39.2°F4.0°C 21.1°F-6.1°C 48% 2.0 mph ESE3.2 kmh ESE 6.0 mph9.7 kmh 30.71 in1040.0 mb 0.00 in0.0 mm 0.00 in0.0 mm 0.00 in0.0 mm
03:00 PM 39.2°F4.0°C 20.6°F-6.3°C 47% 2.0 mph ESE3.2 kmh ESE 6.0 mph9.7 kmh 30.71 in1040.0 mb 0.00 in0.0 mm 0.00 in0.0 mm 0.00 in0.0 mm
03:01 PM 39.2°F4.0°C 21.1°F-6.1°C 48% 2.0 mph E3.2 kmh E 6.0 mph9.7 kmh 30.71 in1040.0 mb 0.00 in0.0 mm 0.00 in0.0 mm 0.00 in0.0 mm
03:02 PM 39.1°F3.9°C 21.0°F-6.1°C 48% 2.0 mph E3.2 kmh E 6.0 mph9.7 kmh 30.71 in1040.0 mb 0.00 in0.0 mm 0.00 in0.0 mm 0.00 in0.0 mm
03:03 PM 39.0°F3.9°C 20.5°F-6.4°C 47% 2.0 mph ENE3.2 kmh ENE 6.0 mph9.7 kmh 30.71 in1040.0 mb 0.00 in0.0 mm 0.00 in0.0 mm 0.00 in0.0 mm
03:04 PM 39.0°F3.9°C 20.5°F-6.4°C 47% 2.0 mph ENE3.2 kmh ENE 6.0 mph9.7 kmh 30.71 in1040.0 mb 0.00 in0.0 mm 0.00 in0.0 mm 0.00 in0.0 mm
03:05 PM 38.8°F3.8°C 20.3°F-6.5°C 47% 1.0 mph ENE1.6 kmh ENE 5.0 mph8.0 kmh 30.71 in1040.0 mb 0.00 in0.0 mm 0.00 in0.0 mm 0.00 in0.0 mm
03:06 PM 38.8°F3.8°C 20.3°F-6.5°C 47% 1.0 mph NE1.6 kmh NE 5.0 mph8.0 kmh 30.71 in1040.0 mb 0.00 in0.0 mm 0.00 in0.0 mm 0.00 in0.0 mm
03:07 PM 38.7°F3.7°C 20.7°F-6.3°C 48% 1.0 mph NE1.6 kmh NE 5.0 mph8.0 kmh 30.71 in1040.0 mb 0.00 in0.0 mm 0.00 in0.0 mm 0.00 in0.0 mm
03:08 PM 38.7°F3.7°C 20.7°F-6.3°C 48% 1.0 mph NE1.6 kmh NE 5.0 mph8.0 kmh 30.70 in1039.6 mb 0.00 in0.0 mm 0.00 in0.0 mm 0.00 in0.0 mm
03:09 PM 38.7°F3.7°C 21.2°F-6.0°C 49% 1.0 mph NE1.6 kmh NE 5.0 mph8.0 kmh 30.71 in1040.0 mb 0.00 in0.0 mm 0.00 in0.0 mm 0.00 in0.0 mm
03:10 PM 38.6°F3.7°C 20.6°F-6.3°C 48% 1.0 mph NE1.6 kmh NE 8.0 mph12.9 kmh 30.70 in1039.6 mb 0.00 in0.0 mm 0.00 in0.0 mm 0.00 in0.0 mm
03:11 PM 38.6°F3.7°C 20.6°F-6.3°C 48% 2.0 mph NE3.2 kmh NE 8.0 mph12.9 kmh 30.70 in1039.6 mb 0.00 in0.0 mm 0.00 in0.0 mm 0.00 in0.0 mm
03:12 PM 38.6°F3.7°C 20.6°F-6.3°C 48% 2.0 mph NE3.2 kmh NE 8.0 mph12.9 kmh 30.70 in1039.6 mb 0.00 in0.0 mm 0.00 in0.0 mm 0.00 in0.0 mm
03:13 PM 38.5°F3.6°C 21.0°F-6.1°C 49% 1.0 mph NE1.6 kmh NE 8.0 mph12.9 kmh 30.70 in1039.6 mb 0.00 in0.0 mm 0.00 in0.0 mm 0.00 in0.0 mm
03:14 PM 38.5°F3.6°C 21.0°F-6.1°C 49% 2.0 mph NE3.2 kmh NE 8.0 mph12.9 kmh 30.70 in1039.6 mb 0.00 in0.0 mm 0.00 in0.0 mm 0.00 in0.0 mm
03:15 PM 38.6°F3.7°C 21.1°F-6.1°C 49% 2.0 mph NE3.2 kmh NE 8.0 mph12.9 kmh 30.70 in1039.6 mb 0.00 in0.0 mm 0.00 in0.0 mm 0.00 in0.0 mm
03:16 PM 38.6°F3.7°C 21.1°F-6.1°C 49% 2.0 mph NE3.2 kmh NE 8.0 mph12.9 kmh 30.70 in1039.6 mb 0.00 in0.0 mm 0.00 in0.0 mm 0.00 in0.0 mm
03:17 PM 38.6°F3.7°C 21.1°F-6.1°C 49% 2.0 mph NE3.2 kmh NE 8.0 mph12.9 kmh 30.70 in1039.6 mb 0.00 in0.0 mm 0.00 in0.0 mm 0.00 in0.0 mm
03:18 PM 38.8°F3.8°C 21.3°F-5.9°C 49% 2.0 mph NE3.2 kmh NE 8.0 mph12.9 kmh 30.70 in1039.6 mb 0.00 in0.0 mm 0.00 in0.0 mm 0.00 in0.0 mm
03:19 PM 38.9°F3.8°C 21.3°F-5.9°C 49% 2.0 mph NE3.2 kmh NE 8.0 mph12.9 kmh 30.70 in1039.6 mb 0.00 in0.0 mm 0.00 in0.0 mm 0.00 in0.0 mm
03:20 PM 39.0°F3.9°C 21.9°F-5.6°C 50% 2.0 mph NE3.2 kmh NE 7.0 mph11.3 kmh 30.70 in1039.6 mb 0.00 in0.0 mm 0.00 in0.0 mm 0.00 in0.0 mm
03:21 PM 39.1°F3.9°C 21.5°F-5.8°C 49% 2.0 mph NE3.2 kmh NE 6.0 mph9.7 kmh 30.70 in1039.6 mb 0.00 in0.0 mm 0.00 in0.0 mm 0.00 in0.0 mm
03:22 PM 39.2°F4.0°C 21.6°F-5.8°C 49% 2.0 mph NE3.2 kmh NE 6.0 mph9.7 kmh 30.70 in1039.6 mb 0.00 in0.0 mm 0.00 in0.0 mm 0.00 in0.0 mm
03:23 PM 39.2°F4.0°C 21.1°F-6.1°C 48% 2.0 mph NE3.2 kmh NE 6.0 mph9.7 kmh 30.70 in1039.6 mb 0.00 in0.0 mm 0.00 in0.0 mm 0.00 in0.0 mm
03:24 PM 39.4°F4.1°C 21.3°F-5.9°C 48% 2.0 mph ENE3.2 kmh ENE 8.0 mph12.9 kmh 30.70 in1039.6 mb 0.00 in0.0 mm 0.00 in0.0 mm 0.00 in0.0 mm
03:25 PM 39.4°F4.1°C 20.8°F-6.2°C 47% 2.0 mph E3.2 kmh E 8.0 mph12.9 kmh 30.70 in1039.6 mb 0.00 in0.0 mm 0.00 in0.0 mm 0.00 in0.0 mm
03:26 PM 39.4°F4.1°C 20.8°F-6.2°C 47% 2.0 mph ESE3.2 kmh ESE 8.0 mph12.9 kmh 30.70 in1039.6 mb 0.00 in0.0 mm 0.00 in0.0 mm 0.00 in0.0 mm
03:27 PM 39.5°F4.2°C 21.4°F-5.9°C 48% 2.0 mph ESE3.2 kmh ESE 8.0 mph12.9 kmh 30.70 in1039.6 mb 0.00 in0.0 mm 0.00 in0.0 mm 0.00 in0.0 mm
03:28 PM 39.6°F4.2°C 22.0°F-5.6°C 49% 2.0 mph ESE3.2 kmh ESE 8.0 mph12.9 kmh 30.70 in1039.6 mb 0.00 in0.0 mm 0.00 in0.0 mm 0.00 in0.0 mm
03:29 PM 39.7°F4.3°C 21.6°F-5.8°C 48% 2.0 mph ESE3.2 kmh ESE 8.0 mph12.9 kmh 30.70 in1039.6 mb 0.00 in0.0 mm 0.00 in0.0 mm 0.00 in0.0 mm
03:30 PM 39.8°F4.3°C 21.7°F-5.7°C 48% 2.0 mph ESE3.2 kmh ESE 8.0 mph12.9 kmh 30.70 in1039.6 mb 0.00 in0.0 mm 0.00 in0.0 mm 0.00 in0.0 mm
03:31 PM 39.8°F4.3°C 21.2°F-6.0°C 47% 2.0 mph ESE3.2 kmh ESE 8.0 mph12.9 kmh 30.70 in1039.6 mb 0.00 in0.0 mm 0.00 in0.0 mm 0.00 in0.0 mm
03:32 PM 39.8°F4.3°C 21.2°F-6.0°C 47% 2.0 mph ESE3.2 kmh ESE 8.0 mph12.9 kmh 30.70 in1039.6 mb 0.00 in0.0 mm 0.00 in0.0 mm 0.00 in0.0 mm
03:33 PM 39.9°F4.4°C 22.3°F-5.4°C 49% 2.0 mph ESE3.2 kmh ESE 8.0 mph12.9 kmh 30.70 in1039.6 mb 0.00 in0.0 mm 0.00 in0.0 mm 0.00 in0.0 mm
03:34 PM 40.0°F4.4°C 22.4°F-5.3°C 49% 2.0 mph E3.2 kmh E 7.0 mph11.3 kmh 30.70 in1039.6 mb 0.00 in0.0 mm 0.00 in0.0 mm 0.00 in0.0 mm
03:35 PM 40.1°F4.5°C 22.0°F-5.6°C 48% 2.0 mph E3.2 kmh E 7.0 mph11.3 kmh 30.70 in1039.6 mb 0.00 in0.0 mm 0.00 in0.0 mm 0.00 in0.0 mm
03:36 PM 40.2°F4.6°C 21.6°F-5.8°C 47% 2.0 mph E3.2 kmh E 7.0 mph11.3 kmh 30.70 in1039.6 mb 0.00 in0.0 mm 0.00 in0.0 mm 0.00 in0.0 mm
03:37 PM 40.2°F4.6°C 21.6°F-5.8°C 47% 3.0 mph E4.8 kmh E 7.0 mph11.3 kmh 30.70 in1039.6 mb 0.00 in0.0 mm 0.00 in0.0 mm 0.00 in0.0 mm
03:38 PM 40.2°F4.6°C 21.0°F-6.1°C 46% 3.0 mph ENE4.8 kmh ENE 7.0 mph11.3 kmh 30.70 in1039.6 mb 0.00 in0.0 mm 0.00 in0.0 mm 0.00 in0.0 mm
03:39 PM 40.1°F4.5°C 21.0°F-6.1°C 46% 3.0 mph ENE4.8 kmh ENE 7.0 mph11.3 kmh 30.70 in1039.6 mb 0.00 in0.0 mm 0.00 in0.0 mm 0.00 in0.0 mm
03:40 PM 40.1°F4.5°C 21.5°F-5.8°C 47% 3.0 mph ENE4.8 kmh ENE 7.0 mph11.3 kmh 30.70 in1039.6 mb 0.00 in0.0 mm 0.00 in0.0 mm 0.00 in0.0 mm
03:41 PM 40.1°F4.5°C 22.0°F-5.6°C 48% 3.0 mph ENE4.8 kmh ENE 7.0 mph11.3 kmh 30.70 in1039.6 mb 0.00 in0.0 mm 0.00 in0.0 mm 0.00 in0.0 mm
03:42 PM 40.2°F4.6°C 22.1°F-5.5°C 48% 3.0 mph ENE4.8 kmh ENE 7.0 mph11.3 kmh 30.70 in1039.6 mb 0.00 in0.0 mm 0.00 in0.0 mm 0.00 in0.0 mm
03:43 PM 40.3°F4.6°C 22.1°F-5.5°C 48% 3.0 mph ENE4.8 kmh ENE 7.0 mph11.3 kmh 30.70 in1039.6 mb 0.00 in0.0 mm 0.00 in0.0 mm 0.00 in0.0 mm
03:44 PM 40.3°F4.6°C 21.6°F-5.8°C 47% 3.0 mph E4.8 kmh E 7.0 mph11.3 kmh 30.70 in1039.6 mb 0.00 in0.0 mm 0.00 in0.0 mm 0.00 in0.0 mm
03:45 PM 40.4°F4.7°C 21.7°F-5.7°C 47% 3.0 mph E4.8 kmh E 7.0 mph11.3 kmh 30.70 in1039.6 mb 0.00 in0.0 mm 0.00 in0.0 mm 0.00 in0.0 mm
03:46 PM 40.4°F4.7°C 20.7°F-6.3°C 45% 3.0 mph E4.8 kmh E 7.0 mph11.3 kmh 30.70 in1039.6 mb 0.00 in0.0 mm 0.00 in0.0 mm 0.00 in0.0 mm
03:47 PM 40.4°F4.7°C 20.7°F-6.3°C 45% 2.0 mph E3.2 kmh E 6.0 mph9.7 kmh 30.69 in1039.3 mb 0.00 in0.0 mm 0.00 in0.0 mm 0.00 in0.0 mm
03:48 PM 40.4°F4.7°C 20.7°F-6.3°C 45% 2.0 mph E3.2 kmh E 7.0 mph11.3 kmh 30.70 in1039.6 mb 0.00 in0.0 mm 0.00 in0.0 mm 0.00 in0.0 mm
03:49 PM 40.4°F4.7°C 20.7°F-6.3°C 45% 2.0 mph ESE3.2 kmh ESE 7.0 mph11.3 kmh 30.70 in1039.6 mb 0.00 in0.0 mm 0.00 in0.0 mm 0.00 in0.0 mm
03:50 PM 40.3°F4.6°C 20.1°F-6.6°C 44% 2.0 mph SE3.2 kmh SE 7.0 mph11.3 kmh 30.70 in1039.6 mb 0.00 in0.0 mm 0.00 in0.0 mm 0.00 in0.0 mm
03:51 PM 40.2°F4.6°C 20.0°F-6.7°C 44% 3.0 mph SE4.8 kmh SE 7.0 mph11.3 kmh 30.69 in1039.3 mb 0.00 in0.0 mm 0.00 in0.0 mm 0.00 in0.0 mm
03:52 PM 40.2°F4.6°C 20.5°F-6.4°C 45% 2.0 mph SE3.2 kmh SE 7.0 mph11.3 kmh 30.69 in1039.3 mb 0.00 in0.0 mm 0.00 in0.0 mm 0.00 in0.0 mm
03:53 PM 40.2°F4.6°C 21.0°F-6.1°C 46% 2.0 mph SE3.2 kmh SE 7.0 mph11.3 kmh 30.69 in1039.3 mb 0.00 in0.0 mm 0.00 in0.0 mm 0.00 in0.0 mm
03:54 PM 40.2°F4.6°C 21.0°F-6.1°C 46% 2.0 mph SE3.2 kmh SE 7.0 mph11.3 kmh 30.69 in1039.3 mb 0.00 in0.0 mm 0.00 in0.0 mm 0.00 in0.0 mm
03:55 PM 40.3°F4.6°C 21.1°F-6.1°C 46% 2.0 mph SE3.2 kmh SE 7.0 mph11.3 kmh 30.69 in1039.3 mb 0.00 in0.0 mm 0.00 in0.0 mm 0.00 in0.0 mm
03:56 PM 40.3°F4.6°C 20.6°F-6.3°C 45% 2.0 mph SE3.2 kmh SE 7.0 mph11.3 kmh 30.69 in1039.3 mb 0.00 in0.0 mm 0.00 in0.0 mm 0.00 in0.0 mm
03:57 PM 40.3°F4.6°C 20.6°F-6.3°C 45% 2.0 mph SE3.2 kmh SE 7.0 mph11.3 kmh 30.69 in1039.3 mb 0.00 in0.0 mm 0.00 in0.0 mm 0.00 in0.0 mm
03:58 PM 40.3°F4.6°C 20.6°F-6.3°C 45% 3.0 mph SE4.8 kmh SE 6.0 mph9.7 kmh 30.69 in1039.3 mb 0.00 in0.0 mm 0.00 in0.0 mm 0.00 in0.0 mm
03:59 PM 40.3°F4.6°C 20.6°F-6.3°C 45% 2.0 mph SE3.2 kmh SE 6.0 mph9.7 kmh 30.69 in1039.3 mb 0.00 in0.0 mm 0.00 in0.0 mm 0.00 in0.0 mm
04:00 PM 40.3°F4.6°C 21.1°F-6.1°C 46% 2.0 mph SE3.2 kmh SE 6.0 mph9.7 kmh 30.69 in1039.3 mb 0.00 in0.0 mm 0.00 in0.0 mm 0.00 in0.0 mm
04:01 PM 40.4°F4.7°C 20.7°F-6.3°C 45% 2.0 mph SE3.2 kmh SE 6.0 mph9.7 kmh 30.69 in1039.3 mb 0.00 in0.0 mm 0.00 in0.0 mm 0.00 in0.0 mm
04:02 PM 40.4°F4.7°C 20.7°F-6.3°C 45% 2.0 mph SE3.2 kmh SE 6.0 mph9.7 kmh 30.69 in1039.3 mb 0.00 in0.0 mm 0.00 in0.0 mm 0.00 in0.0 mm
04:03 PM 40.4°F4.7°C 20.7°F-6.3°C 45% 2.0 mph SE3.2 kmh SE 6.0 mph9.7 kmh 30.69 in1039.3 mb 0.00 in0.0 mm 0.00 in0.0 mm 0.00 in0.0 mm
04:04 PM 40.5°F4.7°C 21.3°F-5.9°C 46% 2.0 mph SSE3.2 kmh SSE 6.0 mph9.7 kmh 30.69 in1039.3 mb 0.00 in0.0 mm 0.00 in0.0 mm 0.00 in0.0 mm
04:05 PM 40.5°F4.7°C 20.8°F-6.2°C 45% 3.0 mph SSE4.8 kmh SSE 6.0 mph9.7 kmh 30.69 in1039.3 mb 0.00 in0.0 mm 0.00 in0.0 mm 0.00 in0.0 mm
04:06 PM 40.5°F4.7°C 20.8°F-6.2°C 45% 3.0 mph S4.8 kmh S 6.0 mph9.7 kmh 30.69 in1039.3 mb 0.00 in0.0 mm 0.00 in0.0 mm 0.00 in0.0 mm
04:07 PM 40.5°F4.7°C 21.3°F-5.9°C 46% 2.0 mph S3.2 kmh S 8.0 mph12.9 kmh 30.69 in1039.3 mb 0.00 in0.0 mm 0.00 in0.0 mm 0.00 in0.0 mm
04:08 PM 40.6°F4.8°C 21.9°F-5.6°C 47% 2.0 mph SSW3.2 kmh SSW 8.0 mph12.9 kmh 30.68 in1038.9 mb 0.00 in0.0 mm 0.00 in0.0 mm 0.00 in0.0 mm
04:09 PM 40.7°F4.8°C 21.5°F-5.8°C 46% 3.0 mph SW4.8 kmh SW 8.0 mph12.9 kmh 30.68 in1038.9 mb 0.00 in0.0 mm 0.00 in0.0 mm 0.00 in0.0 mm
04:10 PM 40.7°F4.8°C 21.5°F-5.8°C 46% 3.0 mph SW4.8 kmh SW 8.0 mph12.9 kmh 30.68 in1038.9 mb 0.00 in0.0 mm 0.00 in0.0 mm 0.00 in0.0 mm
04:11 PM 40.8°F4.9°C 21.6°F-5.8°C 46% 3.0 mph SW4.8 kmh SW 8.0 mph12.9 kmh 30.68 in1038.9 mb 0.00 in0.0 mm 0.00 in0.0 mm 0.00 in0.0 mm
04:12 PM 40.9°F4.9°C 22.2°F-5.4°C 47% 3.0 mph SW4.8 kmh SW 8.0 mph12.9 kmh 30.68 in1038.9 mb 0.00 in0.0 mm 0.00 in0.0 mm 0.00 in0.0 mm
04:13 PM 41.0°F5.0°C 22.3°F-5.4°C 47% 2.0 mph SW3.2 kmh SW 8.0 mph12.9 kmh 30.68 in1038.9 mb 0.00 in0.0 mm 0.00 in0.0 mm 0.00 in0.0 mm
04:14 PM 41.0°F5.0°C 21.8°F-5.7°C 46% 2.0 mph SW3.2 kmh SW 8.0 mph12.9 kmh 30.69 in1039.3 mb 0.00 in0.0 mm 0.00 in0.0 mm 0.00 in0.0 mm
04:15 PM 41.0°F5.0°C 21.3°F-5.9°C 45% 2.0 mph SW3.2 kmh SW 8.0 mph12.9 kmh 30.69 in1039.3 mb 0.00 in0.0 mm 0.00 in0.0 mm 0.00 in0.0 mm
04:16 PM 41.1°F5.1°C 22.4°F-5.3°C 47% 2.0 mph SW3.2 kmh SW 8.0 mph12.9 kmh 30.69 in1039.3 mb 0.00 in0.0 mm 0.00 in0.0 mm 0.00 in0.0 mm
04:17 PM 41.1°F5.1°C 22.4°F-5.3°C 47% 2.0 mph SW3.2 kmh SW 7.0 mph11.3 kmh 30.69 in1039.3 mb 0.00 in0.0 mm 0.00 in0.0 mm 0.00 in0.0 mm
04:18 PM 41.2°F5.1°C 22.5°F-5.3°C 47% 2.0 mph SW3.2 kmh SW 6.0 mph9.7 kmh 30.69 in1039.3 mb 0.00 in0.0 mm 0.00 in0.0 mm 0.00 in0.0 mm
04:19 PM 41.3°F5.2°C 22.1°F-5.5°C 46% 2.0 mph SW3.2 kmh SW 6.0 mph9.7 kmh 30.69 in1039.3 mb 0.00 in0.0 mm 0.00 in0.0 mm 0.00 in0.0 mm
04:20 PM 41.3°F5.2°C 22.1°F-5.5°C 46% 2.0 mph SW3.2 kmh SW 6.0 mph9.7 kmh 30.69 in1039.3 mb 0.00 in0.0 mm 0.00 in0.0 mm 0.00 in0.0 mm
04:21 PM 41.3°F5.2°C 22.1°F-5.5°C 46% 1.0 mph SW1.6 kmh SW 6.0 mph9.7 kmh 30.69 in1039.3 mb 0.00 in0.0 mm 0.00 in0.0 mm 0.00 in0.0 mm
04:22 PM 41.4°F5.2°C 21.6°F-5.8°C 45% 1.0 mph SW1.6 kmh SW 6.0 mph9.7 kmh 30.69 in1039.3 mb 0.00 in0.0 mm 0.00 in0.0 mm 0.00 in0.0 mm
04:23 PM 41.4°F5.2°C 21.6°F-5.8°C 45% 1.0 mph SSW1.6 kmh SSW 6.0 mph9.7 kmh 30.68 in1038.9 mb 0.00 in0.0 mm 0.00 in0.0 mm 0.00 in0.0 mm
04:24 PM 41.4°F5.2°C 21.6°F-5.8°C 45% 1.0 mph S1.6 kmh S 7.0 mph11.3 kmh 30.69 in1039.3 mb 0.00 in0.0 mm 0.00 in0.0 mm 0.00 in0.0 mm
04:25 PM 41.3°F5.2°C 21.5°F-5.8°C 45% 1.0 mph S1.6 kmh S 7.0 mph11.3 kmh 30.68 in1038.9 mb 0.00 in0.0 mm 0.00 in0.0 mm 0.00 in0.0 mm
04:26 PM 41.3°F5.2°C 21.0°F-6.1°C 44% 1.0 mph S1.6 kmh S 7.0 mph11.3 kmh 30.68 in1038.9 mb 0.00 in0.0 mm 0.00 in0.0 mm 0.00 in0.0 mm
04:27 PM 41.3°F5.2°C 21.5°F-5.8°C 45% 1.0 mph S1.6 kmh S 7.0 mph11.3 kmh 30.68 in1038.9 mb 0.00 in0.0 mm 0.00 in0.0 mm 0.00 in0.0 mm
04:28 PM 41.3°F5.2°C 21.5°F-5.8°C 45% 2.0 mph S3.2 kmh S 7.0 mph11.3 kmh 30.68 in1038.9 mb 0.00 in0.0 mm 0.00 in0.0 mm 0.00 in0.0 mm
04:29 PM 41.2°F5.1°C 21.4°F-5.9°C 45% 2.0 mph S3.2 kmh S 7.0 mph11.3 kmh 30.68 in1038.9 mb 0.00 in0.0 mm 0.00 in0.0 mm 0.00 in0.0 mm
04:30 PM 41.2°F5.1°C 20.9°F-6.2°C 44% 2.0 mph S3.2 kmh S 7.0 mph11.3 kmh 30.68 in1038.9 mb 0.00 in0.0 mm 0.00 in0.0 mm 0.00 in0.0 mm
04:31 PM 41.1°F5.1°C 20.8°F-6.2°C 44% 2.0 mph S3.2 kmh S 7.0 mph11.3 kmh 30.68 in1038.9 mb 0.00 in0.0 mm 0.00 in0.0 mm 0.00 in0.0 mm
04:32 PM 41.0°F5.0°C 20.7°F-6.3°C 44% 3.0 mph S4.8 kmh S 8.0 mph12.9 kmh 30.68 in1038.9 mb 0.00 in0.0 mm 0.00 in0.0 mm 0.00 in0.0 mm
04:33 PM 40.8°F4.9°C 20.5°F-6.4°C 44% 3.0 mph S4.8 kmh S 9.0 mph14.5 kmh 30.68 in1038.9 mb 0.00 in0.0 mm 0.00 in0.0 mm 0.00 in0.0 mm
04:34 PM 40.6°F4.8°C 20.4°F-6.4°C 44% 3.0 mph S4.8 kmh S 9.0 mph14.5 kmh 30.68 in1038.9 mb 0.00 in0.0 mm 0.00 in0.0 mm 0.00 in0.0 mm
04:35 PM 40.5°F4.7°C 20.3°F-6.5°C 44% 3.0 mph S4.8 kmh S 9.0 mph14.5 kmh 30.68 in1038.9 mb 0.00 in0.0 mm 0.00 in0.0 mm 0.00 in0.0 mm
04:36 PM 40.5°F4.7°C 20.8°F-6.2°C 45% 3.0 mph SSE4.8 kmh SSE 9.0 mph14.5 kmh 30.68 in1038.9 mb 0.00 in0.0 mm 0.00 in0.0 mm 0.00 in0.0 mm
04:37 PM 40.5°F4.7°C 20.8°F-6.2°C 45% 3.0 mph SSE4.8 kmh SSE 9.0 mph14.5 kmh 30.68 in1038.9 mb 0.00 in0.0 mm 0.00 in0.0 mm 0.00 in0.0 mm
04:38 PM 40.5°F4.7°C 20.8°F-6.2°C 45% 3.0 mph SSE4.8 kmh SSE 9.0 mph14.5 kmh 30.68 in1038.9 mb 0.00 in0.0 mm 0.00 in0.0 mm 0.00 in0.0 mm
04:39 PM 40.4°F4.7°C 20.7°F-6.3°C 45% 3.0 mph SSE4.8 kmh SSE 9.0 mph14.5 kmh 30.68 in1038.9 mb 0.00 in0.0 mm 0.00 in0.0 mm 0.00 in0.0 mm
04:40 PM 40.3°F4.6°C 19.5°F-6.9°C 43% 3.0 mph SE4.8 kmh SE 9.0 mph14.5 kmh 30.68 in1038.9 mb 0.00 in0.0 mm 0.00 in0.0 mm 0.00 in0.0 mm
04:41 PM 40.2°F4.6°C 19.5°F-6.9°C 43% 3.0 mph SSE4.8 kmh SSE 9.0 mph14.5 kmh 30.68 in1038.9 mb 0.00 in0.0 mm 0.00 in0.0 mm 0.00 in0.0 mm
04:42 PM 40.1°F4.5°C 19.9°F-6.7°C 44% 4.0 mph SSE6.4 kmh SSE 9.0 mph14.5 kmh 30.68 in1038.9 mb 0.00 in0.0 mm 0.00 in0.0 mm 0.00 in0.0 mm
04:43 PM 40.0°F4.4°C 19.3°F-7.1°C 43% 3.0 mph SSE4.8 kmh SSE 9.0 mph14.5 kmh 30.68 in1038.9 mb 0.00 in0.0 mm 0.00 in0.0 mm 0.00 in0.0 mm
04:44 PM 39.9°F4.4°C 19.2°F-7.1°C 43% 3.0 mph SSE4.8 kmh SSE 9.0 mph14.5 kmh 30.68 in1038.9 mb 0.00 in0.0 mm 0.00 in0.0 mm 0.00 in0.0 mm
04:45 PM 39.7°F4.3°C 19.0°F-7.2°C 43% 4.0 mph SSE6.4 kmh SSE 9.0 mph14.5 kmh 30.68 in1038.9 mb 0.00 in0.0 mm 0.00 in0.0 mm 0.00 in0.0 mm
04:46 PM 39.7°F4.3°C 19.5°F-6.9°C 44% 4.0 mph SSE6.4 kmh SSE 9.0 mph14.5 kmh 30.68 in1038.9 mb 0.00 in0.0 mm 0.00 in0.0 mm 0.00 in0.0 mm
04:47 PM 39.6°F4.2°C 19.5°F-6.9°C 44% 4.0 mph SSE6.4 kmh SSE 9.0 mph14.5 kmh 30.68 in1038.9 mb 0.00 in0.0 mm 0.00 in0.0 mm 0.00 in0.0 mm
04:48 PM 39.6°F4.2°C 19.5°F-6.9°C 44% 4.0 mph SSE6.4 kmh SSE 9.0 mph14.5 kmh 30.68 in1038.9 mb 0.00 in0.0 mm 0.00 in0.0 mm 0.00 in0.0 mm
04:49 PM 39.6°F4.2°C 20.0°F-6.7°C 45% 4.0 mph S6.4 kmh S 9.0 mph14.5 kmh 30.68 in1038.9 mb 0.00 in0.0 mm 0.00 in0.0 mm 0.00 in0.0 mm
04:50 PM 39.5°F4.2°C 19.9°F-6.7°C 45% 4.0 mph S6.4 kmh S 9.0 mph14.5 kmh 30.68 in1038.9 mb 0.00 in0.0 mm 0.00 in0.0 mm 0.00 in0.0 mm
04:51 PM 39.5°F4.2°C 19.9°F-6.7°C 45% 4.0 mph S6.4 kmh S 8.0 mph12.9 kmh 30.68 in1038.9 mb 0.00 in0.0 mm 0.00 in0.0 mm 0.00 in0.0 mm
04:52 PM 39.5°F4.2°C 19.9°F-6.7°C 45% 4.0 mph S6.4 kmh S 8.0 mph12.9 kmh 30.68 in1038.9 mb 0.00 in0.0 mm 0.00 in0.0 mm 0.00 in0.0 mm
04:53 PM 39.5°F4.2°C 20.4°F-6.4°C 46% 4.0 mph S6.4 kmh S 8.0 mph12.9 kmh 30.68 in1038.9 mb 0.00 in0.0 mm 0.00 in0.0 mm 0.00 in0.0 mm
04:54 PM 39.5°F4.2°C 20.4°F-6.4°C 46% 3.0 mph SSE4.8 kmh SSE 8.0 mph12.9 kmh 30.68 in1038.9 mb 0.00 in0.0 mm 0.00 in0.0 mm 0.00 in0.0 mm
04:55 PM 39.4°F4.1°C 19.8°F-6.8°C 45% 3.0 mph SSE4.8 kmh SSE 7.0 mph11.3 kmh 30.68 in1038.9 mb 0.00 in0.0 mm 0.00 in0.0 mm 0.00 in0.0 mm
04:56 PM 39.4°F4.1°C 20.3°F-6.5°C 46% 3.0 mph S4.8 kmh S 7.0 mph11.3 kmh 30.68 in1038.9 mb 0.00 in0.0 mm 0.00 in0.0 mm 0.00 in0.0 mm
04:57 PM 39.4°F4.1°C 20.8°F-6.2°C 47% 3.0 mph SSE4.8 kmh SSE 8.0 mph12.9 kmh 30.68 in1038.9 mb 0.00 in0.0 mm 0.00 in0.0 mm 0.00 in0.0 mm
04:58 PM 39.4°F4.1°C 20.8°F-6.2°C 47% 3.0 mph SSE4.8 kmh SSE 9.0 mph14.5 kmh 30.68 in1038.9 mb 0.00 in0.0 mm 0.00 in0.0 mm 0.00 in0.0 mm
04:59 PM 39.4°F4.1°C 20.3°F-6.5°C 46% 3.0 mph SSE4.8 kmh SSE 9.0 mph14.5 kmh 30.68 in1038.9 mb 0.00 in0.0 mm 0.00 in0.0 mm 0.00 in0.0 mm
05:00 PM 39.3°F4.1°C 20.2°F-6.6°C 46% 3.0 mph SSE4.8 kmh SSE 9.0 mph14.5 kmh 30.68 in1038.9 mb 0.00 in0.0 mm 0.00 in0.0 mm 0.00 in0.0 mm
05:01 PM 39.2°F4.0°C 20.1°F-6.6°C 46% 3.0 mph SSE4.8 kmh SSE 9.0 mph14.5 kmh 30.68 in1038.9 mb 0.00 in0.0 mm 0.00 in0.0 mm 0.00 in0.0 mm
05:02 PM 39.2°F4.0°C 20.6°F-6.3°C 47% 3.0 mph SSE4.8 kmh SSE 9.0 mph14.5 kmh 30.67 in1038.6 mb 0.00 in0.0 mm 0.00 in0.0 mm 0.00 in0.0 mm
05:03 PM 39.1°F3.9°C 20.0°F-6.7°C 46% 4.0 mph SSE6.4 kmh SSE 9.0 mph14.5 kmh 30.67 in1038.6 mb 0.00 in0.0 mm 0.00 in0.0 mm 0.00 in0.0 mm
05:04 PM 39.0°F3.9°C 19.9°F-6.7°C 46% 4.0 mph SSE6.4 kmh SSE 9.0 mph14.5 kmh 30.67 in1038.6 mb 0.00 in0.0 mm 0.00 in0.0 mm 0.00 in0.0 mm
05:05 PM 38.9°F3.8°C 19.9°F-6.7°C 46% 4.0 mph SSE6.4 kmh SSE 9.0 mph14.5 kmh 30.67 in1038.6 mb 0.00 in0.0 mm 0.00 in0.0 mm 0.00 in0.0 mm
05:06 PM 38.9°F3.8°C 19.9°F-6.7°C 46% 4.0 mph S6.4 kmh S 9.0 mph14.5 kmh 30.68 in1038.9 mb 0.00 in0.0 mm 0.00 in0.0 mm 0.00 in0.0 mm
05:07 PM 38.9°F3.8°C 20.4°F-6.4°C 47% 4.0 mph S6.4 kmh S 9.0 mph14.5 kmh 30.68 in1038.9 mb 0.00 in0.0 mm 0.00 in0.0 mm 0.00 in0.0 mm
05:08 PM 38.9°F3.8°C 20.4°F-6.4°C 47% 4.0 mph S6.4 kmh S 7.0 mph11.3 kmh 30.68 in1038.9 mb 0.00 in0.0 mm 0.00 in0.0 mm 0.00 in0.0 mm
05:09 PM 38.9°F3.8°C 20.4°F-6.4°C 47% 3.0 mph S4.8 kmh S 7.0 mph11.3 kmh 30.68 in1038.9 mb 0.00 in0.0 mm 0.00 in0.0 mm 0.00 in0.0 mm
05:10 PM 38.8°F3.8°C 20.3°F-6.5°C 47% 3.0 mph S4.8 kmh S 7.0 mph11.3 kmh 30.68 in1038.9 mb 0.00 in0.0 mm 0.00 in0.0 mm 0.00 in0.0 mm
05:11 PM 38.8°F3.8°C 20.3°F-6.5°C 47% 3.0 mph SSE4.8 kmh SSE 7.0 mph11.3 kmh 30.68 in1038.9 mb 0.00 in0.0 mm 0.00 in0.0 mm 0.00 in0.0 mm
05:12 PM 38.8°F3.8°C 19.8°F-6.8°C 46% 4.0 mph SSE6.4 kmh SSE 8.0 mph12.9 kmh 30.68 in1038.9 mb 0.00 in0.0 mm 0.00 in0.0 mm 0.00 in0.0 mm
05:13 PM 38.7°F3.7°C 19.7°F-6.8°C 46% 4.0 mph SSE6.4 kmh SSE 9.0 mph14.5 kmh 30.68 in1038.9 mb 0.00 in0.0 mm 0.00 in0.0 mm 0.00 in0.0 mm
05:14 PM 38.6°F3.7°C 19.6°F-6.9°C 46% 4.0 mph SSE6.4 kmh SSE 9.0 mph14.5 kmh 30.68 in1038.9 mb 0.00 in0.0 mm 0.00 in0.0 mm 0.00 in0.0 mm
05:15 PM 38.6°F3.7°C 19.6°F-6.9°C 46% 4.0 mph SSE6.4 kmh SSE 9.0 mph14.5 kmh 30.68 in1038.9 mb 0.00 in0.0 mm 0.00 in0.0 mm 0.00 in0.0 mm
05:16 PM 38.6°F3.7°C 19.6°F-6.9°C 46% 4.0 mph SSE6.4 kmh SSE 9.0 mph14.5 kmh 30.68 in1038.9 mb 0.00 in0.0 mm 0.00 in0.0 mm 0.00 in0.0 mm
05:17 PM 38.5°F3.6°C 19.5°F-6.9°C 46% 4.0 mph SSE6.4 kmh SSE 9.0 mph14.5 kmh 30.68 in1038.9 mb 0.00 in0.0 mm 0.00 in0.0 mm 0.00 in0.0 mm
05:18 PM 38.5°F3.6°C 19.5°F-6.9°C 46% 4.0 mph SSE6.4 kmh SSE 9.0 mph14.5 kmh 30.68 in1038.9 mb 0.00 in0.0 mm 0.00 in0.0 mm 0.00 in0.0 mm
05:19 PM 38.5°F3.6°C 19.5°F-6.9°C 46% 4.0 mph SSE6.4 kmh SSE 9.0 mph14.5 kmh 30.68 in1038.9 mb 0.00 in0.0 mm 0.00 in0.0 mm 0.00 in0.0 mm
05:20 PM 38.5°F3.6°C 19.5°F-6.9°C 46% 4.0 mph SSE6.4 kmh SSE 9.0 mph14.5 kmh 30.68 in1038.9 mb 0.00 in0.0 mm 0.00 in0.0 mm 0.00 in0.0 mm
05:21 PM 38.4°F3.6°C 19.4°F-7.0°C 46% 4.0 mph SSE6.4 kmh SSE 9.0 mph14.5 kmh 30.68 in1038.9 mb 0.00 in0.0 mm 0.00 in0.0 mm 0.00 in0.0 mm
05:22 PM 38.4°F3.6°C 19.4°F-7.0°C 46% 4.0 mph S6.4 kmh S 9.0 mph14.5 kmh 30.68 in1038.9 mb 0.00 in0.0 mm 0.00 in0.0 mm 0.00 in0.0 mm
05:23 PM 38.4°F3.6°C 19.4°F-7.0°C 46% 4.0 mph SSE6.4 kmh SSE 7.0 mph11.3 kmh 30.68 in1038.9 mb 0.00 in0.0 mm 0.00 in0.0 mm 0.00 in0.0 mm
05:24 PM 38.4°F3.6°C 19.4°F-7.0°C 46% 3.0 mph SSE4.8 kmh SSE 7.0 mph11.3 kmh 30.68 in1038.9 mb 0.00 in0.0 mm 0.00 in0.0 mm 0.00 in0.0 mm
05:25 PM 38.5°F3.6°C 20.0°F-6.7°C 47% 4.0 mph SSE6.4 kmh SSE 7.0 mph11.3 kmh 30.68 in1038.9 mb 0.00 in0.0 mm 0.00 in0.0 mm 0.00 in0.0 mm
05:26 PM 38.5°F3.6°C 20.0°F-6.7°C 47% 4.0 mph SSE6.4 kmh SSE 7.0 mph11.3 kmh 30.68 in1038.9 mb 0.00 in0.0 mm 0.00 in0.0 mm 0.00 in0.0 mm
05:27 PM 38.5°F3.6°C 20.0°F-6.7°C 47% 3.0 mph SSE4.8 kmh SSE 7.0 mph11.3 kmh 30.67 in1038.6 mb 0.00 in0.0 mm 0.00 in0.0 mm 0.00 in0.0 mm
05:28 PM 38.5°F3.6°C 20.0°F-6.7°C 47% 3.0 mph SSE4.8 kmh SSE 7.0 mph11.3 kmh 30.67 in1038.6 mb 0.00 in0.0 mm 0.00 in0.0 mm 0.00 in0.0 mm
05:29 PM 38.5°F3.6°C 20.0°F-6.7°C 47% 3.0 mph SSE4.8 kmh SSE 7.0 mph11.3 kmh 30.67 in1038.6 mb 0.00 in0.0 mm 0.00 in0.0 mm 0.00 in0.0 mm
05:30 PM 38.5°F3.6°C 20.5°F-6.4°C 48% 3.0 mph SSE4.8 kmh SSE 7.0 mph11.3 kmh 30.67 in1038.6 mb 0.00 in0.0 mm 0.00 in0.0 mm 0.00 in0.0 mm
05:31 PM 38.5°F3.6°C 20.5°F-6.4°C 48% 3.0 mph SSE4.8 kmh SSE 7.0 mph11.3 kmh 30.67 in1038.6 mb 0.00 in0.0 mm 0.00 in0.0 mm 0.00 in0.0 mm
05:32 PM 38.4°F3.6°C 20.4°F-6.4°C 48% 3.0 mph SE4.8 kmh SE 7.0 mph11.3 kmh 30.67 in1038.6 mb 0.00 in0.0 mm 0.00 in0.0 mm 0.00 in0.0 mm
05:33 PM 38.4°F3.6°C 19.9°F-6.7°C 47% 3.0 mph SE4.8 kmh SE 7.0 mph11.3 kmh 30.67 in1038.6 mb 0.00 in0.0 mm 0.00 in0.0 mm 0.00 in0.0 mm
05:34 PM 38.4°F3.6°C 19.9°F-6.7°C 47% 3.0 mph SE4.8 kmh SE 7.0 mph11.3 kmh 30.67 in1038.6 mb 0.00 in0.0 mm 0.00 in0.0 mm 0.00 in0.0 mm
05:35 PM 38.3°F3.5°C 19.8°F-6.8°C 47% 2.0 mph SE3.2 kmh SE 6.0 mph9.7 kmh 30.67 in1038.6 mb 0.00 in0.0 mm 0.00 in0.0 mm 0.00 in0.0 mm
05:36 PM 38.3°F3.5°C 20.3°F-6.5°C 48% 2.0 mph SE3.2 kmh SE 6.0 mph9.7 kmh 30.67 in1038.6 mb 0.00 in0.0 mm 0.00 in0.0 mm 0.00 in0.0 mm
05:37 PM 38.3°F3.5°C 20.3°F-6.5°C 48% 3.0 mph SE4.8 kmh SE 6.0 mph9.7 kmh 30.66 in1038.3 mb 0.00 in0.0 mm 0.00 in0.0 mm 0.00 in0.0 mm
05:38 PM 38.2°F3.4°C 19.7°F-6.8°C 47% 2.0 mph SE3.2 kmh SE 7.0 mph11.3 kmh 30.66 in1038.3 mb 0.00 in0.0 mm 0.00 in0.0 mm 0.00 in0.0 mm
05:39 PM 38.2°F3.4°C 19.7°F-6.8°C 47% 3.0 mph SE4.8 kmh SE 7.0 mph11.3 kmh 30.66 in1038.3 mb 0.00 in0.0 mm 0.00 in0.0 mm 0.00 in0.0 mm
05:40 PM 38.2°F3.4°C 19.7°F-6.8°C 47% 3.0 mph SE4.8 kmh SE 7.0 mph11.3 kmh 30.66 in1038.3 mb 0.00 in0.0 mm 0.00 in0.0 mm 0.00 in0.0 mm
05:41 PM 38.2°F3.4°C 20.2°F-6.6°C 48% 2.0 mph SE3.2 kmh SE 7.0 mph11.3 kmh 30.67 in1038.6 mb 0.00 in0.0 mm 0.00 in0.0 mm 0.00 in0.0 mm
05:42 PM 38.1°F3.4°C 20.1°F-6.6°C 48% 2.0 mph SE3.2 kmh SE 7.0 mph11.3 kmh 30.66 in1038.3 mb 0.00 in0.0 mm 0.00 in0.0 mm 0.00 in0.0 mm
05:43 PM 38.1°F3.4°C 20.1°F-6.6°C 48% 2.0 mph SE3.2 kmh SE 7.0 mph11.3 kmh 30.66 in1038.3 mb 0.00 in0.0 mm 0.00 in0.0 mm 0.00 in0.0 mm
05:44 PM 38.1°F3.4°C 20.6°F-6.3°C 49% 2.0 mph SE3.2 kmh SE 7.0 mph11.3 kmh 30.66 in1038.3 mb 0.00 in0.0 mm 0.00 in0.0 mm 0.00 in0.0 mm
05:45 PM 38.1°F3.4°C 20.6°F-6.3°C 49% 2.0 mph SE3.2 kmh SE 7.0 mph11.3 kmh 30.66 in1038.3 mb 0.00 in0.0 mm 0.00 in0.0 mm 0.00 in0.0 mm
05:46 PM 38.1°F3.4°C 20.6°F-6.3°C 49% 2.0 mph SE3.2 kmh SE 7.0 mph11.3 kmh 30.66 in1038.3 mb 0.00 in0.0 mm 0.00 in0.0 mm 0.00 in0.0 mm
05:47 PM 38.0°F3.3°C 20.5°F-6.4°C 49% 2.0 mph SE3.2 kmh SE 7.0 mph11.3 kmh 30.66 in1038.3 mb 0.00 in0.0 mm 0.00 in0.0 mm 0.00 in0.0 mm
05:48 PM 38.0°F3.3°C 20.5°F-6.4°C 49% 2.0 mph SE3.2 kmh SE 6.0 mph9.7 kmh 30.66 in1038.3 mb 0.00 in0.0 mm 0.00 in0.0 mm 0.00 in0.0 mm
05:49 PM 38.0°F3.3°C 20.5°F-6.4°C 49% 2.0 mph SE3.2 kmh SE 6.0 mph9.7 kmh 30.66 in1038.3 mb 0.00 in0.0 mm 0.00 in0.0 mm 0.00 in0.0 mm
05:50 PM 38.0°F3.3°C 20.5°F-6.4°C 49% 1.0 mph SE1.6 kmh SE 6.0 mph9.7 kmh 30.66 in1038.3 mb 0.00 in0.0 mm 0.00 in0.0 mm 0.00 in0.0 mm
05:51 PM 38.0°F3.3°C 21.0°F-6.1°C 50% 1.0 mph SE1.6 kmh SE 6.0 mph9.7 kmh 30.66 in1038.3 mb 0.00 in0.0 mm 0.00 in0.0 mm 0.00 in0.0 mm
05:52 PM 38.0°F3.3°C 21.0°F-6.1°C 50% 1.0 mph SE1.6 kmh SE 6.0 mph9.7 kmh 30.66 in1038.3 mb 0.00 in0.0 mm 0.00 in0.0 mm 0.00 in0.0 mm
05:53 PM 37.9°F3.3°C 20.9°F-6.2°C 50% 1.0 mph SE1.6 kmh SE 6.0 mph9.7 kmh 30.66 in1038.3 mb 0.00 in0.0 mm 0.00 in0.0 mm 0.00 in0.0 mm
05:54 PM 37.9°F3.3°C 20.9°F-6.2°C 50% 2.0 mph SE3.2 kmh SE 7.0 mph11.3 kmh 30.66 in1038.3 mb 0.00 in0.0 mm 0.00 in0.0 mm 0.00 in0.0 mm
05:55 PM 37.9°F3.3°C 20.9°F-6.2°C 50% 2.0 mph SE3.2 kmh SE 7.0 mph11.3 kmh 30.66 in1038.3 mb 0.00 in0.0 mm 0.00 in0.0 mm 0.00 in0.0 mm
05:56 PM 37.9°F3.3°C 20.9°F-6.2°C 50% 1.0 mph SE1.6 kmh SE 7.0 mph11.3 kmh 30.66 in1038.3 mb 0.00 in0.0 mm 0.00 in0.0 mm 0.00 in0.0 mm
05:57 PM 37.9°F3.3°C 20.9°F-6.2°C 50% 2.0 mph SE3.2 kmh SE 7.0 mph11.3 kmh 30.66 in1038.3 mb 0.00 in0.0 mm 0.00 in0.0 mm 0.00 in0.0 mm
05:58 PM 37.8°F3.2°C 20.8°F-6.2°C 50% 2.0 mph SE3.2 kmh SE 7.0 mph11.3 kmh 30.66 in1038.3 mb 0.00 in0.0 mm 0.00 in0.0 mm 0.00 in0.0 mm
05:59 PM 37.8°F3.2°C 21.3°F-5.9°C 51% 2.0 mph SE3.2 kmh SE 7.0 mph11.3 kmh 30.66 in1038.3 mb 0.00 in0.0 mm 0.00 in0.0 mm 0.00 in0.0 mm
06:00 PM 37.8°F3.2°C 20.8°F-6.2°C 50% 2.0 mph SE3.2 kmh SE 7.0 mph11.3 kmh 30.66 in1038.3 mb 0.00 in0.0 mm 0.00 in0.0 mm 0.00 in0.0 mm
06:01 PM 37.8°F3.2°C 20.8°F-6.2°C 50% 2.0 mph SE3.2 kmh SE 7.0 mph11.3 kmh 30.66 in1038.3 mb 0.00 in0.0 mm 0.00 in0.0 mm 0.00 in0.0 mm
06:02 PM 37.7°F3.2°C 20.7°F-6.3°C 50% 3.0 mph SE4.8 kmh SE 7.0 mph11.3 kmh 30.66 in1038.3 mb 0.00 in0.0 mm 0.00 in0.0 mm 0.00 in0.0 mm
06:03 PM 37.7°F3.2°C 20.7°F-6.3°C 50% 2.0 mph SE3.2 kmh SE 7.0 mph11.3 kmh 30.66 in1038.3 mb 0.00 in0.0 mm 0.00 in0.0 mm 0.00 in0.0 mm
06:04 PM 37.7°F3.2°C 20.7°F-6.3°C 50% 2.0 mph SE3.2 kmh SE 6.0 mph9.7 kmh 30.66 in1038.3 mb 0.00 in0.0 mm 0.00 in0.0 mm 0.00 in0.0 mm
06:05 PM 37.6°F3.1°C 20.6°F-6.3°C 50% 3.0 mph SE4.8 kmh SE 6.0 mph9.7 kmh 30.66 in1038.3 mb 0.00 in0.0 mm 0.00 in0.0 mm 0.00 in0.0 mm
06:06 PM 37.6°F3.1°C 20.6°F-6.3°C 50% 3.0 mph SE4.8 kmh SE 6.0 mph9.7 kmh 30.66 in1038.3 mb 0.00 in0.0 mm 0.00 in0.0 mm 0.00 in0.0 mm
06:07 PM 37.5°F3.1°C 20.5°F-6.4°C 50% 3.0 mph SE4.8 kmh SE 8.0 mph12.9 kmh 30.66 in1038.3 mb 0.00 in0.0 mm 0.00 in0.0 mm 0.00 in0.0 mm
06:08 PM 37.5°F3.1°C 20.5°F-6.4°C 50% 3.0 mph SE4.8 kmh SE 8.0 mph12.9 kmh 30.66 in1038.3 mb 0.00 in0.0 mm 0.00 in0.0 mm 0.00 in0.0 mm
06:09 PM 37.4°F3.0°C 20.4°F-6.4°C 50% 3.0 mph SE4.8 kmh SE 8.0 mph12.9 kmh 30.67 in1038.6 mb 0.00 in0.0 mm 0.00 in0.0 mm 0.00 in0.0 mm
06:10 PM 37.4°F3.0°C 20.4°F-6.4°C 50% 3.0 mph SE4.8 kmh SE 8.0 mph12.9 kmh 30.67 in1038.6 mb 0.00 in0.0 mm 0.00 in0.0 mm 0.00 in0.0 mm
06:11 PM 37.3°F2.9°C 20.3°F-6.5°C 50% 3.0 mph SE4.8 kmh SE 8.0 mph12.9 kmh 30.67 in1038.6 mb 0.00 in0.0 mm 0.00 in0.0 mm 0.00 in0.0 mm
06:12 PM 37.3°F2.9°C 20.3°F-6.5°C 50% 3.0 mph SE4.8 kmh SE 8.0 mph12.9 kmh 30.67 in1038.6 mb 0.00 in0.0 mm 0.00 in0.0 mm 0.00 in0.0 mm
06:13 PM 37.3°F2.9°C 20.3°F-6.5°C 50% 3.0 mph SE4.8 kmh SE 8.0 mph12.9 kmh 30.67 in1038.6 mb 0.00 in0.0 mm 0.00 in0.0 mm 0.00 in0.0 mm
06:14 PM 37.2°F2.9°C 20.2°F-6.6°C 50% 3.0 mph SE4.8 kmh SE 8.0 mph12.9 kmh 30.67 in1038.6 mb 0.00 in0.0 mm 0.00 in0.0 mm 0.00 in0.0 mm
06:15 PM 37.2°F2.9°C 20.2°F-6.6°C 50% 3.0 mph SE4.8 kmh SE 8.0 mph12.9 kmh 30.67 in1038.6 mb 0.00 in0.0 mm 0.00 in0.0 mm 0.00 in0.0 mm
06:16 PM 37.2°F2.9°C 20.2°F-6.6°C 50% 3.0 mph SE4.8 kmh SE 8.0 mph12.9 kmh 30.67 in1038.6 mb 0.00 in0.0 mm 0.00 in0.0 mm 0.00 in0.0 mm
06:17 PM 37.1°F2.8°C 20.2°F-6.6°C 50% 3.0 mph SE4.8 kmh SE 7.0 mph11.3 kmh 30.67 in1038.6 mb 0.00 in0.0 mm 0.00 in0.0 mm 0.00 in0.0 mm
06:18 PM 37.1°F2.8°C 20.2°F-6.6°C 50% 3.0 mph SE4.8 kmh SE 7.0 mph11.3 kmh 30.67 in1038.6 mb 0.00 in0.0 mm 0.00 in0.0 mm 0.00 in0.0 mm
06:19 PM 37.0°F2.8°C 20.1°F-6.6°C 50% 3.0 mph SE4.8 kmh SE 7.0 mph11.3 kmh 30.67 in1038.6 mb 0.00 in0.0 mm 0.00 in0.0 mm 0.00 in0.0 mm
06:20 PM 37.0°F2.8°C 20.1°F-6.6°C 50% 3.0 mph SE4.8 kmh SE 7.0 mph11.3 kmh 30.67 in1038.6 mb 0.00 in0.0 mm 0.00 in0.0 mm 0.00 in0.0 mm
06:21 PM 37.0°F2.8°C 20.1°F-6.6°C 50% 2.0 mph SE3.2 kmh SE 6.0 mph9.7 kmh 30.67 in1038.6 mb 0.00 in0.0 mm 0.00 in0.0 mm 0.00 in0.0 mm
06:22 PM 36.9°F2.7°C 20.0°F-6.7°C 50% 2.0 mph SE3.2 kmh SE 6.0 mph9.7 kmh 30.67 in1038.6 mb 0.00 in0.0 mm 0.00 in0.0 mm 0.00 in0.0 mm
06:23 PM 36.9°F2.7°C 20.0°F-6.7°C 50% 2.0 mph SE3.2 kmh SE 6.0 mph9.7 kmh 30.67 in1038.6 mb 0.00 in0.0 mm 0.00 in0.0 mm 0.00 in0.0 mm
06:24 PM 36.9°F2.7°C 20.0°F-6.7°C 50% 2.0 mph SE3.2 kmh SE 5.0 mph8.0 kmh 30.67 in1038.6 mb 0.00 in0.0 mm 0.00 in0.0 mm 0.00 in0.0 mm
06:25 PM 36.8°F2.7°C 20.3°F-6.5°C 51% 1.0 mph SE1.6 kmh SE 5.0 mph8.0 kmh 30.67 in1038.6 mb 0.00 in0.0 mm 0.00 in0.0 mm 0.00 in0.0 mm
06:26 PM 36.8°F2.7°C 20.3°F-6.5°C 51% 1.0 mph SE1.6 kmh SE 5.0 mph8.0 kmh 30.67 in1038.6 mb 0.00 in0.0 mm 0.00 in0.0 mm 0.00 in0.0 mm
06:27 PM 36.8°F2.7°C 20.3°F-6.5°C 51% 1.0 mph SE1.6 kmh SE 5.0 mph8.0 kmh 30.67 in1038.6 mb 0.00 in0.0 mm 0.00 in0.0 mm 0.00 in0.0 mm
06:28 PM 36.8°F2.7°C 20.3°F-6.5°C 51% 1.0 mph SE1.6 kmh SE 5.0 mph8.0 kmh 30.67 in1038.6 mb 0.00 in0.0 mm 0.00 in0.0 mm 0.00 in0.0 mm
06:29 PM 36.7°F2.6°C 20.3°F-6.5°C 51% 1.0 mph SE1.6 kmh SE 4.0 mph6.4 kmh 30.67 in1038.6 mb 0.00 in0.0 mm 0.00 in0.0 mm 0.00 in0.0 mm
06:30 PM 36.7°F2.6°C 20.3°F-6.5°C 51% 1.0 mph SE1.6 kmh SE 4.0 mph6.4 kmh 30.67 in1038.6 mb 0.00 in0.0 mm 0.00 in0.0 mm 0.00 in0.0 mm
06:31 PM 36.6°F2.6°C 20.2°F-6.6°C 51% 1.0 mph SE1.6 kmh SE 4.0 mph6.4 kmh 30.67 in1038.6 mb 0.00 in0.0 mm 0.00 in0.0 mm 0.00 in0.0 mm
06:32 PM 36.6°F2.6°C 20.2°F-6.6°C 51% 1.0 mph SE1.6 kmh SE 2.0 mph3.2 kmh 30.67 in1038.6 mb 0.00 in0.0 mm 0.00 in0.0 mm 0.00 in0.0 mm
06:33 PM 36.6°F2.6°C 20.6°F-6.3°C 52% Calm Calm 2.0 mph3.2 kmh 30.67 in1038.6 mb 0.00 in0.0 mm 0.00 in0.0 mm 0.00 in0.0 mm
06:34 PM 36.5°F2.5°C 20.5°F-6.4°C 52% Calm Calm 2.0 mph3.2 kmh 30.67 in1038.6 mb 0.00 in0.0 mm 0.00 in0.0 mm 0.00 in0.0 mm
06:35 PM 36.5°F2.5°C 20.5°F-6.4°C 52% Calm Calm 4.0 mph6.4 kmh 30.67 in1038.6 mb 0.00 in0.0 mm 0.00 in0.0 mm 0.00 in0.0 mm
06:36 PM 36.5°F2.5°C 20.5°F-6.4°C 52% Calm Calm 4.0 mph6.4 kmh 30.67 in1038.6 mb 0.00 in0.0 mm 0.00 in0.0 mm 0.00 in0.0 mm
06:37 PM 36.4°F2.4°C 20.4°F-6.4°C 52% Calm Calm 4.0 mph6.4 kmh 30.67 in1038.6 mb 0.00 in0.0 mm 0.00 in0.0 mm 0.00 in0.0 mm
06:38 PM 36.4°F2.4°C 20.4°F-6.4°C 52% Calm Calm 4.0 mph6.4 kmh 30.67 in1038.6 mb 0.00 in0.0 mm 0.00 in0.0 mm 0.00 in0.0 mm
06:39 PM 36.4°F2.4°C 20.4°F-6.4°C 52% Calm Calm 4.0 mph6.4 kmh 30.67 in1038.6 mb 0.00 in0.0 mm 0.00 in0.0 mm 0.00 in0.0 mm
06:40 PM 36.4°F2.4°C 20.4°F-6.4°C 52% Calm Calm 4.0 mph6.4 kmh 30.67 in1038.6 mb 0.00 in0.0 mm 0.00 in0.0 mm 0.00 in0.0 mm
06:41 PM 36.4°F2.4°C 20.4°F-6.4°C 52% Calm Calm 4.0 mph6.4 kmh 30.67 in1038.6 mb 0.00 in0.0 mm 0.00 in0.0 mm 0.00 in0.0 mm
06:42 PM 36.4°F2.4°C 20.4°F-6.4°C 52% Calm Calm 4.0 mph6.4 kmh 30.66 in1038.3 mb 0.00 in0.0 mm 0.00 in0.0 mm 0.00 in0.0 mm
06:43 PM 36.4°F2.4°C 20.4°F-6.4°C 52% Calm Calm 4.0 mph6.4 kmh 30.66 in1038.3 mb 0.00 in0.0 mm 0.00 in0.0 mm 0.00 in0.0 mm
06:44 PM 36.4°F2.4°C 20.4°F-6.4°C 52% Calm Calm 5.0 mph8.0 kmh 30.66 in1038.3 mb 0.00 in0.0 mm 0.00 in0.0 mm 0.00 in0.0 mm
06:45 PM 36.4°F2.4°C 20.4°F-6.4°C 52% 1.0 mph SE1.6 kmh SE 5.0 mph8.0 kmh 30.67 in1038.6 mb 0.00 in0.0 mm 0.00 in0.0 mm 0.00 in0.0 mm
06:46 PM 36.4°F2.4°C 20.4°F-6.4°C 52% 1.0 mph SE1.6 kmh SE 5.0 mph8.0 kmh 30.66 in1038.3 mb 0.00 in0.0 mm 0.00 in0.0 mm 0.00 in0.0 mm
06:47 PM 36.4°F2.4°C 20.4°F-6.4°C 52% 1.0 mph SE1.6 kmh SE 5.0 mph8.0 kmh 30.67 in1038.6 mb 0.00 in0.0 mm 0.00 in0.0 mm 0.00 in0.0 mm
06:48 PM 36.4°F2.4°C 20.4°F-6.4°C 52% 1.0 mph SE1.6 kmh SE 5.0 mph8.0 kmh 30.66 in1038.3 mb 0.00 in0.0 mm 0.00 in0.0 mm 0.00 in0.0 mm
06:49 PM 36.4°F2.4°C 20.4°F-6.4°C 52% 1.0 mph SE1.6 kmh SE 5.0 mph8.0 kmh 30.66 in1038.3 mb 0.00 in0.0 mm 0.00 in0.0 mm 0.00 in0.0 mm
06:50 PM 36.5°F2.5°C 20.5°F-6.4°C 52% 1.0 mph SE1.6 kmh SE 5.0 mph8.0 kmh 30.66 in1038.3 mb 0.00 in0.0 mm 0.00 in0.0 mm 0.00 in0.0 mm
06:51 PM 36.5°F2.5°C 20.5°F-6.4°C 52% 1.0 mph SE1.6 kmh SE 5.0 mph8.0 kmh 30.66 in1038.3 mb 0.00 in0.0 mm 0.00 in0.0 mm 0.00 in0.0 mm
06:52 PM 36.5°F2.5°C 20.5°F-6.4°C 52% 1.0 mph SE1.6 kmh SE 5.0 mph8.0 kmh 30.66 in1038.3 mb 0.00 in0.0 mm 0.00 in0.0 mm 0.00 in0.0 mm
06:53 PM 36.5°F2.5°C 20.5°F-6.4°C 52% 1.0 mph SE1.6 kmh SE 5.0 mph8.0 kmh 30.66 in1038.3 mb 0.00 in0.0 mm 0.00 in0.0 mm 0.00 in0.0 mm
06:54 PM 36.5°F2.5°C 21.0°F-6.1°C 53% 1.0 mph SE1.6 kmh SE 6.0 mph9.7 kmh 30.66 in1038.3 mb 0.00 in0.0 mm 0.00 in0.0 mm 0.00 in0.0 mm
06:55 PM 36.5°F2.5°C 21.0°F-6.1°C 53% 1.0 mph SE1.6 kmh SE 6.0 mph9.7 kmh 30.66 in1038.3 mb 0.00 in0.0 mm 0.00 in0.0 mm 0.00 in0.0 mm
06:56 PM 36.5°F2.5°C 21.0°F-6.1°C 53% Calm Calm 6.0 mph9.7 kmh 30.66 in1038.3 mb 0.00 in0.0 mm 0.00 in0.0 mm 0.00 in0.0 mm
06:57 PM 36.5°F2.5°C 21.0°F-6.1°C 53% Calm Calm 6.0 mph9.7 kmh 30.66 in1038.3 mb 0.00 in0.0 mm 0.00 in0.0 mm 0.00 in0.0 mm
06:58 PM 36.6°F2.6°C 21.1°F-6.1°C 53% 1.0 mph SE1.6 kmh SE 6.0 mph9.7 kmh 30.66 in1038.3 mb 0.00 in0.0 mm 0.00 in0.0 mm 0.00 in0.0 mm
06:59 PM 36.6°F2.6°C 21.1°F-6.1°C 53% Calm Calm 6.0 mph9.7 kmh 30.66 in1038.3 mb 0.00 in0.0 mm 0.00 in0.0 mm 0.00 in0.0 mm
07:00 PM 36.6°F2.6°C 21.1°F-6.1°C 53% Calm Calm 6.0 mph9.7 kmh 30.66 in1038.3 mb 0.00 in0.0 mm 0.00 in0.0 mm 0.00 in0.0 mm
07:01 PM 36.6°F2.6°C 21.1°F-6.1°C 53% Calm Calm 6.0 mph9.7 kmh 30.66 in1038.3 mb 0.00 in0.0 mm 0.00 in0.0 mm 0.00 in0.0 mm
07:02 PM 36.6°F2.6°C 21.1°F-6.1°C 53% Calm Calm 6.0 mph9.7 kmh 30.66 in1038.3 mb 0.00 in0.0 mm 0.00 in0.0 mm 0.00 in0.0 mm
07:03 PM 36.6°F2.6°C 21.1°F-6.1°C 53% Calm Calm 6.0 mph9.7 kmh 30.66 in1038.3 mb 0.00 in0.0 mm 0.00 in0.0 mm 0.00 in0.0 mm
07:04 PM 36.6°F2.6°C 21.1°F-6.1°C 53% Calm Calm 3.0 mph4.8 kmh 30.66 in1038.3 mb 0.00 in0.0 mm 0.00 in0.0 mm 0.00 in0.0 mm
07:05 PM 36.6°F2.6°C 21.1°F-6.1°C 53% Calm Calm 4.0 mph6.4 kmh 30.66 in1038.3 mb 0.00 in0.0 mm 0.00 in0.0 mm 0.00 in0.0 mm
07:06 PM 36.6°F2.6°C 20.6°F-6.3°C 52% Calm Calm 4.0 mph6.4 kmh 30.66 in1038.3 mb 0.00 in0.0 mm 0.00 in0.0 mm 0.00 in0.0 mm
07:07 PM 36.6°F2.6°C 20.6°F-6.3°C 52% Calm Calm 4.0 mph6.4 kmh 30.66 in1038.3 mb 0.00 in0.0 mm 0.00 in0.0 mm 0.00 in0.0 mm
07:08 PM 36.6°F2.6°C 20.6°F-6.3°C 52% Calm Calm 4.0 mph6.4 kmh 30.66 in1038.3 mb 0.00 in0.0 mm 0.00 in0.0 mm 0.00 in0.0 mm
07:09 PM 36.6°F2.6°C 20.6°F-6.3°C 52% Calm Calm 4.0 mph6.4 kmh 30.66 in1038.3 mb 0.00 in0.0 mm 0.00 in0.0 mm 0.00 in0.0 mm
07:10 PM 36.6°F2.6°C 21.1°F-6.1°C 53% Calm Calm 4.0 mph6.4 kmh 30.66 in1038.3 mb 0.00 in0.0 mm 0.00 in0.0 mm 0.00 in0.0 mm
07:11 PM 36.6°F2.6°C 21.1°F-6.1°C 53% Calm Calm 5.0 mph8.0 kmh 30.66 in1038.3 mb 0.00 in0.0 mm 0.00 in0.0 mm 0.00 in0.0 mm
07:12 PM 36.6°F2.6°C 20.6°F-6.3°C 52% Calm Calm 5.0 mph8.0 kmh 30.66 in1038.3 mb 0.00 in0.0 mm 0.00 in0.0 mm 0.00 in0.0 mm
07:13 PM 36.7°F2.6°C 20.7°F-6.3°C 52% 1.0 mph SE1.6 kmh SE 5.0 mph8.0 kmh 30.66 in1038.3 mb 0.00 in0.0 mm 0.00 in0.0 mm 0.00 in0.0 mm
07:14 PM 36.7°F2.6°C 20.7°F-6.3°C 52% 1.0 mph SE1.6 kmh SE 5.0 mph8.0 kmh 30.66 in1038.3 mb 0.00 in0.0 mm 0.00 in0.0 mm 0.00 in0.0 mm
07:15 PM 36.7°F2.6°C 20.7°F-6.3°C 52% 1.0 mph SE1.6 kmh SE 5.0 mph8.0 kmh 30.66 in1038.3 mb 0.00 in0.0 mm 0.00 in0.0 mm 0.00 in0.0 mm
07:16 PM 36.8°F2.7°C 20.8°F-6.2°C 52% 1.0 mph SE1.6 kmh SE 5.0 mph8.0 kmh 30.66 in1038.3 mb 0.00 in0.0 mm 0.00 in0.0 mm 0.00 in0.0 mm
07:17 PM 36.7°F2.6°C 20.7°F-6.3°C 52% 1.0 mph SE1.6 kmh SE 5.0 mph8.0 kmh 30.66 in1038.3 mb 0.00 in0.0 mm 0.00 in0.0 mm 0.00 in0.0 mm
07:18 PM 36.8°F2.7°C 20.8°F-6.2°C 52% 1.0 mph SE1.6 kmh SE 5.0 mph8.0 kmh 30.66 in1038.3 mb 0.00 in0.0 mm 0.00 in0.0 mm 0.00 in0.0 mm
07:19 PM 36.8°F2.7°C 20.8°F-6.2°C 52% 1.0 mph SE1.6 kmh SE 5.0 mph8.0 kmh 30.66 in1038.3 mb 0.00 in0.0 mm 0.00 in0.0 mm 0.00 in0.0 mm
07:20 PM 36.8°F2.7°C 20.8°F-6.2°C 52% 1.0 mph SE1.6 kmh SE 5.0 mph8.0 kmh 30.66 in1038.3 mb 0.00 in0.0 mm 0.00 in0.0 mm 0.00 in0.0 mm
07:21 PM 36.8°F2.7°C 20.8°F-6.2°C 52% 1.0 mph SE1.6 kmh SE 5.0 mph8.0 kmh 30.66 in1038.3 mb 0.00 in0.0 mm 0.00 in0.0 mm 0.00 in0.0 mm
07:22 PM 36.8°F2.7°C 20.8°F-6.2°C 52% 1.0 mph SE1.6 kmh SE 5.0 mph8.0 kmh 30.66 in1038.3 mb 0.00 in0.0 mm 0.00 in0.0 mm 0.00 in0.0 mm
07:23 PM 36.8°F2.7°C 20.8°F-6.2°C 52% 1.0 mph SE1.6 kmh SE 4.0 mph6.4 kmh 30.66 in1038.3 mb 0.00 in0.0 mm 0.00 in0.0 mm 0.00 in0.0 mm
07:24 PM 36.8°F2.7°C 20.8°F-6.2°C 52% Calm Calm 4.0 mph6.4 kmh 30.66 in1038.3 mb 0.00 in0.0 mm 0.00 in0.0 mm 0.00 in0.0 mm
07:25 PM 36.8°F2.7°C 20.8°F-6.2°C 52% Calm Calm 4.0 mph6.4 kmh 30.66 in1038.3 mb 0.00 in0.0 mm 0.00 in0.0 mm 0.00 in0.0 mm
07:26 PM 36.8°F2.7°C 20.8°F-6.2°C 52% Calm Calm 4.0 mph6.4 kmh 30.66 in1038.3 mb 0.00 in0.0 mm 0.00 in0.0 mm 0.00 in0.0 mm
07:27 PM 36.8°F2.7°C 20.8°F-6.2°C 52% Calm Calm 4.0 mph6.4 kmh 30.66 in1038.3 mb 0.00 in0.0 mm 0.00 in0.0 mm 0.00 in0.0 mm
07:28 PM 36.8°F2.7°C 20.8°F-6.2°C 52% Calm Calm 4.0 mph6.4 kmh 30.66 in1038.3 mb 0.00 in0.0 mm 0.00 in0.0 mm 0.00 in0.0 mm
07:29 PM 36.8°F2.7°C 20.8°F-6.2°C 52% Calm Calm 4.0 mph6.4 kmh 30.66 in1038.3 mb 0.00 in0.0 mm 0.00 in0.0 mm 0.00 in0.0 mm
07:30 PM 36.8°F2.7°C 20.8°F-6.2°C 52% Calm Calm 4.0 mph6.4 kmh 30.66 in1038.3 mb 0.00 in0.0 mm 0.00 in0.0 mm 0.00 in0.0 mm
07:31 PM 36.8°F2.7°C 20.8°F-6.2°C 52% Calm Calm 1.0 mph1.6 kmh 30.66 in1038.3 mb 0.00 in0.0 mm 0.00 in0.0 mm 0.00 in0.0 mm
07:32 PM 36.8°F2.7°C 20.8°F-6.2°C 52% Calm Calm 1.0 mph1.6 kmh 30.66 in1038.3 mb 0.00 in0.0 mm 0.00 in0.0 mm 0.00 in0.0 mm
07:33 PM 36.8°F2.7°C 20.8°F-6.2°C 52% Calm Calm 1.0 mph1.6 kmh 30.66 in1038.3 mb 0.00 in0.0 mm 0.00 in0.0 mm 0.00 in0.0 mm
07:34 PM 36.8°F2.7°C 20.8°F-6.2°C 52% Calm Calm 1.0 mph1.6 kmh 30.66 in1038.3 mb 0.00 in0.0 mm 0.00 in0.0 mm 0.00 in0.0 mm
07:35 PM 36.8°F2.7°C 20.8°F-6.2°C 52% Calm Calm 1.0 mph1.6 kmh 30.66 in1038.3 mb 0.00 in0.0 mm 0.00 in0.0 mm 0.00 in0.0 mm
07:36 PM 36.8°F2.7°C 20.8°F-6.2°C 52% Calm Calm 1.0 mph1.6 kmh 30.66 in1038.3 mb 0.00 in0.0 mm 0.00 in0.0 mm 0.00 in0.0 mm
07:37 PM 36.9°F2.7°C 20.9°F-6.2°C 52% Calm Calm 1.0 mph1.6 kmh 30.66 in1038.3 mb 0.00 in0.0 mm 0.00 in0.0 mm 0.00 in0.0 mm
07:38 PM 36.8°F2.7°C 20.8°F-6.2°C 52% Calm Calm 1.0 mph1.6 kmh